﻿<?xml version="1.0" encoding="UTF-8" standalone="no" ?>
<gpx xmlns="http://www.topografix.com/GPX/1/1" creator="CompeGPS" version="1.1" xmlns:xsi="http://www.w3.org/2001/XMLSchema-instance" xsi:schemaLocation="http://www.topografix.com/GPX/1/1 http://www.topografix.com/GPX/1/1/gpx.xsd http://www.garmin.com/xmlschemas/GpxExtensions/v3 http://www.garmin.com/xmlschemas/GpxExtensionsv3.xsd http://www.garmin.com/xmlschemas/TrackPointExtension/v1 http://www.garmin.com/xmlschemas/TrackPointExtensionv1.xsd" xmlns:gpxtpx="http://www.garmin.com/xmlschemas/TrackPointExtension/v1">
  <metadata>
    <link href="http://www.compegps.com">
      <text>CompeGPS TEAM, SL</text>
    </link>
    <time>2012-10-30T17:58:28Z</time>
    <bounds maxlat="43.349938" maxlon="1.453393" minlat="43.313834" minlon="1.402731"/>
  </metadata>
<wpt lat="43.323855" lon="1.433866">
  <ele>215</ele>
  <name>Mauressac</name>
</wpt>
<wpt lat="43.318700" lon="1.432924">
  <ele>209</ele>
  <name>Pont</name>
</wpt>
<wpt lat="43.314954" lon="1.435423">
  <ele>265</ele>
  <name>Chemin de Tarda</name>
</wpt>
<wpt lat="43.322000" lon="1.446754">
  <ele>197</ele>
  <name>Route D12</name>
</wpt>
<wpt lat="43.334750" lon="1.453368">
  <ele>195</ele>
  <name>Pont sur la D40</name>
</wpt>
<wpt lat="43.349910" lon="1.440738">
  <ele>190</ele>
  <name>Pont en brique</name>
</wpt>
<wpt lat="43.344707" lon="1.428545">
  <ele>195</ele>
  <name>Chemin des Izards</name>
</wpt>
<wpt lat="43.339828" lon="1.420972">
  <ele>200</ele>
  <name>Route D622</name>
</wpt>
<wpt lat="43.328635" lon="1.413147">
  <ele>293</ele>
  <name>Jean Blanc</name>
</wpt>
<wpt lat="43.321679" lon="1.406205">
  <ele>315</ele>
  <name>La Mecque</name>
</wpt>
  <trk>
    <name>Mauressac</name>
    <trkseg>
      <trkpt lat="43.323855" lon="1.433866">
        <ele>218.4</ele>
        <time>2012-10-30T13:06:12Z</time>
        <name>Mauressac</name>
      </trkpt>
      <trkpt lat="43.323849" lon="1.433768">
        <ele>218.8</ele>
        <time>2012-10-30T13:08:19Z</time>
      </trkpt>
      <trkpt lat="43.323790" lon="1.433633">
        <ele>218.4</ele>
        <time>2012-10-30T13:08:31Z</time>
      </trkpt>
      <trkpt lat="43.323726" lon="1.433503">
        <ele>218.4</ele>
        <time>2012-10-30T13:08:43Z</time>
      </trkpt>
      <trkpt lat="43.323626" lon="1.433330">
        <ele>219.3</ele>
        <time>2012-10-30T13:09:03Z</time>
      </trkpt>
      <trkpt lat="43.323525" lon="1.433230">
        <ele>219.3</ele>
        <time>2012-10-30T13:09:13Z</time>
      </trkpt>
      <trkpt lat="43.323437" lon="1.433112">
        <ele>220.3</ele>
        <time>2012-10-30T13:09:23Z</time>
      </trkpt>
      <trkpt lat="43.323356" lon="1.433000">
        <ele>220.3</ele>
        <time>2012-10-30T13:09:32Z</time>
      </trkpt>
      <trkpt lat="43.323313" lon="1.432841">
        <ele>220.8</ele>
        <time>2012-10-30T13:09:44Z</time>
      </trkpt>
      <trkpt lat="43.323226" lon="1.432712">
        <ele>221.7</ele>
        <time>2012-10-30T13:09:56Z</time>
      </trkpt>
      <trkpt lat="43.323146" lon="1.432555">
        <ele>222.2</ele>
        <time>2012-10-30T13:10:10Z</time>
      </trkpt>
      <trkpt lat="43.323085" lon="1.432358">
        <ele>222.7</ele>
        <time>2012-10-30T13:10:21Z</time>
      </trkpt>
      <trkpt lat="43.323019" lon="1.432240">
        <ele>223.2</ele>
        <time>2012-10-30T13:10:34Z</time>
      </trkpt>
      <trkpt lat="43.322936" lon="1.432273">
        <ele>223.2</ele>
        <time>2012-10-30T13:10:54Z</time>
      </trkpt>
      <trkpt lat="43.322845" lon="1.432309">
        <ele>224.1</ele>
        <time>2012-10-30T13:11:04Z</time>
      </trkpt>
      <trkpt lat="43.322706" lon="1.432419">
        <ele>224.6</ele>
        <time>2012-10-30T13:11:19Z</time>
      </trkpt>
      <trkpt lat="43.322604" lon="1.432486">
        <ele>225.6</ele>
        <time>2012-10-30T13:11:30Z</time>
      </trkpt>
      <trkpt lat="43.322496" lon="1.432591">
        <ele>226.5</ele>
        <time>2012-10-30T13:11:42Z</time>
      </trkpt>
      <trkpt lat="43.322407" lon="1.432689">
        <ele>228.0</ele>
        <time>2012-10-30T13:11:52Z</time>
      </trkpt>
      <trkpt lat="43.322351" lon="1.432714">
        <ele>228.0</ele>
        <time>2012-10-30T13:12:20Z</time>
      </trkpt>
      <trkpt lat="43.322276" lon="1.432842">
        <ele>228.9</ele>
        <time>2012-10-30T13:12:31Z</time>
      </trkpt>
      <trkpt lat="43.322211" lon="1.432957">
        <ele>228.4</ele>
        <time>2012-10-30T13:12:41Z</time>
      </trkpt>
      <trkpt lat="43.322147" lon="1.433053">
        <ele>228.4</ele>
        <time>2012-10-30T13:12:49Z</time>
      </trkpt>
      <trkpt lat="43.322056" lon="1.433133">
        <ele>228.9</ele>
        <time>2012-10-30T13:12:58Z</time>
      </trkpt>
      <trkpt lat="43.321987" lon="1.433211">
        <ele>228.4</ele>
        <time>2012-10-30T13:13:06Z</time>
      </trkpt>
      <trkpt lat="43.321898" lon="1.433304">
        <ele>228.4</ele>
        <time>2012-10-30T13:13:15Z</time>
      </trkpt>
      <trkpt lat="43.321792" lon="1.433387">
        <ele>228.9</ele>
        <time>2012-10-30T13:13:24Z</time>
      </trkpt>
      <trkpt lat="43.321677" lon="1.433424">
        <ele>228.4</ele>
        <time>2012-10-30T13:13:32Z</time>
      </trkpt>
      <trkpt lat="43.321585" lon="1.433441">
        <ele>226.5</ele>
        <time>2012-10-30T13:13:38Z</time>
      </trkpt>
      <trkpt lat="43.321507" lon="1.433485">
        <ele>225.1</ele>
        <time>2012-10-30T13:13:46Z</time>
      </trkpt>
      <trkpt lat="43.321392" lon="1.433540">
        <ele>225.1</ele>
        <time>2012-10-30T13:13:56Z</time>
      </trkpt>
      <trkpt lat="43.321266" lon="1.433630">
        <ele>224.6</ele>
        <time>2012-10-30T13:14:08Z</time>
      </trkpt>
      <trkpt lat="43.321136" lon="1.433689">
        <ele>224.1</ele>
        <time>2012-10-30T13:14:21Z</time>
      </trkpt>
      <trkpt lat="43.321013" lon="1.433751">
        <ele>224.1</ele>
        <time>2012-10-30T13:14:31Z</time>
      </trkpt>
      <trkpt lat="43.320902" lon="1.433800">
        <ele>223.2</ele>
        <time>2012-10-30T13:14:40Z</time>
      </trkpt>
      <trkpt lat="43.320766" lon="1.433755">
        <ele>222.7</ele>
        <time>2012-10-30T13:14:49Z</time>
      </trkpt>
      <trkpt lat="43.320643" lon="1.433673">
        <ele>221.2</ele>
        <time>2012-10-30T13:14:59Z</time>
      </trkpt>
      <trkpt lat="43.320541" lon="1.433562">
        <ele>219.3</ele>
        <time>2012-10-30T13:15:09Z</time>
      </trkpt>
      <trkpt lat="43.320438" lon="1.433461">
        <ele>217.4</ele>
        <time>2012-10-30T13:15:18Z</time>
      </trkpt>
      <trkpt lat="43.320331" lon="1.433413">
        <ele>216.4</ele>
        <time>2012-10-30T13:15:26Z</time>
      </trkpt>
      <trkpt lat="43.320224" lon="1.433372">
        <ele>215.5</ele>
        <time>2012-10-30T13:15:34Z</time>
      </trkpt>
      <trkpt lat="43.320105" lon="1.433383">
        <ele>215.5</ele>
        <time>2012-10-30T13:15:50Z</time>
      </trkpt>
      <trkpt lat="43.319998" lon="1.433375">
        <ele>215.0</ele>
        <time>2012-10-30T13:15:58Z</time>
      </trkpt>
      <trkpt lat="43.319882" lon="1.433320">
        <ele>215.0</ele>
        <time>2012-10-30T13:16:06Z</time>
      </trkpt>
      <trkpt lat="43.319786" lon="1.433244">
        <ele>215.0</ele>
        <time>2012-10-30T13:16:14Z</time>
      </trkpt>
      <trkpt lat="43.319696" lon="1.433122">
        <ele>215.0</ele>
        <time>2012-10-30T13:16:23Z</time>
      </trkpt>
      <trkpt lat="43.319614" lon="1.432994">
        <ele>215.0</ele>
        <time>2012-10-30T13:16:34Z</time>
      </trkpt>
      <trkpt lat="43.319535" lon="1.432863">
        <ele>215.5</ele>
        <time>2012-10-30T13:18:58Z</time>
      </trkpt>
      <trkpt lat="43.319454" lon="1.432772">
        <ele>215.0</ele>
        <time>2012-10-30T13:19:08Z</time>
      </trkpt>
      <trkpt lat="43.319380" lon="1.432670">
        <ele>215.5</ele>
        <time>2012-10-30T13:19:17Z</time>
      </trkpt>
      <trkpt lat="43.319308" lon="1.432609">
        <ele>214.5</ele>
        <time>2012-10-30T13:19:25Z</time>
      </trkpt>
      <trkpt lat="43.319223" lon="1.432543">
        <ele>214.0</ele>
        <time>2012-10-30T13:19:33Z</time>
      </trkpt>
      <trkpt lat="43.319133" lon="1.432538">
        <ele>212.6</ele>
        <time>2012-10-30T13:19:41Z</time>
      </trkpt>
      <trkpt lat="43.319049" lon="1.432610">
        <ele>212.6</ele>
        <time>2012-10-30T13:19:49Z</time>
      </trkpt>
      <trkpt lat="43.318968" lon="1.432704">
        <ele>212.1</ele>
        <time>2012-10-30T13:19:59Z</time>
      </trkpt>
      <trkpt lat="43.318884" lon="1.432791">
        <ele>211.6</ele>
        <time>2012-10-30T13:20:07Z</time>
      </trkpt>
      <trkpt lat="43.318790" lon="1.432878">
        <ele>211.6</ele>
        <time>2012-10-30T13:20:16Z</time>
      </trkpt>
      <trkpt lat="43.318700" lon="1.432924">
        <ele>211.1</ele>
        <time>2012-10-30T13:20:27Z</time>
        <name>Pont</name>
      </trkpt>
      <trkpt lat="43.318580" lon="1.432909">
        <ele>211.1</ele>
        <time>2012-10-30T13:20:55Z</time>
      </trkpt>
      <trkpt lat="43.318461" lon="1.432865">
        <ele>211.6</ele>
        <time>2012-10-30T13:21:05Z</time>
      </trkpt>
      <trkpt lat="43.318335" lon="1.432847">
        <ele>212.1</ele>
        <time>2012-10-30T13:21:16Z</time>
      </trkpt>
      <trkpt lat="43.318216" lon="1.432841">
        <ele>213.6</ele>
        <time>2012-10-30T13:21:26Z</time>
      </trkpt>
      <trkpt lat="43.318115" lon="1.432862">
        <ele>215.0</ele>
        <time>2012-10-30T13:21:36Z</time>
      </trkpt>
      <trkpt lat="43.318009" lon="1.432912">
        <ele>216.4</ele>
        <time>2012-10-30T13:21:45Z</time>
      </trkpt>
      <trkpt lat="43.317978" lon="1.433043">
        <ele>218.8</ele>
        <time>2012-10-30T13:21:54Z</time>
      </trkpt>
      <trkpt lat="43.317979" lon="1.433207">
        <ele>221.7</ele>
        <time>2012-10-30T13:22:06Z</time>
      </trkpt>
      <trkpt lat="43.317889" lon="1.433273">
        <ele>224.6</ele>
        <time>2012-10-30T13:22:20Z</time>
      </trkpt>
      <trkpt lat="43.317775" lon="1.433190">
        <ele>226.5</ele>
        <time>2012-10-30T13:22:33Z</time>
      </trkpt>
      <trkpt lat="43.317666" lon="1.433068">
        <ele>228.0</ele>
        <time>2012-10-30T13:22:48Z</time>
      </trkpt>
      <trkpt lat="43.317542" lon="1.432947">
        <ele>230.4</ele>
        <time>2012-10-30T13:22:59Z</time>
      </trkpt>
      <trkpt lat="43.317401" lon="1.432851">
        <ele>232.3</ele>
        <time>2012-10-30T13:23:09Z</time>
      </trkpt>
      <trkpt lat="43.317271" lon="1.432767">
        <ele>234.7</ele>
        <time>2012-10-30T13:23:21Z</time>
      </trkpt>
      <trkpt lat="43.317114" lon="1.432700">
        <ele>236.1</ele>
        <time>2012-10-30T13:23:32Z</time>
      </trkpt>
      <trkpt lat="43.316963" lon="1.432629">
        <ele>239.0</ele>
        <time>2012-10-30T13:23:46Z</time>
      </trkpt>
      <trkpt lat="43.316749" lon="1.432565">
        <ele>241.9</ele>
        <time>2012-10-30T13:24:15Z</time>
      </trkpt>
      <trkpt lat="43.316612" lon="1.432421">
        <ele>245.3</ele>
        <time>2012-10-30T13:24:33Z</time>
      </trkpt>
      <trkpt lat="43.316458" lon="1.432388">
        <ele>247.7</ele>
        <time>2012-10-30T13:24:47Z</time>
      </trkpt>
      <trkpt lat="43.316333" lon="1.432467">
        <ele>250.1</ele>
        <time>2012-10-30T13:25:01Z</time>
      </trkpt>
      <trkpt lat="43.316154" lon="1.432608">
        <ele>252.0</ele>
        <time>2012-10-30T13:25:58Z</time>
      </trkpt>
      <trkpt lat="43.316035" lon="1.432721">
        <ele>253.9</ele>
        <time>2012-10-30T13:26:16Z</time>
      </trkpt>
      <trkpt lat="43.315947" lon="1.432888">
        <ele>255.9</ele>
        <time>2012-10-30T13:26:30Z</time>
      </trkpt>
      <trkpt lat="43.315863" lon="1.433013">
        <ele>258.2</ele>
        <time>2012-10-30T13:26:41Z</time>
      </trkpt>
      <trkpt lat="43.315776" lon="1.433194">
        <ele>260.2</ele>
        <time>2012-10-30T13:26:51Z</time>
      </trkpt>
      <trkpt lat="43.315719" lon="1.433351">
        <ele>262.6</ele>
        <time>2012-10-30T13:27:00Z</time>
      </trkpt>
      <trkpt lat="43.315616" lon="1.433448">
        <ele>265.0</ele>
        <time>2012-10-30T13:27:09Z</time>
      </trkpt>
      <trkpt lat="43.315501" lon="1.433428">
        <ele>265.5</ele>
        <time>2012-10-30T13:27:17Z</time>
      </trkpt>
      <trkpt lat="43.315403" lon="1.433384">
        <ele>265.9</ele>
        <time>2012-10-30T13:27:24Z</time>
      </trkpt>
      <trkpt lat="43.315307" lon="1.433343">
        <ele>265.9</ele>
        <time>2012-10-30T13:27:31Z</time>
      </trkpt>
      <trkpt lat="43.315195" lon="1.433329">
        <ele>266.9</ele>
        <time>2012-10-30T13:27:39Z</time>
      </trkpt>
      <trkpt lat="43.315080" lon="1.433372">
        <ele>267.9</ele>
        <time>2012-10-30T13:27:47Z</time>
      </trkpt>
      <trkpt lat="43.314991" lon="1.433469">
        <ele>268.8</ele>
        <time>2012-10-30T13:27:54Z</time>
      </trkpt>
      <trkpt lat="43.314910" lon="1.433586">
        <ele>268.4</ele>
        <time>2012-10-30T13:28:01Z</time>
      </trkpt>
      <trkpt lat="43.314839" lon="1.433700">
        <ele>269.8</ele>
        <time>2012-10-30T13:28:08Z</time>
      </trkpt>
      <trkpt lat="43.314768" lon="1.433824">
        <ele>270.3</ele>
        <time>2012-10-30T13:28:15Z</time>
      </trkpt>
      <trkpt lat="43.314705" lon="1.433919">
        <ele>270.3</ele>
        <time>2012-10-30T13:28:21Z</time>
      </trkpt>
      <trkpt lat="43.314653" lon="1.434034">
        <ele>270.8</ele>
        <time>2012-10-30T13:28:28Z</time>
      </trkpt>
      <trkpt lat="43.314590" lon="1.434145">
        <ele>270.8</ele>
        <time>2012-10-30T13:28:36Z</time>
      </trkpt>
      <trkpt lat="43.314533" lon="1.434225">
        <ele>271.7</ele>
        <time>2012-10-30T13:28:45Z</time>
      </trkpt>
      <trkpt lat="43.314486" lon="1.434339">
        <ele>270.8</ele>
        <time>2012-10-30T13:28:52Z</time>
      </trkpt>
      <trkpt lat="43.314424" lon="1.434442">
        <ele>271.7</ele>
        <time>2012-10-30T13:28:59Z</time>
      </trkpt>
      <trkpt lat="43.314356" lon="1.434555">
        <ele>271.2</ele>
        <time>2012-10-30T13:29:06Z</time>
      </trkpt>
      <trkpt lat="43.314289" lon="1.434633">
        <ele>272.2</ele>
        <time>2012-10-30T13:29:13Z</time>
      </trkpt>
      <trkpt lat="43.314221" lon="1.434738">
        <ele>271.7</ele>
        <time>2012-10-30T13:29:21Z</time>
      </trkpt>
      <trkpt lat="43.314151" lon="1.434841">
        <ele>272.2</ele>
        <time>2012-10-30T13:29:29Z</time>
      </trkpt>
      <trkpt lat="43.314074" lon="1.434945">
        <ele>272.7</ele>
        <time>2012-10-30T13:29:37Z</time>
      </trkpt>
      <trkpt lat="43.313978" lon="1.435026">
        <ele>272.7</ele>
        <time>2012-10-30T13:29:45Z</time>
      </trkpt>
      <trkpt lat="43.313890" lon="1.435095">
        <ele>272.7</ele>
        <time>2012-10-30T13:29:53Z</time>
      </trkpt>
      <trkpt lat="43.313947" lon="1.435212">
        <ele>272.2</ele>
        <time>2012-10-30T13:30:01Z</time>
      </trkpt>
      <trkpt lat="43.314066" lon="1.435242">
        <ele>271.7</ele>
        <time>2012-10-30T13:30:10Z</time>
      </trkpt>
      <trkpt lat="43.314170" lon="1.435270">
        <ele>270.8</ele>
        <time>2012-10-30T13:30:20Z</time>
      </trkpt>
      <trkpt lat="43.314276" lon="1.435290">
        <ele>270.3</ele>
        <time>2012-10-30T13:30:30Z</time>
      </trkpt>
      <trkpt lat="43.314386" lon="1.435330">
        <ele>269.8</ele>
        <time>2012-10-30T13:30:40Z</time>
      </trkpt>
      <trkpt lat="43.314497" lon="1.435343">
        <ele>268.8</ele>
        <time>2012-10-30T13:30:50Z</time>
      </trkpt>
      <trkpt lat="43.314608" lon="1.435365">
        <ele>268.4</ele>
        <time>2012-10-30T13:31:00Z</time>
      </trkpt>
      <trkpt lat="43.314731" lon="1.435387">
        <ele>267.4</ele>
        <time>2012-10-30T13:31:10Z</time>
      </trkpt>
      <trkpt lat="43.314842" lon="1.435399">
        <ele>266.4</ele>
        <time>2012-10-30T13:31:18Z</time>
      </trkpt>
      <trkpt lat="43.314954" lon="1.435423">
        <ele>265.5</ele>
        <time>2012-10-30T13:31:27Z</time>
        <name>Chemin de Tarda</name>
       </trkpt>
      <trkpt lat="43.315006" lon="1.435563">
        <ele>265.5</ele>
        <time>2012-10-30T13:32:10Z</time>
      </trkpt>
      <trkpt lat="43.314979" lon="1.435713">
        <ele>265.0</ele>
        <time>2012-10-30T13:32:20Z</time>
      </trkpt>
      <trkpt lat="43.314962" lon="1.435869">
        <ele>264.0</ele>
        <time>2012-10-30T13:32:29Z</time>
      </trkpt>
      <trkpt lat="43.314950" lon="1.436013">
        <ele>262.6</ele>
        <time>2012-10-30T13:32:37Z</time>
      </trkpt>
      <trkpt lat="43.314929" lon="1.436152">
        <ele>263.1</ele>
        <time>2012-10-30T13:32:45Z</time>
      </trkpt>
      <trkpt lat="43.314897" lon="1.436297">
        <ele>264.5</ele>
        <time>2012-10-30T13:32:53Z</time>
      </trkpt>
      <trkpt lat="43.314834" lon="1.436413">
        <ele>265.5</ele>
        <time>2012-10-30T13:33:01Z</time>
      </trkpt>
      <trkpt lat="43.314776" lon="1.436512">
        <ele>265.5</ele>
        <time>2012-10-30T13:33:08Z</time>
      </trkpt>
      <trkpt lat="43.314713" lon="1.436619">
        <ele>265.9</ele>
        <time>2012-10-30T13:33:15Z</time>
      </trkpt>
      <trkpt lat="43.314665" lon="1.436724">
        <ele>266.4</ele>
        <time>2012-10-30T13:33:22Z</time>
      </trkpt>
      <trkpt lat="43.314616" lon="1.436841">
        <ele>266.4</ele>
        <time>2012-10-30T13:33:29Z</time>
      </trkpt>
      <trkpt lat="43.314579" lon="1.436958">
        <ele>265.5</ele>
        <time>2012-10-30T13:33:36Z</time>
      </trkpt>
      <trkpt lat="43.314535" lon="1.437090">
        <ele>266.4</ele>
        <time>2012-10-30T13:33:43Z</time>
      </trkpt>
      <trkpt lat="43.314494" lon="1.437233">
        <ele>266.9</ele>
        <time>2012-10-30T13:33:50Z</time>
      </trkpt>
      <trkpt lat="43.314446" lon="1.437361">
        <ele>267.4</ele>
        <time>2012-10-30T13:33:57Z</time>
      </trkpt>
      <trkpt lat="43.314397" lon="1.437483">
        <ele>267.9</ele>
        <time>2012-10-30T13:34:04Z</time>
      </trkpt>
      <trkpt lat="43.314351" lon="1.437606">
        <ele>267.9</ele>
        <time>2012-10-30T13:34:11Z</time>
      </trkpt>
      <trkpt lat="43.314306" lon="1.437723">
        <ele>268.4</ele>
        <time>2012-10-30T13:34:18Z</time>
      </trkpt>
      <trkpt lat="43.314251" lon="1.437842">
        <ele>269.3</ele>
        <time>2012-10-30T13:34:25Z</time>
      </trkpt>
      <trkpt lat="43.314209" lon="1.437974">
        <ele>270.3</ele>
        <time>2012-10-30T13:34:32Z</time>
      </trkpt>
      <trkpt lat="43.314155" lon="1.438098">
        <ele>269.8</ele>
        <time>2012-10-30T13:34:39Z</time>
      </trkpt>
      <trkpt lat="43.314112" lon="1.438215">
        <ele>270.3</ele>
        <time>2012-10-30T13:34:45Z</time>
      </trkpt>
      <trkpt lat="43.314062" lon="1.438343">
        <ele>270.8</ele>
        <time>2012-10-30T13:34:52Z</time>
      </trkpt>
      <trkpt lat="43.314015" lon="1.438459">
        <ele>271.2</ele>
        <time>2012-10-30T13:34:58Z</time>
      </trkpt>
      <trkpt lat="43.313964" lon="1.438594">
        <ele>271.7</ele>
        <time>2012-10-30T13:35:05Z</time>
      </trkpt>
      <trkpt lat="43.313922" lon="1.438713">
        <ele>272.2</ele>
        <time>2012-10-30T13:35:11Z</time>
      </trkpt>
      <trkpt lat="43.313874" lon="1.438832">
        <ele>271.2</ele>
        <time>2012-10-30T13:35:17Z</time>
      </trkpt>
      <trkpt lat="43.313837" lon="1.438967">
        <ele>271.2</ele>
        <time>2012-10-30T13:35:24Z</time>
      </trkpt>
      <trkpt lat="43.313834" lon="1.439116">
        <ele>270.8</ele>
        <time>2012-10-30T13:35:31Z</time>
      </trkpt>
      <trkpt lat="43.313891" lon="1.439241">
        <ele>269.8</ele>
        <time>2012-10-30T13:35:38Z</time>
      </trkpt>
      <trkpt lat="43.313970" lon="1.439360">
        <ele>269.8</ele>
        <time>2012-10-30T13:35:45Z</time>
      </trkpt>
      <trkpt lat="43.314046" lon="1.439467">
        <ele>268.8</ele>
        <time>2012-10-30T13:35:52Z</time>
      </trkpt>
      <trkpt lat="43.314116" lon="1.439575">
        <ele>268.4</ele>
        <time>2012-10-30T13:35:59Z</time>
      </trkpt>
      <trkpt lat="43.314192" lon="1.439685">
        <ele>267.4</ele>
        <time>2012-10-30T13:36:06Z</time>
      </trkpt>
      <trkpt lat="43.314254" lon="1.439785">
        <ele>266.9</ele>
        <time>2012-10-30T13:36:12Z</time>
      </trkpt>
      <trkpt lat="43.314333" lon="1.439886">
        <ele>266.9</ele>
        <time>2012-10-30T13:36:19Z</time>
      </trkpt>
      <trkpt lat="43.314403" lon="1.439972">
        <ele>265.5</ele>
        <time>2012-10-30T13:36:25Z</time>
      </trkpt>
      <trkpt lat="43.314486" lon="1.440046">
        <ele>266.4</ele>
        <time>2012-10-30T13:36:32Z</time>
      </trkpt>
      <trkpt lat="43.314578" lon="1.440106">
        <ele>265.9</ele>
        <time>2012-10-30T13:36:39Z</time>
      </trkpt>
      <trkpt lat="43.314671" lon="1.440167">
        <ele>265.0</ele>
        <time>2012-10-30T13:36:46Z</time>
      </trkpt>
      <trkpt lat="43.314761" lon="1.440252">
        <ele>265.0</ele>
        <time>2012-10-30T13:36:54Z</time>
      </trkpt>
      <trkpt lat="43.314853" lon="1.440323">
        <ele>265.5</ele>
        <time>2012-10-30T13:37:01Z</time>
      </trkpt>
      <trkpt lat="43.314952" lon="1.440405">
        <ele>264.0</ele>
        <time>2012-10-30T13:37:09Z</time>
      </trkpt>
      <trkpt lat="43.315029" lon="1.440489">
        <ele>263.1</ele>
        <time>2012-10-30T13:37:20Z</time>
      </trkpt>
      <trkpt lat="43.315093" lon="1.440587">
        <ele>263.1</ele>
        <time>2012-10-30T13:37:27Z</time>
      </trkpt>
      <trkpt lat="43.315163" lon="1.440688">
        <ele>262.1</ele>
        <time>2012-10-30T13:37:34Z</time>
      </trkpt>
      <trkpt lat="43.315226" lon="1.440821">
        <ele>260.2</ele>
        <time>2012-10-30T13:37:43Z</time>
      </trkpt>
      <trkpt lat="43.315296" lon="1.440939">
        <ele>260.2</ele>
        <time>2012-10-30T13:37:52Z</time>
      </trkpt>
      <trkpt lat="43.315381" lon="1.441072">
        <ele>258.2</ele>
        <time>2012-10-30T13:38:03Z</time>
      </trkpt>
      <trkpt lat="43.315466" lon="1.441191">
        <ele>258.2</ele>
        <time>2012-10-30T13:38:12Z</time>
      </trkpt>
      <trkpt lat="43.315555" lon="1.441301">
        <ele>256.8</ele>
        <time>2012-10-30T13:38:27Z</time>
      </trkpt>
      <trkpt lat="43.315631" lon="1.441406">
        <ele>255.9</ele>
        <time>2012-10-30T13:38:36Z</time>
      </trkpt>
      <trkpt lat="43.315711" lon="1.441507">
        <ele>254.9</ele>
        <time>2012-10-30T13:38:45Z</time>
      </trkpt>
      <trkpt lat="43.315786" lon="1.441610">
        <ele>253.9</ele>
        <time>2012-10-30T13:38:53Z</time>
      </trkpt>
      <trkpt lat="43.315866" lon="1.441720">
        <ele>253.4</ele>
        <time>2012-10-30T13:39:02Z</time>
      </trkpt>
      <trkpt lat="43.315966" lon="1.441848">
        <ele>252.5</ele>
        <time>2012-10-30T13:39:12Z</time>
      </trkpt>
      <trkpt lat="43.316056" lon="1.441970">
        <ele>251.0</ele>
        <time>2012-10-30T13:39:21Z</time>
      </trkpt>
      <trkpt lat="43.316140" lon="1.442105">
        <ele>249.6</ele>
        <time>2012-10-30T13:39:30Z</time>
      </trkpt>
      <trkpt lat="43.316200" lon="1.442231">
        <ele>249.1</ele>
        <time>2012-10-30T13:39:37Z</time>
      </trkpt>
      <trkpt lat="43.316266" lon="1.442358">
        <ele>247.7</ele>
        <time>2012-10-30T13:39:45Z</time>
      </trkpt>
      <trkpt lat="43.316314" lon="1.442495">
        <ele>248.2</ele>
        <time>2012-10-30T13:39:53Z</time>
      </trkpt>
      <trkpt lat="43.316384" lon="1.442617">
        <ele>248.6</ele>
        <time>2012-10-30T13:40:01Z</time>
      </trkpt>
      <trkpt lat="43.316479" lon="1.442683">
        <ele>248.2</ele>
        <time>2012-10-30T13:40:09Z</time>
      </trkpt>
      <trkpt lat="43.316571" lon="1.442749">
        <ele>247.2</ele>
        <time>2012-10-30T13:40:17Z</time>
      </trkpt>
      <trkpt lat="43.316658" lon="1.442850">
        <ele>247.7</ele>
        <time>2012-10-30T13:40:26Z</time>
      </trkpt>
      <trkpt lat="43.316742" lon="1.442957">
        <ele>247.7</ele>
        <time>2012-10-30T13:40:34Z</time>
      </trkpt>
      <trkpt lat="43.316848" lon="1.443005">
        <ele>247.2</ele>
        <time>2012-10-30T13:40:43Z</time>
      </trkpt>
      <trkpt lat="43.316937" lon="1.443071">
        <ele>247.2</ele>
        <time>2012-10-30T13:40:51Z</time>
      </trkpt>
      <trkpt lat="43.317032" lon="1.443150">
        <ele>247.7</ele>
        <time>2012-10-30T13:41:02Z</time>
      </trkpt>
      <trkpt lat="43.317123" lon="1.443209">
        <ele>248.6</ele>
        <time>2012-10-30T13:41:10Z</time>
      </trkpt>
      <trkpt lat="43.317211" lon="1.443268">
        <ele>248.2</ele>
        <time>2012-10-30T13:41:17Z</time>
      </trkpt>
      <trkpt lat="43.317289" lon="1.443336">
        <ele>248.2</ele>
        <time>2012-10-30T13:41:24Z</time>
      </trkpt>
      <trkpt lat="43.317384" lon="1.443398">
        <ele>248.2</ele>
        <time>2012-10-30T13:41:32Z</time>
      </trkpt>
      <trkpt lat="43.317477" lon="1.443458">
        <ele>247.7</ele>
        <time>2012-10-30T13:41:39Z</time>
      </trkpt>
      <trkpt lat="43.317561" lon="1.443508">
        <ele>246.7</ele>
        <time>2012-10-30T13:41:45Z</time>
      </trkpt>
      <trkpt lat="43.317663" lon="1.443579">
        <ele>246.7</ele>
        <time>2012-10-30T13:41:52Z</time>
      </trkpt>
      <trkpt lat="43.317743" lon="1.443643">
        <ele>247.2</ele>
        <time>2012-10-30T13:41:58Z</time>
      </trkpt>
      <trkpt lat="43.317840" lon="1.443706">
        <ele>245.3</ele>
        <time>2012-10-30T13:42:05Z</time>
      </trkpt>
      <trkpt lat="43.317935" lon="1.443769">
        <ele>245.8</ele>
        <time>2012-10-30T13:42:12Z</time>
      </trkpt>
      <trkpt lat="43.318028" lon="1.443830">
        <ele>246.2</ele>
        <time>2012-10-30T13:42:19Z</time>
      </trkpt>
      <trkpt lat="43.318120" lon="1.443889">
        <ele>245.3</ele>
        <time>2012-10-30T13:42:27Z</time>
      </trkpt>
      <trkpt lat="43.318222" lon="1.443951">
        <ele>242.9</ele>
        <time>2012-10-30T13:42:36Z</time>
      </trkpt>
      <trkpt lat="43.318329" lon="1.444036">
        <ele>240.9</ele>
        <time>2012-10-30T13:42:46Z</time>
      </trkpt>
      <trkpt lat="43.318461" lon="1.444141">
        <ele>238.1</ele>
        <time>2012-10-30T13:42:58Z</time>
      </trkpt>
      <trkpt lat="43.318691" lon="1.444208">
        <ele>234.7</ele>
        <time>2012-10-30T13:43:58Z</time>
      </trkpt>
      <trkpt lat="43.318791" lon="1.444235">
        <ele>232.3</ele>
        <time>2012-10-30T13:44:06Z</time>
      </trkpt>
      <trkpt lat="43.318931" lon="1.444301">
        <ele>228.4</ele>
        <time>2012-10-30T13:44:16Z</time>
      </trkpt>
      <trkpt lat="43.319091" lon="1.444418">
        <ele>224.6</ele>
        <time>2012-10-30T13:44:29Z</time>
      </trkpt>
      <trkpt lat="43.319294" lon="1.444489">
        <ele>220.3</ele>
        <time>2012-10-30T13:44:42Z</time>
      </trkpt>
      <trkpt lat="43.319475" lon="1.444502">
        <ele>216.9</ele>
        <time>2012-10-30T13:44:55Z</time>
      </trkpt>
      <trkpt lat="43.319688" lon="1.444505">
        <ele>213.6</ele>
        <time>2012-10-30T13:45:10Z</time>
      </trkpt>
      <trkpt lat="43.319807" lon="1.444520">
        <ele>212.1</ele>
        <time>2012-10-30T13:45:17Z</time>
      </trkpt>
      <trkpt lat="43.319949" lon="1.444595">
        <ele>211.1</ele>
        <time>2012-10-30T13:45:36Z</time>
      </trkpt>
      <trkpt lat="43.320067" lon="1.444675">
        <ele>207.8</ele>
        <time>2012-10-30T13:45:46Z</time>
      </trkpt>
      <trkpt lat="43.320177" lon="1.444741">
        <ele>206.3</ele>
        <time>2012-10-30T13:45:54Z</time>
      </trkpt>
      <trkpt lat="43.320278" lon="1.444811">
        <ele>204.4</ele>
        <time>2012-10-30T13:46:03Z</time>
      </trkpt>
      <trkpt lat="43.320382" lon="1.444924">
        <ele>203.9</ele>
        <time>2012-10-30T13:46:12Z</time>
      </trkpt>
      <trkpt lat="43.320500" lon="1.445045">
        <ele>203.0</ele>
        <time>2012-10-30T13:46:21Z</time>
      </trkpt>
      <trkpt lat="43.320609" lon="1.445211">
        <ele>202.0</ele>
        <time>2012-10-30T13:46:30Z</time>
      </trkpt>
      <trkpt lat="43.320718" lon="1.445404">
        <ele>202.0</ele>
        <time>2012-10-30T13:46:39Z</time>
      </trkpt>
      <trkpt lat="43.320791" lon="1.445623">
        <ele>201.1</ele>
        <time>2012-10-30T13:46:50Z</time>
      </trkpt>
      <trkpt lat="43.320856" lon="1.445817">
        <ele>200.6</ele>
        <time>2012-10-30T13:46:59Z</time>
      </trkpt>
      <trkpt lat="43.320933" lon="1.445960">
        <ele>199.6</ele>
        <time>2012-10-30T13:47:06Z</time>
      </trkpt>
      <trkpt lat="43.321010" lon="1.446067">
        <ele>198.2</ele>
        <time>2012-10-30T13:47:14Z</time>
      </trkpt>
      <trkpt lat="43.321093" lon="1.446148">
        <ele>197.2</ele>
        <time>2012-10-30T13:47:31Z</time>
      </trkpt>
      <trkpt lat="43.321181" lon="1.446219">
        <ele>197.7</ele>
        <time>2012-10-30T13:47:41Z</time>
      </trkpt>
      <trkpt lat="43.321265" lon="1.446290">
        <ele>197.7</ele>
        <time>2012-10-30T13:47:49Z</time>
      </trkpt>
      <trkpt lat="43.321361" lon="1.446369">
        <ele>198.2</ele>
        <time>2012-10-30T13:47:57Z</time>
      </trkpt>
      <trkpt lat="43.321449" lon="1.446428">
        <ele>197.7</ele>
        <time>2012-10-30T13:48:04Z</time>
      </trkpt>
      <trkpt lat="43.321539" lon="1.446490">
        <ele>197.2</ele>
        <time>2012-10-30T13:48:12Z</time>
      </trkpt>
      <trkpt lat="43.321629" lon="1.446573">
        <ele>196.7</ele>
        <time>2012-10-30T13:48:20Z</time>
      </trkpt>
      <trkpt lat="43.321725" lon="1.446647">
        <ele>197.7</ele>
        <time>2012-10-30T13:48:29Z</time>
      </trkpt>
      <trkpt lat="43.321829" lon="1.446734">
        <ele>196.2</ele>
        <time>2012-10-30T13:48:39Z</time>
      </trkpt>
      <trkpt lat="43.321914" lon="1.446814">
        <ele>195.8</ele>
        <time>2012-10-30T13:48:47Z</time>
      </trkpt>
      <trkpt lat="43.322000" lon="1.446754">
        <ele>197.2</ele>
        <time>2012-10-30T13:48:55Z</time>
        <name>Route D12</name>
      </trkpt>
      <trkpt lat="43.322082" lon="1.446661">
        <ele>197.7</ele>
        <time>2012-10-30T13:49:03Z</time>
      </trkpt>
      <trkpt lat="43.322169" lon="1.446578">
        <ele>197.2</ele>
        <time>2012-10-30T13:49:13Z</time>
      </trkpt>
      <trkpt lat="43.322251" lon="1.446502">
        <ele>197.2</ele>
        <time>2012-10-30T13:49:22Z</time>
      </trkpt>
      <trkpt lat="43.322335" lon="1.446420">
        <ele>196.7</ele>
        <time>2012-10-30T13:49:30Z</time>
      </trkpt>
      <trkpt lat="43.322417" lon="1.446343">
        <ele>197.2</ele>
        <time>2012-10-30T13:49:38Z</time>
      </trkpt>
      <trkpt lat="43.322491" lon="1.446259">
        <ele>196.7</ele>
        <time>2012-10-30T13:49:45Z</time>
      </trkpt>
      <trkpt lat="43.322562" lon="1.446180">
        <ele>197.2</ele>
        <time>2012-10-30T13:49:52Z</time>
      </trkpt>
      <trkpt lat="43.322643" lon="1.446097">
        <ele>196.2</ele>
        <time>2012-10-30T13:50:00Z</time>
      </trkpt>
      <trkpt lat="43.322729" lon="1.446034">
        <ele>195.8</ele>
        <time>2012-10-30T13:50:07Z</time>
      </trkpt>
      <trkpt lat="43.322824" lon="1.446012">
        <ele>196.2</ele>
        <time>2012-10-30T13:50:14Z</time>
      </trkpt>
      <trkpt lat="43.322914" lon="1.446040">
        <ele>195.8</ele>
        <time>2012-10-30T13:50:22Z</time>
      </trkpt>
      <trkpt lat="43.322970" lon="1.446168">
        <ele>195.8</ele>
        <time>2012-10-30T13:50:30Z</time>
      </trkpt>
      <trkpt lat="43.323026" lon="1.446264">
        <ele>195.8</ele>
        <time>2012-10-30T13:50:38Z</time>
      </trkpt>
      <trkpt lat="43.323091" lon="1.446369">
        <ele>195.3</ele>
        <time>2012-10-30T13:50:46Z</time>
      </trkpt>
      <trkpt lat="43.323138" lon="1.446494">
        <ele>194.8</ele>
        <time>2012-10-30T13:50:54Z</time>
      </trkpt>
      <trkpt lat="43.323198" lon="1.446596">
        <ele>195.3</ele>
        <time>2012-10-30T13:51:02Z</time>
      </trkpt>
      <trkpt lat="43.323265" lon="1.446692">
        <ele>193.8</ele>
        <time>2012-10-30T13:51:10Z</time>
      </trkpt>
      <trkpt lat="43.323324" lon="1.446804">
        <ele>194.3</ele>
        <time>2012-10-30T13:51:18Z</time>
      </trkpt>
      <trkpt lat="43.323386" lon="1.446912">
        <ele>193.8</ele>
        <time>2012-10-30T13:51:26Z</time>
      </trkpt>
      <trkpt lat="43.323449" lon="1.447022">
        <ele>192.9</ele>
        <time>2012-10-30T13:51:34Z</time>
      </trkpt>
      <trkpt lat="43.323510" lon="1.447122">
        <ele>193.8</ele>
        <time>2012-10-30T13:51:41Z</time>
      </trkpt>
      <trkpt lat="43.323565" lon="1.447217">
        <ele>192.9</ele>
        <time>2012-10-30T13:51:48Z</time>
      </trkpt>
      <trkpt lat="43.323633" lon="1.447330">
        <ele>194.3</ele>
        <time>2012-10-30T13:51:56Z</time>
      </trkpt>
      <trkpt lat="43.323689" lon="1.447380">
        <ele>194.3</ele>
        <time>2012-10-30T13:52:41Z</time>
      </trkpt>
      <trkpt lat="43.323773" lon="1.447490">
        <ele>195.8</ele>
        <time>2012-10-30T13:53:05Z</time>
      </trkpt>
      <trkpt lat="43.323828" lon="1.447600">
        <ele>193.4</ele>
        <time>2012-10-30T13:53:33Z</time>
      </trkpt>
      <trkpt lat="43.323896" lon="1.447704">
        <ele>193.8</ele>
        <time>2012-10-30T13:53:40Z</time>
      </trkpt>
      <trkpt lat="43.323953" lon="1.447800">
        <ele>194.3</ele>
        <time>2012-10-30T13:53:47Z</time>
      </trkpt>
      <trkpt lat="43.324030" lon="1.447912">
        <ele>193.8</ele>
        <time>2012-10-30T13:53:54Z</time>
      </trkpt>
      <trkpt lat="43.324102" lon="1.448005">
        <ele>192.9</ele>
        <time>2012-10-30T13:54:00Z</time>
      </trkpt>
      <trkpt lat="43.324173" lon="1.448103">
        <ele>194.3</ele>
        <time>2012-10-30T13:54:06Z</time>
      </trkpt>
      <trkpt lat="43.324250" lon="1.448186">
        <ele>193.8</ele>
        <time>2012-10-30T13:54:12Z</time>
      </trkpt>
      <trkpt lat="43.324330" lon="1.448276">
        <ele>194.8</ele>
        <time>2012-10-30T13:54:18Z</time>
      </trkpt>
      <trkpt lat="43.324409" lon="1.448355">
        <ele>193.8</ele>
        <time>2012-10-30T13:54:24Z</time>
      </trkpt>
      <trkpt lat="43.324487" lon="1.448429">
        <ele>193.8</ele>
        <time>2012-10-30T13:54:30Z</time>
      </trkpt>
      <trkpt lat="43.324566" lon="1.448537">
        <ele>193.4</ele>
        <time>2012-10-30T13:54:37Z</time>
      </trkpt>
      <trkpt lat="43.324646" lon="1.448642">
        <ele>192.9</ele>
        <time>2012-10-30T13:54:44Z</time>
      </trkpt>
      <trkpt lat="43.324712" lon="1.448745">
        <ele>192.4</ele>
        <time>2012-10-30T13:54:50Z</time>
      </trkpt>
      <trkpt lat="43.324791" lon="1.448850">
        <ele>192.9</ele>
        <time>2012-10-30T13:54:57Z</time>
      </trkpt>
      <trkpt lat="43.324863" lon="1.448967">
        <ele>192.9</ele>
        <time>2012-10-30T13:55:04Z</time>
      </trkpt>
      <trkpt lat="43.324941" lon="1.449074">
        <ele>191.9</ele>
        <time>2012-10-30T13:55:11Z</time>
      </trkpt>
      <trkpt lat="43.325018" lon="1.449185">
        <ele>192.4</ele>
        <time>2012-10-30T13:55:18Z</time>
      </trkpt>
      <trkpt lat="43.325090" lon="1.449307">
        <ele>192.4</ele>
        <time>2012-10-30T13:55:25Z</time>
      </trkpt>
      <trkpt lat="43.325170" lon="1.449420">
        <ele>192.4</ele>
        <time>2012-10-30T13:55:32Z</time>
      </trkpt>
      <trkpt lat="43.325241" lon="1.449531">
        <ele>192.9</ele>
        <time>2012-10-30T13:55:39Z</time>
      </trkpt>
      <trkpt lat="43.325324" lon="1.449643">
        <ele>192.9</ele>
        <time>2012-10-30T13:55:46Z</time>
      </trkpt>
      <trkpt lat="43.325397" lon="1.449749">
        <ele>192.9</ele>
        <time>2012-10-30T13:55:53Z</time>
      </trkpt>
      <trkpt lat="43.325460" lon="1.449866">
        <ele>192.9</ele>
        <time>2012-10-30T13:56:00Z</time>
      </trkpt>
      <trkpt lat="43.325531" lon="1.449978">
        <ele>192.9</ele>
        <time>2012-10-30T13:56:07Z</time>
      </trkpt>
      <trkpt lat="43.325603" lon="1.450084">
        <ele>192.4</ele>
        <time>2012-10-30T13:56:16Z</time>
      </trkpt>
      <trkpt lat="43.325660" lon="1.450210">
        <ele>192.4</ele>
        <time>2012-10-30T13:56:24Z</time>
      </trkpt>
      <trkpt lat="43.325732" lon="1.450315">
        <ele>192.4</ele>
        <time>2012-10-30T13:56:32Z</time>
      </trkpt>
      <trkpt lat="43.325795" lon="1.450428">
        <ele>192.4</ele>
        <time>2012-10-30T13:56:40Z</time>
      </trkpt>
      <trkpt lat="43.325849" lon="1.450543">
        <ele>192.4</ele>
        <time>2012-10-30T13:56:48Z</time>
      </trkpt>
      <trkpt lat="43.325932" lon="1.450656">
        <ele>192.4</ele>
        <time>2012-10-30T13:56:56Z</time>
      </trkpt>
      <trkpt lat="43.326001" lon="1.450752">
        <ele>192.4</ele>
        <time>2012-10-30T13:57:03Z</time>
      </trkpt>
      <trkpt lat="43.326063" lon="1.450860">
        <ele>192.4</ele>
        <time>2012-10-30T13:57:11Z</time>
      </trkpt>
      <trkpt lat="43.326115" lon="1.450957">
        <ele>192.4</ele>
        <time>2012-10-30T13:57:19Z</time>
      </trkpt>
      <trkpt lat="43.326177" lon="1.451069">
        <ele>192.4</ele>
        <time>2012-10-30T13:57:27Z</time>
      </trkpt>
      <trkpt lat="43.326243" lon="1.451192">
        <ele>192.4</ele>
        <time>2012-10-30T13:57:34Z</time>
      </trkpt>
      <trkpt lat="43.326308" lon="1.451310">
        <ele>191.9</ele>
        <time>2012-10-30T13:57:41Z</time>
      </trkpt>
      <trkpt lat="43.326369" lon="1.451428">
        <ele>190.0</ele>
        <time>2012-10-30T13:57:48Z</time>
      </trkpt>
      <trkpt lat="43.326449" lon="1.451498">
        <ele>191.9</ele>
        <time>2012-10-30T13:57:55Z</time>
      </trkpt>
      <trkpt lat="43.326532" lon="1.451405">
        <ele>192.9</ele>
        <time>2012-10-30T13:58:02Z</time>
      </trkpt>
      <trkpt lat="43.326607" lon="1.451300">
        <ele>192.4</ele>
        <time>2012-10-30T13:58:09Z</time>
      </trkpt>
      <trkpt lat="43.326675" lon="1.451215">
        <ele>192.9</ele>
        <time>2012-10-30T13:58:15Z</time>
      </trkpt>
      <trkpt lat="43.326754" lon="1.451129">
        <ele>192.4</ele>
        <time>2012-10-30T13:58:22Z</time>
      </trkpt>
      <trkpt lat="43.326823" lon="1.451027">
        <ele>192.9</ele>
        <time>2012-10-30T13:58:29Z</time>
      </trkpt>
      <trkpt lat="43.326899" lon="1.450933">
        <ele>191.9</ele>
        <time>2012-10-30T13:58:36Z</time>
      </trkpt>
      <trkpt lat="43.326977" lon="1.450836">
        <ele>192.4</ele>
        <time>2012-10-30T13:58:43Z</time>
      </trkpt>
      <trkpt lat="43.327050" lon="1.450757">
        <ele>192.9</ele>
        <time>2012-10-30T13:58:49Z</time>
      </trkpt>
      <trkpt lat="43.327121" lon="1.450673">
        <ele>192.9</ele>
        <time>2012-10-30T13:58:55Z</time>
      </trkpt>
      <trkpt lat="43.327192" lon="1.450590">
        <ele>192.9</ele>
        <time>2012-10-30T13:59:01Z</time>
      </trkpt>
      <trkpt lat="43.327260" lon="1.450506">
        <ele>191.9</ele>
        <time>2012-10-30T13:59:07Z</time>
      </trkpt>
      <trkpt lat="43.327327" lon="1.450419">
        <ele>192.4</ele>
        <time>2012-10-30T13:59:13Z</time>
      </trkpt>
      <trkpt lat="43.327397" lon="1.450337">
        <ele>192.4</ele>
        <time>2012-10-30T13:59:19Z</time>
      </trkpt>
      <trkpt lat="43.327466" lon="1.450254">
        <ele>192.4</ele>
        <time>2012-10-30T13:59:27Z</time>
      </trkpt>
      <trkpt lat="43.327545" lon="1.450151">
        <ele>192.4</ele>
        <time>2012-10-30T13:59:34Z</time>
      </trkpt>
      <trkpt lat="43.327615" lon="1.450068">
        <ele>192.4</ele>
        <time>2012-10-30T13:59:40Z</time>
      </trkpt>
      <trkpt lat="43.327684" lon="1.449980">
        <ele>192.9</ele>
        <time>2012-10-30T13:59:46Z</time>
      </trkpt>
      <trkpt lat="43.327751" lon="1.449902">
        <ele>192.4</ele>
        <time>2012-10-30T13:59:52Z</time>
      </trkpt>
      <trkpt lat="43.327824" lon="1.449817">
        <ele>192.4</ele>
        <time>2012-10-30T13:59:58Z</time>
      </trkpt>
      <trkpt lat="43.327884" lon="1.449731">
        <ele>193.4</ele>
        <time>2012-10-30T14:00:04Z</time>
      </trkpt>
      <trkpt lat="43.327970" lon="1.449641">
        <ele>193.4</ele>
        <time>2012-10-30T14:00:11Z</time>
      </trkpt>
      <trkpt lat="43.328038" lon="1.449554">
        <ele>192.9</ele>
        <time>2012-10-30T14:00:17Z</time>
      </trkpt>
      <trkpt lat="43.328124" lon="1.449463">
        <ele>192.9</ele>
        <time>2012-10-30T14:00:24Z</time>
      </trkpt>
      <trkpt lat="43.328198" lon="1.449366">
        <ele>193.4</ele>
        <time>2012-10-30T14:00:31Z</time>
      </trkpt>
      <trkpt lat="43.328277" lon="1.449269">
        <ele>192.9</ele>
        <time>2012-10-30T14:00:38Z</time>
      </trkpt>
      <trkpt lat="43.328349" lon="1.449190">
        <ele>193.8</ele>
        <time>2012-10-30T14:00:45Z</time>
      </trkpt>
      <trkpt lat="43.328429" lon="1.449096">
        <ele>193.4</ele>
        <time>2012-10-30T14:00:52Z</time>
      </trkpt>
      <trkpt lat="43.328506" lon="1.448997">
        <ele>193.4</ele>
        <time>2012-10-30T14:00:59Z</time>
      </trkpt>
      <trkpt lat="43.328577" lon="1.448899">
        <ele>193.4</ele>
        <time>2012-10-30T14:01:06Z</time>
      </trkpt>
      <trkpt lat="43.328663" lon="1.448808">
        <ele>193.8</ele>
        <time>2012-10-30T14:01:13Z</time>
      </trkpt>
      <trkpt lat="43.328752" lon="1.448722">
        <ele>193.8</ele>
        <time>2012-10-30T14:01:20Z</time>
      </trkpt>
      <trkpt lat="43.328828" lon="1.448625">
        <ele>193.8</ele>
        <time>2012-10-30T14:01:27Z</time>
      </trkpt>
      <trkpt lat="43.328905" lon="1.448534">
        <ele>193.8</ele>
        <time>2012-10-30T14:01:34Z</time>
      </trkpt>
      <trkpt lat="43.328985" lon="1.448432">
        <ele>193.8</ele>
        <time>2012-10-30T14:01:41Z</time>
      </trkpt>
      <trkpt lat="43.329057" lon="1.448348">
        <ele>193.4</ele>
        <time>2012-10-30T14:01:47Z</time>
      </trkpt>
      <trkpt lat="43.329128" lon="1.448263">
        <ele>193.8</ele>
        <time>2012-10-30T14:01:53Z</time>
      </trkpt>
      <trkpt lat="43.329199" lon="1.448180">
        <ele>193.8</ele>
        <time>2012-10-30T14:01:59Z</time>
      </trkpt>
      <trkpt lat="43.329282" lon="1.448081">
        <ele>194.3</ele>
        <time>2012-10-30T14:02:06Z</time>
      </trkpt>
      <trkpt lat="43.329369" lon="1.447992">
        <ele>193.8</ele>
        <time>2012-10-30T14:02:13Z</time>
      </trkpt>
      <trkpt lat="43.329449" lon="1.447899">
        <ele>193.8</ele>
        <time>2012-10-30T14:02:20Z</time>
      </trkpt>
      <trkpt lat="43.329530" lon="1.447810">
        <ele>194.3</ele>
        <time>2012-10-30T14:02:27Z</time>
      </trkpt>
      <trkpt lat="43.329629" lon="1.447792">
        <ele>193.4</ele>
        <time>2012-10-30T14:02:34Z</time>
      </trkpt>
      <trkpt lat="43.329730" lon="1.447847">
        <ele>193.4</ele>
        <time>2012-10-30T14:02:41Z</time>
      </trkpt>
      <trkpt lat="43.329815" lon="1.447924">
        <ele>193.4</ele>
        <time>2012-10-30T14:02:48Z</time>
      </trkpt>
      <trkpt lat="43.329912" lon="1.447977">
        <ele>193.8</ele>
        <time>2012-10-30T14:02:55Z</time>
      </trkpt>
      <trkpt lat="43.330012" lon="1.448000">
        <ele>193.8</ele>
        <time>2012-10-30T14:03:02Z</time>
      </trkpt>
      <trkpt lat="43.330107" lon="1.447943">
        <ele>194.3</ele>
        <time>2012-10-30T14:03:09Z</time>
      </trkpt>
      <trkpt lat="43.330199" lon="1.447866">
        <ele>194.3</ele>
        <time>2012-10-30T14:03:18Z</time>
      </trkpt>
      <trkpt lat="43.330284" lon="1.447773">
        <ele>194.8</ele>
        <time>2012-10-30T14:03:27Z</time>
      </trkpt>
      <trkpt lat="43.330380" lon="1.447663">
        <ele>194.3</ele>
        <time>2012-10-30T14:03:35Z</time>
      </trkpt>
      <trkpt lat="43.330473" lon="1.447566">
        <ele>194.8</ele>
        <time>2012-10-30T14:03:43Z</time>
      </trkpt>
      <trkpt lat="43.330569" lon="1.447479">
        <ele>194.3</ele>
        <time>2012-10-30T14:03:51Z</time>
      </trkpt>
      <trkpt lat="43.330659" lon="1.447530">
        <ele>194.8</ele>
        <time>2012-10-30T14:04:03Z</time>
      </trkpt>
      <trkpt lat="43.330731" lon="1.447629">
        <ele>194.8</ele>
        <time>2012-10-30T14:04:12Z</time>
      </trkpt>
      <trkpt lat="43.330819" lon="1.447730">
        <ele>194.8</ele>
        <time>2012-10-30T14:04:21Z</time>
      </trkpt>
      <trkpt lat="43.330906" lon="1.447819">
        <ele>194.3</ele>
        <time>2012-10-30T14:04:29Z</time>
      </trkpt>
      <trkpt lat="43.330986" lon="1.447921">
        <ele>194.3</ele>
        <time>2012-10-30T14:04:38Z</time>
      </trkpt>
      <trkpt lat="43.331069" lon="1.448022">
        <ele>193.8</ele>
        <time>2012-10-30T14:04:46Z</time>
      </trkpt>
      <trkpt lat="43.331154" lon="1.448118">
        <ele>192.4</ele>
        <time>2012-10-30T14:04:54Z</time>
      </trkpt>
      <trkpt lat="43.331244" lon="1.448203">
        <ele>194.3</ele>
        <time>2012-10-30T14:05:06Z</time>
      </trkpt>
      <trkpt lat="43.331350" lon="1.448243">
        <ele>194.3</ele>
        <time>2012-10-30T14:05:14Z</time>
      </trkpt>
      <trkpt lat="43.331408" lon="1.448288">
        <ele>192.9</ele>
        <time>2012-10-30T14:05:24Z</time>
      </trkpt>
      <trkpt lat="43.331470" lon="1.448373">
        <ele>192.9</ele>
        <time>2012-10-30T14:05:31Z</time>
      </trkpt>
      <trkpt lat="43.331546" lon="1.448464">
        <ele>192.9</ele>
        <time>2012-10-30T14:05:38Z</time>
      </trkpt>
      <trkpt lat="43.331638" lon="1.448553">
        <ele>192.9</ele>
        <time>2012-10-30T14:05:46Z</time>
      </trkpt>
      <trkpt lat="43.331713" lon="1.448642">
        <ele>193.4</ele>
        <time>2012-10-30T14:05:53Z</time>
      </trkpt>
      <trkpt lat="43.331790" lon="1.448726">
        <ele>192.9</ele>
        <time>2012-10-30T14:06:00Z</time>
      </trkpt>
      <trkpt lat="43.331869" lon="1.448812">
        <ele>192.9</ele>
        <time>2012-10-30T14:06:07Z</time>
      </trkpt>
      <trkpt lat="43.331957" lon="1.448909">
        <ele>192.9</ele>
        <time>2012-10-30T14:06:14Z</time>
      </trkpt>
      <trkpt lat="43.332037" lon="1.448998">
        <ele>192.4</ele>
        <time>2012-10-30T14:06:21Z</time>
      </trkpt>
      <trkpt lat="43.332118" lon="1.449089">
        <ele>193.4</ele>
        <time>2012-10-30T14:06:28Z</time>
      </trkpt>
      <trkpt lat="43.332207" lon="1.449178">
        <ele>193.4</ele>
        <time>2012-10-30T14:06:35Z</time>
      </trkpt>
      <trkpt lat="43.332289" lon="1.449269">
        <ele>193.8</ele>
        <time>2012-10-30T14:06:42Z</time>
      </trkpt>
      <trkpt lat="43.332371" lon="1.449361">
        <ele>193.4</ele>
        <time>2012-10-30T14:06:49Z</time>
      </trkpt>
      <trkpt lat="43.332454" lon="1.449452">
        <ele>192.9</ele>
        <time>2012-10-30T14:06:56Z</time>
      </trkpt>
      <trkpt lat="43.332530" lon="1.449537">
        <ele>192.9</ele>
        <time>2012-10-30T14:07:03Z</time>
      </trkpt>
      <trkpt lat="43.332616" lon="1.449632">
        <ele>193.4</ele>
        <time>2012-10-30T14:07:11Z</time>
      </trkpt>
      <trkpt lat="43.332695" lon="1.449720">
        <ele>193.4</ele>
        <time>2012-10-30T14:07:18Z</time>
      </trkpt>
      <trkpt lat="43.332767" lon="1.449803">
        <ele>192.4</ele>
        <time>2012-10-30T14:07:25Z</time>
      </trkpt>
      <trkpt lat="43.332842" lon="1.449880">
        <ele>193.8</ele>
        <time>2012-10-30T14:07:32Z</time>
      </trkpt>
      <trkpt lat="43.332925" lon="1.449971">
        <ele>193.4</ele>
        <time>2012-10-30T14:07:40Z</time>
      </trkpt>
      <trkpt lat="43.333004" lon="1.450056">
        <ele>192.9</ele>
        <time>2012-10-30T14:07:48Z</time>
      </trkpt>
      <trkpt lat="43.333081" lon="1.450151">
        <ele>192.9</ele>
        <time>2012-10-30T14:07:56Z</time>
      </trkpt>
      <trkpt lat="43.333156" lon="1.450237">
        <ele>191.9</ele>
        <time>2012-10-30T14:08:04Z</time>
      </trkpt>
      <trkpt lat="43.333237" lon="1.450328">
        <ele>192.4</ele>
        <time>2012-10-30T14:08:12Z</time>
      </trkpt>
      <trkpt lat="43.333315" lon="1.450423">
        <ele>192.9</ele>
        <time>2012-10-30T14:08:20Z</time>
      </trkpt>
      <trkpt lat="43.333384" lon="1.450532">
        <ele>192.4</ele>
        <time>2012-10-30T14:08:28Z</time>
      </trkpt>
      <trkpt lat="43.333453" lon="1.450622">
        <ele>192.4</ele>
        <time>2012-10-30T14:08:36Z</time>
      </trkpt>
      <trkpt lat="43.333534" lon="1.450722">
        <ele>192.4</ele>
        <time>2012-10-30T14:08:44Z</time>
      </trkpt>
      <trkpt lat="43.333601" lon="1.450839">
        <ele>192.9</ele>
        <time>2012-10-30T14:08:52Z</time>
      </trkpt>
      <trkpt lat="43.333668" lon="1.450946">
        <ele>192.9</ele>
        <time>2012-10-30T14:09:00Z</time>
      </trkpt>
      <trkpt lat="43.333722" lon="1.451061">
        <ele>193.4</ele>
        <time>2012-10-30T14:09:07Z</time>
      </trkpt>
      <trkpt lat="43.333784" lon="1.451176">
        <ele>193.4</ele>
        <time>2012-10-30T14:09:14Z</time>
      </trkpt>
      <trkpt lat="43.333850" lon="1.451277">
        <ele>193.4</ele>
        <time>2012-10-30T14:09:22Z</time>
      </trkpt>
      <trkpt lat="43.333898" lon="1.451401">
        <ele>193.4</ele>
        <time>2012-10-30T14:09:29Z</time>
      </trkpt>
      <trkpt lat="43.333960" lon="1.451519">
        <ele>193.4</ele>
        <time>2012-10-30T14:09:36Z</time>
      </trkpt>
      <trkpt lat="43.334023" lon="1.451642">
        <ele>193.8</ele>
        <time>2012-10-30T14:09:43Z</time>
      </trkpt>
      <trkpt lat="43.334070" lon="1.451744">
        <ele>193.8</ele>
        <time>2012-10-30T14:09:50Z</time>
      </trkpt>
      <trkpt lat="43.334134" lon="1.451856">
        <ele>192.4</ele>
        <time>2012-10-30T14:09:57Z</time>
      </trkpt>
      <trkpt lat="43.334190" lon="1.451979">
        <ele>193.8</ele>
        <time>2012-10-30T14:10:04Z</time>
      </trkpt>
      <trkpt lat="43.334252" lon="1.452097">
        <ele>192.9</ele>
        <time>2012-10-30T14:10:11Z</time>
      </trkpt>
      <trkpt lat="43.334306" lon="1.452205">
        <ele>193.4</ele>
        <time>2012-10-30T14:10:17Z</time>
      </trkpt>
      <trkpt lat="43.334358" lon="1.452307">
        <ele>193.4</ele>
        <time>2012-10-30T14:10:23Z</time>
      </trkpt>
      <trkpt lat="43.334416" lon="1.452414">
        <ele>192.9</ele>
        <time>2012-10-30T14:10:29Z</time>
      </trkpt>
      <trkpt lat="43.334470" lon="1.452518">
        <ele>193.4</ele>
        <time>2012-10-30T14:10:35Z</time>
      </trkpt>
      <trkpt lat="43.334519" lon="1.452633">
        <ele>192.4</ele>
        <time>2012-10-30T14:10:41Z</time>
      </trkpt>
      <trkpt lat="43.334564" lon="1.452746">
        <ele>194.3</ele>
        <time>2012-10-30T14:10:47Z</time>
      </trkpt>
      <trkpt lat="43.334593" lon="1.452873">
        <ele>194.8</ele>
        <time>2012-10-30T14:10:53Z</time>
      </trkpt>
      <trkpt lat="43.334629" lon="1.453011">
        <ele>195.3</ele>
        <time>2012-10-30T14:11:00Z</time>
      </trkpt>
      <trkpt lat="43.334648" lon="1.453148">
        <ele>194.3</ele>
        <time>2012-10-30T14:11:07Z</time>
      </trkpt>
      <trkpt lat="43.334662" lon="1.453274">
        <ele>195.3</ele>
        <time>2012-10-30T14:11:13Z</time>
      </trkpt>
      <trkpt lat="43.334676" lon="1.453393">
        <ele>195.3</ele>
        <time>2012-10-30T14:11:19Z</time>
      </trkpt>
      <trkpt lat="43.334750" lon="1.453368">
        <ele>196.7</ele>
        <time>2012-10-30T14:11:25Z</time>
        <name>Pont sur la D40</name>
      </trkpt>
      <trkpt lat="43.334843" lon="1.453296">
        <ele>195.8</ele>
        <time>2012-10-30T14:11:32Z</time>
      </trkpt>
      <trkpt lat="43.334932" lon="1.453254">
        <ele>195.3</ele>
        <time>2012-10-30T14:11:39Z</time>
      </trkpt>
      <trkpt lat="43.335023" lon="1.453214">
        <ele>194.8</ele>
        <time>2012-10-30T14:11:46Z</time>
      </trkpt>
      <trkpt lat="43.335120" lon="1.453178">
        <ele>193.8</ele>
        <time>2012-10-30T14:11:53Z</time>
      </trkpt>
      <trkpt lat="43.335207" lon="1.453120">
        <ele>193.4</ele>
        <time>2012-10-30T14:12:01Z</time>
      </trkpt>
      <trkpt lat="43.335309" lon="1.453071">
        <ele>192.9</ele>
        <time>2012-10-30T14:12:16Z</time>
      </trkpt>
      <trkpt lat="43.335402" lon="1.453022">
        <ele>193.4</ele>
        <time>2012-10-30T14:12:24Z</time>
      </trkpt>
      <trkpt lat="43.335495" lon="1.452956">
        <ele>193.4</ele>
        <time>2012-10-30T14:12:33Z</time>
      </trkpt>
      <trkpt lat="43.335596" lon="1.452903">
        <ele>192.9</ele>
        <time>2012-10-30T14:12:42Z</time>
      </trkpt>
      <trkpt lat="43.335687" lon="1.452866">
        <ele>191.9</ele>
        <time>2012-10-30T14:12:49Z</time>
      </trkpt>
      <trkpt lat="43.335778" lon="1.452828">
        <ele>192.4</ele>
        <time>2012-10-30T14:12:56Z</time>
      </trkpt>
      <trkpt lat="43.335863" lon="1.452767">
        <ele>192.4</ele>
        <time>2012-10-30T14:13:03Z</time>
      </trkpt>
      <trkpt lat="43.335953" lon="1.452709">
        <ele>192.4</ele>
        <time>2012-10-30T14:13:11Z</time>
      </trkpt>
      <trkpt lat="43.336046" lon="1.452661">
        <ele>192.9</ele>
        <time>2012-10-30T14:13:19Z</time>
      </trkpt>
      <trkpt lat="43.336142" lon="1.452627">
        <ele>192.9</ele>
        <time>2012-10-30T14:13:26Z</time>
      </trkpt>
      <trkpt lat="43.336231" lon="1.452568">
        <ele>192.4</ele>
        <time>2012-10-30T14:13:34Z</time>
      </trkpt>
      <trkpt lat="43.336327" lon="1.452528">
        <ele>192.9</ele>
        <time>2012-10-30T14:13:42Z</time>
      </trkpt>
      <trkpt lat="43.336412" lon="1.452482">
        <ele>192.4</ele>
        <time>2012-10-30T14:13:49Z</time>
      </trkpt>
      <trkpt lat="43.336502" lon="1.452444">
        <ele>192.4</ele>
        <time>2012-10-30T14:13:56Z</time>
      </trkpt>
      <trkpt lat="43.336583" lon="1.452390">
        <ele>192.4</ele>
        <time>2012-10-30T14:14:03Z</time>
      </trkpt>
      <trkpt lat="43.336669" lon="1.452346">
        <ele>191.9</ele>
        <time>2012-10-30T14:14:10Z</time>
      </trkpt>
      <trkpt lat="43.336764" lon="1.452303">
        <ele>191.9</ele>
        <time>2012-10-30T14:14:17Z</time>
      </trkpt>
      <trkpt lat="43.336860" lon="1.452257">
        <ele>191.4</ele>
        <time>2012-10-30T14:14:24Z</time>
      </trkpt>
      <trkpt lat="43.336954" lon="1.452202">
        <ele>191.9</ele>
        <time>2012-10-30T14:14:31Z</time>
      </trkpt>
      <trkpt lat="43.337043" lon="1.452149">
        <ele>191.9</ele>
        <time>2012-10-30T14:14:37Z</time>
      </trkpt>
      <trkpt lat="43.337143" lon="1.452095">
        <ele>191.9</ele>
        <time>2012-10-30T14:14:44Z</time>
      </trkpt>
      <trkpt lat="43.337236" lon="1.452030">
        <ele>191.4</ele>
        <time>2012-10-30T14:14:51Z</time>
      </trkpt>
      <trkpt lat="43.337326" lon="1.451969">
        <ele>191.9</ele>
        <time>2012-10-30T14:14:58Z</time>
      </trkpt>
      <trkpt lat="43.337414" lon="1.451906">
        <ele>191.9</ele>
        <time>2012-10-30T14:15:05Z</time>
      </trkpt>
      <trkpt lat="43.337509" lon="1.451851">
        <ele>191.9</ele>
        <time>2012-10-30T14:15:12Z</time>
      </trkpt>
      <trkpt lat="43.337590" lon="1.451807">
        <ele>191.0</ele>
        <time>2012-10-30T14:15:19Z</time>
      </trkpt>
      <trkpt lat="43.337685" lon="1.451761">
        <ele>191.9</ele>
        <time>2012-10-30T14:15:26Z</time>
      </trkpt>
      <trkpt lat="43.337678" lon="1.451727">
        <ele>191.0</ele>
        <time>2012-10-30T14:16:08Z</time>
      </trkpt>
      <trkpt lat="43.337777" lon="1.451733">
        <ele>191.0</ele>
        <time>2012-10-30T14:16:16Z</time>
      </trkpt>
      <trkpt lat="43.337879" lon="1.451697">
        <ele>191.0</ele>
        <time>2012-10-30T14:16:23Z</time>
      </trkpt>
      <trkpt lat="43.337961" lon="1.451678">
        <ele>191.0</ele>
        <time>2012-10-30T14:16:30Z</time>
      </trkpt>
      <trkpt lat="43.338051" lon="1.451645">
        <ele>191.9</ele>
        <time>2012-10-30T14:16:54Z</time>
      </trkpt>
      <trkpt lat="43.338144" lon="1.451639">
        <ele>191.9</ele>
        <time>2012-10-30T14:17:02Z</time>
      </trkpt>
      <trkpt lat="43.338244" lon="1.451602">
        <ele>192.4</ele>
        <time>2012-10-30T14:17:09Z</time>
      </trkpt>
      <trkpt lat="43.338347" lon="1.451576">
        <ele>191.9</ele>
        <time>2012-10-30T14:17:16Z</time>
      </trkpt>
      <trkpt lat="43.338441" lon="1.451540">
        <ele>192.4</ele>
        <time>2012-10-30T14:17:23Z</time>
      </trkpt>
      <trkpt lat="43.338536" lon="1.451516">
        <ele>191.9</ele>
        <time>2012-10-30T14:17:29Z</time>
      </trkpt>
      <trkpt lat="43.338634" lon="1.451480">
        <ele>191.9</ele>
        <time>2012-10-30T14:17:36Z</time>
      </trkpt>
      <trkpt lat="43.338724" lon="1.451437">
        <ele>191.9</ele>
        <time>2012-10-30T14:17:42Z</time>
      </trkpt>
      <trkpt lat="43.338808" lon="1.451393">
        <ele>191.9</ele>
        <time>2012-10-30T14:17:48Z</time>
      </trkpt>
      <trkpt lat="43.338894" lon="1.451341">
        <ele>191.9</ele>
        <time>2012-10-30T14:17:54Z</time>
      </trkpt>
      <trkpt lat="43.338989" lon="1.451285">
        <ele>191.4</ele>
        <time>2012-10-30T14:18:01Z</time>
      </trkpt>
      <trkpt lat="43.339075" lon="1.451226">
        <ele>191.9</ele>
        <time>2012-10-30T14:18:07Z</time>
      </trkpt>
      <trkpt lat="43.339167" lon="1.451170">
        <ele>191.4</ele>
        <time>2012-10-30T14:18:14Z</time>
      </trkpt>
      <trkpt lat="43.339269" lon="1.451122">
        <ele>191.9</ele>
        <time>2012-10-30T14:18:21Z</time>
      </trkpt>
      <trkpt lat="43.339348" lon="1.451062">
        <ele>191.9</ele>
        <time>2012-10-30T14:18:27Z</time>
      </trkpt>
      <trkpt lat="43.339438" lon="1.450998">
        <ele>191.9</ele>
        <time>2012-10-30T14:18:34Z</time>
      </trkpt>
      <trkpt lat="43.339539" lon="1.450936">
        <ele>192.4</ele>
        <time>2012-10-30T14:18:41Z</time>
      </trkpt>
      <trkpt lat="43.339620" lon="1.450884">
        <ele>191.9</ele>
        <time>2012-10-30T14:18:47Z</time>
      </trkpt>
      <trkpt lat="43.339706" lon="1.450839">
        <ele>191.9</ele>
        <time>2012-10-30T14:18:53Z</time>
      </trkpt>
      <trkpt lat="43.339786" lon="1.450795">
        <ele>191.4</ele>
        <time>2012-10-30T14:18:59Z</time>
      </trkpt>
      <trkpt lat="43.339888" lon="1.450742">
        <ele>191.4</ele>
        <time>2012-10-30T14:19:06Z</time>
      </trkpt>
      <trkpt lat="43.339981" lon="1.450695">
        <ele>191.9</ele>
        <time>2012-10-30T14:19:13Z</time>
      </trkpt>
      <trkpt lat="43.340084" lon="1.450655">
        <ele>191.9</ele>
        <time>2012-10-30T14:19:20Z</time>
      </trkpt>
      <trkpt lat="43.340182" lon="1.450600">
        <ele>191.9</ele>
        <time>2012-10-30T14:19:27Z</time>
      </trkpt>
      <trkpt lat="43.340262" lon="1.450550">
        <ele>191.9</ele>
        <time>2012-10-30T14:19:33Z</time>
      </trkpt>
      <trkpt lat="43.340342" lon="1.450494">
        <ele>191.9</ele>
        <time>2012-10-30T14:19:40Z</time>
      </trkpt>
      <trkpt lat="43.340424" lon="1.450426">
        <ele>191.9</ele>
        <time>2012-10-30T14:19:48Z</time>
      </trkpt>
      <trkpt lat="43.340504" lon="1.450374">
        <ele>191.4</ele>
        <time>2012-10-30T14:19:55Z</time>
      </trkpt>
      <trkpt lat="43.340592" lon="1.450308">
        <ele>191.0</ele>
        <time>2012-10-30T14:20:03Z</time>
      </trkpt>
      <trkpt lat="43.340669" lon="1.450244">
        <ele>191.9</ele>
        <time>2012-10-30T14:20:10Z</time>
      </trkpt>
      <trkpt lat="43.340757" lon="1.450184">
        <ele>191.4</ele>
        <time>2012-10-30T14:20:17Z</time>
      </trkpt>
      <trkpt lat="43.340847" lon="1.450116">
        <ele>191.4</ele>
        <time>2012-10-30T14:20:24Z</time>
      </trkpt>
      <trkpt lat="43.340943" lon="1.450060">
        <ele>191.4</ele>
        <time>2012-10-30T14:20:31Z</time>
      </trkpt>
      <trkpt lat="43.341035" lon="1.449984">
        <ele>191.4</ele>
        <time>2012-10-30T14:20:38Z</time>
      </trkpt>
      <trkpt lat="43.341108" lon="1.449904">
        <ele>191.4</ele>
        <time>2012-10-30T14:20:44Z</time>
      </trkpt>
      <trkpt lat="43.341188" lon="1.449829">
        <ele>191.9</ele>
        <time>2012-10-30T14:20:50Z</time>
      </trkpt>
      <trkpt lat="43.341257" lon="1.449756">
        <ele>191.4</ele>
        <time>2012-10-30T14:20:56Z</time>
      </trkpt>
      <trkpt lat="43.341330" lon="1.449674">
        <ele>191.9</ele>
        <time>2012-10-30T14:21:02Z</time>
      </trkpt>
      <trkpt lat="43.341411" lon="1.449574">
        <ele>191.4</ele>
        <time>2012-10-30T14:21:09Z</time>
      </trkpt>
      <trkpt lat="43.341488" lon="1.449490">
        <ele>191.4</ele>
        <time>2012-10-30T14:21:15Z</time>
      </trkpt>
      <trkpt lat="43.341567" lon="1.449390">
        <ele>191.4</ele>
        <time>2012-10-30T14:21:22Z</time>
      </trkpt>
      <trkpt lat="43.341640" lon="1.449310">
        <ele>191.4</ele>
        <time>2012-10-30T14:21:28Z</time>
      </trkpt>
      <trkpt lat="43.341727" lon="1.449205">
        <ele>191.9</ele>
        <time>2012-10-30T14:21:35Z</time>
      </trkpt>
      <trkpt lat="43.341797" lon="1.449126">
        <ele>191.4</ele>
        <time>2012-10-30T14:21:41Z</time>
      </trkpt>
      <trkpt lat="43.341873" lon="1.449040">
        <ele>191.9</ele>
        <time>2012-10-30T14:21:47Z</time>
      </trkpt>
      <trkpt lat="43.341949" lon="1.448967">
        <ele>191.4</ele>
        <time>2012-10-30T14:21:53Z</time>
      </trkpt>
      <trkpt lat="43.342026" lon="1.448892">
        <ele>191.9</ele>
        <time>2012-10-30T14:21:59Z</time>
      </trkpt>
      <trkpt lat="43.342111" lon="1.448797">
        <ele>191.9</ele>
        <time>2012-10-30T14:22:06Z</time>
      </trkpt>
      <trkpt lat="43.342186" lon="1.448719">
        <ele>191.4</ele>
        <time>2012-10-30T14:22:12Z</time>
      </trkpt>
      <trkpt lat="43.342257" lon="1.448638">
        <ele>192.9</ele>
        <time>2012-10-30T14:22:18Z</time>
      </trkpt>
      <trkpt lat="43.342330" lon="1.448571">
        <ele>192.4</ele>
        <time>2012-10-30T14:22:24Z</time>
      </trkpt>
      <trkpt lat="43.342423" lon="1.448505">
        <ele>191.4</ele>
        <time>2012-10-30T14:22:31Z</time>
      </trkpt>
      <trkpt lat="43.342513" lon="1.448439">
        <ele>191.9</ele>
        <time>2012-10-30T14:22:38Z</time>
      </trkpt>
      <trkpt lat="43.342601" lon="1.448363">
        <ele>191.4</ele>
        <time>2012-10-30T14:22:45Z</time>
      </trkpt>
      <trkpt lat="43.342679" lon="1.448276">
        <ele>191.4</ele>
        <time>2012-10-30T14:22:52Z</time>
      </trkpt>
      <trkpt lat="43.342765" lon="1.448193">
        <ele>191.4</ele>
        <time>2012-10-30T14:22:59Z</time>
      </trkpt>
      <trkpt lat="43.342848" lon="1.448109">
        <ele>191.9</ele>
        <time>2012-10-30T14:23:06Z</time>
      </trkpt>
      <trkpt lat="43.342935" lon="1.448034">
        <ele>191.0</ele>
        <time>2012-10-30T14:23:13Z</time>
      </trkpt>
      <trkpt lat="43.343022" lon="1.447949">
        <ele>191.4</ele>
        <time>2012-10-30T14:23:20Z</time>
      </trkpt>
      <trkpt lat="43.343104" lon="1.447874">
        <ele>191.4</ele>
        <time>2012-10-30T14:23:27Z</time>
      </trkpt>
      <trkpt lat="43.343189" lon="1.447792">
        <ele>191.4</ele>
        <time>2012-10-30T14:23:34Z</time>
      </trkpt>
      <trkpt lat="43.343273" lon="1.447719">
        <ele>191.4</ele>
        <time>2012-10-30T14:23:41Z</time>
      </trkpt>
      <trkpt lat="43.343347" lon="1.447645">
        <ele>191.9</ele>
        <time>2012-10-30T14:23:48Z</time>
      </trkpt>
      <trkpt lat="43.343431" lon="1.447560">
        <ele>191.9</ele>
        <time>2012-10-30T14:23:55Z</time>
      </trkpt>
      <trkpt lat="43.343516" lon="1.447485">
        <ele>192.4</ele>
        <time>2012-10-30T14:24:02Z</time>
      </trkpt>
      <trkpt lat="43.343598" lon="1.447399">
        <ele>191.9</ele>
        <time>2012-10-30T14:24:09Z</time>
      </trkpt>
      <trkpt lat="43.343676" lon="1.447316">
        <ele>191.9</ele>
        <time>2012-10-30T14:24:16Z</time>
      </trkpt>
      <trkpt lat="43.343761" lon="1.447248">
        <ele>191.4</ele>
        <time>2012-10-30T14:24:23Z</time>
      </trkpt>
      <trkpt lat="43.343844" lon="1.447173">
        <ele>191.4</ele>
        <time>2012-10-30T14:24:30Z</time>
      </trkpt>
      <trkpt lat="43.343914" lon="1.447092">
        <ele>191.4</ele>
        <time>2012-10-30T14:24:37Z</time>
      </trkpt>
      <trkpt lat="43.343992" lon="1.447020">
        <ele>191.0</ele>
        <time>2012-10-30T14:24:44Z</time>
      </trkpt>
      <trkpt lat="43.344074" lon="1.446948">
        <ele>191.4</ele>
        <time>2012-10-30T14:24:51Z</time>
      </trkpt>
      <trkpt lat="43.344143" lon="1.446872">
        <ele>191.4</ele>
        <time>2012-10-30T14:24:58Z</time>
      </trkpt>
      <trkpt lat="43.344217" lon="1.446794">
        <ele>191.4</ele>
        <time>2012-10-30T14:25:05Z</time>
      </trkpt>
      <trkpt lat="43.344304" lon="1.446720">
        <ele>190.5</ele>
        <time>2012-10-30T14:25:13Z</time>
      </trkpt>
      <trkpt lat="43.344391" lon="1.446641">
        <ele>191.0</ele>
        <time>2012-10-30T14:25:21Z</time>
      </trkpt>
      <trkpt lat="43.344471" lon="1.446566">
        <ele>191.4</ele>
        <time>2012-10-30T14:25:28Z</time>
      </trkpt>
      <trkpt lat="43.344554" lon="1.446499">
        <ele>191.4</ele>
        <time>2012-10-30T14:25:35Z</time>
      </trkpt>
      <trkpt lat="43.344630" lon="1.446420">
        <ele>191.9</ele>
        <time>2012-10-30T14:25:42Z</time>
      </trkpt>
      <trkpt lat="43.344709" lon="1.446332">
        <ele>191.4</ele>
        <time>2012-10-30T14:25:49Z</time>
      </trkpt>
      <trkpt lat="43.344783" lon="1.446254">
        <ele>191.4</ele>
        <time>2012-10-30T14:25:56Z</time>
      </trkpt>
      <trkpt lat="43.344854" lon="1.446165">
        <ele>191.4</ele>
        <time>2012-10-30T14:26:03Z</time>
      </trkpt>
      <trkpt lat="43.344937" lon="1.446074">
        <ele>191.4</ele>
        <time>2012-10-30T14:26:11Z</time>
      </trkpt>
      <trkpt lat="43.345015" lon="1.446008">
        <ele>191.9</ele>
        <time>2012-10-30T14:26:18Z</time>
      </trkpt>
      <trkpt lat="43.345095" lon="1.445930">
        <ele>191.9</ele>
        <time>2012-10-30T14:26:25Z</time>
      </trkpt>
      <trkpt lat="43.345168" lon="1.445853">
        <ele>192.9</ele>
        <time>2012-10-30T14:26:32Z</time>
      </trkpt>
      <trkpt lat="43.345244" lon="1.445775">
        <ele>191.9</ele>
        <time>2012-10-30T14:26:39Z</time>
      </trkpt>
      <trkpt lat="43.345313" lon="1.445692">
        <ele>191.9</ele>
        <time>2012-10-30T14:26:46Z</time>
      </trkpt>
      <trkpt lat="43.345397" lon="1.445627">
        <ele>191.9</ele>
        <time>2012-10-30T14:26:54Z</time>
      </trkpt>
      <trkpt lat="43.345481" lon="1.445542">
        <ele>191.9</ele>
        <time>2012-10-30T14:27:01Z</time>
      </trkpt>
      <trkpt lat="43.345560" lon="1.445462">
        <ele>191.9</ele>
        <time>2012-10-30T14:27:08Z</time>
      </trkpt>
      <trkpt lat="43.345626" lon="1.445372">
        <ele>191.9</ele>
        <time>2012-10-30T14:27:15Z</time>
      </trkpt>
      <trkpt lat="43.345697" lon="1.445287">
        <ele>191.9</ele>
        <time>2012-10-30T14:27:23Z</time>
      </trkpt>
      <trkpt lat="43.345773" lon="1.445201">
        <ele>191.9</ele>
        <time>2012-10-30T14:27:31Z</time>
      </trkpt>
      <trkpt lat="43.345854" lon="1.445107">
        <ele>192.9</ele>
        <time>2012-10-30T14:27:39Z</time>
      </trkpt>
      <trkpt lat="43.345945" lon="1.445034">
        <ele>193.4</ele>
        <time>2012-10-30T14:27:47Z</time>
      </trkpt>
      <trkpt lat="43.346024" lon="1.444968">
        <ele>194.8</ele>
        <time>2012-10-30T14:27:55Z</time>
      </trkpt>
      <trkpt lat="43.346111" lon="1.444889">
        <ele>195.3</ele>
        <time>2012-10-30T14:28:03Z</time>
      </trkpt>
      <trkpt lat="43.346186" lon="1.444795">
        <ele>193.4</ele>
        <time>2012-10-30T14:28:11Z</time>
      </trkpt>
      <trkpt lat="43.346247" lon="1.444677">
        <ele>192.9</ele>
        <time>2012-10-30T14:28:18Z</time>
      </trkpt>
      <trkpt lat="43.346319" lon="1.444579">
        <ele>192.4</ele>
        <time>2012-10-30T14:28:26Z</time>
      </trkpt>
      <trkpt lat="43.346407" lon="1.444488">
        <ele>191.4</ele>
        <time>2012-10-30T14:28:34Z</time>
      </trkpt>
      <trkpt lat="43.346490" lon="1.444400">
        <ele>191.9</ele>
        <time>2012-10-30T14:28:42Z</time>
      </trkpt>
      <trkpt lat="43.346573" lon="1.444314">
        <ele>191.4</ele>
        <time>2012-10-30T14:28:50Z</time>
      </trkpt>
      <trkpt lat="43.346656" lon="1.444223">
        <ele>191.4</ele>
        <time>2012-10-30T14:28:58Z</time>
      </trkpt>
      <trkpt lat="43.346739" lon="1.444127">
        <ele>191.0</ele>
        <time>2012-10-30T14:29:06Z</time>
      </trkpt>
      <trkpt lat="43.346815" lon="1.444036">
        <ele>191.0</ele>
        <time>2012-10-30T14:29:14Z</time>
      </trkpt>
      <trkpt lat="43.346894" lon="1.443943">
        <ele>191.4</ele>
        <time>2012-10-30T14:29:22Z</time>
      </trkpt>
      <trkpt lat="43.346973" lon="1.443852">
        <ele>191.0</ele>
        <time>2012-10-30T14:29:30Z</time>
      </trkpt>
      <trkpt lat="43.347061" lon="1.443764">
        <ele>191.0</ele>
        <time>2012-10-30T14:29:39Z</time>
      </trkpt>
      <trkpt lat="43.347150" lon="1.443671">
        <ele>191.0</ele>
        <time>2012-10-30T14:29:47Z</time>
      </trkpt>
      <trkpt lat="43.347247" lon="1.443595">
        <ele>190.5</ele>
        <time>2012-10-30T14:29:55Z</time>
      </trkpt>
      <trkpt lat="43.347332" lon="1.443500">
        <ele>191.4</ele>
        <time>2012-10-30T14:30:03Z</time>
      </trkpt>
      <trkpt lat="43.347413" lon="1.443405">
        <ele>192.4</ele>
        <time>2012-10-30T14:30:11Z</time>
      </trkpt>
      <trkpt lat="43.347492" lon="1.443313">
        <ele>192.4</ele>
        <time>2012-10-30T14:30:19Z</time>
      </trkpt>
      <trkpt lat="43.347577" lon="1.443220">
        <ele>191.4</ele>
        <time>2012-10-30T14:30:27Z</time>
      </trkpt>
      <trkpt lat="43.347654" lon="1.443132">
        <ele>191.4</ele>
        <time>2012-10-30T14:30:35Z</time>
      </trkpt>
      <trkpt lat="43.347731" lon="1.443042">
        <ele>191.4</ele>
        <time>2012-10-30T14:30:43Z</time>
      </trkpt>
      <trkpt lat="43.347813" lon="1.442945">
        <ele>191.4</ele>
        <time>2012-10-30T14:30:51Z</time>
      </trkpt>
      <trkpt lat="43.347889" lon="1.442854">
        <ele>191.4</ele>
        <time>2012-10-30T14:30:59Z</time>
      </trkpt>
      <trkpt lat="43.347958" lon="1.442762">
        <ele>191.4</ele>
        <time>2012-10-30T14:31:07Z</time>
      </trkpt>
      <trkpt lat="43.348040" lon="1.442664">
        <ele>191.0</ele>
        <time>2012-10-30T14:31:16Z</time>
      </trkpt>
      <trkpt lat="43.348115" lon="1.442597">
        <ele>191.4</ele>
        <time>2012-10-30T14:31:23Z</time>
      </trkpt>
      <trkpt lat="43.348179" lon="1.442521">
        <ele>191.0</ele>
        <time>2012-10-30T14:31:30Z</time>
      </trkpt>
      <trkpt lat="43.348265" lon="1.442431">
        <ele>191.4</ele>
        <time>2012-10-30T14:31:38Z</time>
      </trkpt>
      <trkpt lat="43.348349" lon="1.442341">
        <ele>191.0</ele>
        <time>2012-10-30T14:31:46Z</time>
      </trkpt>
      <trkpt lat="43.348429" lon="1.442248">
        <ele>191.0</ele>
        <time>2012-10-30T14:31:54Z</time>
      </trkpt>
      <trkpt lat="43.348510" lon="1.442171">
        <ele>190.0</ele>
        <time>2012-10-30T14:32:02Z</time>
      </trkpt>
      <trkpt lat="43.348596" lon="1.442092">
        <ele>190.5</ele>
        <time>2012-10-30T14:32:10Z</time>
      </trkpt>
      <trkpt lat="43.348683" lon="1.442009">
        <ele>190.5</ele>
        <time>2012-10-30T14:32:18Z</time>
      </trkpt>
      <trkpt lat="43.348773" lon="1.441931">
        <ele>191.4</ele>
        <time>2012-10-30T14:32:27Z</time>
      </trkpt>
      <trkpt lat="43.348868" lon="1.441850">
        <ele>191.4</ele>
        <time>2012-10-30T14:32:35Z</time>
      </trkpt>
      <trkpt lat="43.348959" lon="1.441776">
        <ele>191.4</ele>
        <time>2012-10-30T14:32:44Z</time>
      </trkpt>
      <trkpt lat="43.349041" lon="1.441712">
        <ele>191.0</ele>
        <time>2012-10-30T14:32:54Z</time>
      </trkpt>
      <trkpt lat="43.349126" lon="1.441634">
        <ele>191.0</ele>
        <time>2012-10-30T14:33:03Z</time>
      </trkpt>
      <trkpt lat="43.349215" lon="1.441567">
        <ele>191.0</ele>
        <time>2012-10-30T14:33:11Z</time>
      </trkpt>
      <trkpt lat="43.349286" lon="1.441483">
        <ele>191.4</ele>
        <time>2012-10-30T14:33:20Z</time>
      </trkpt>
      <trkpt lat="43.349361" lon="1.441414">
        <ele>191.4</ele>
        <time>2012-10-30T14:33:28Z</time>
      </trkpt>
      <trkpt lat="43.349443" lon="1.441345">
        <ele>191.4</ele>
        <time>2012-10-30T14:33:36Z</time>
      </trkpt>
      <trkpt lat="43.349518" lon="1.441264">
        <ele>191.9</ele>
        <time>2012-10-30T14:33:44Z</time>
      </trkpt>
      <trkpt lat="43.349594" lon="1.441192">
        <ele>191.4</ele>
        <time>2012-10-30T14:33:52Z</time>
      </trkpt>
      <trkpt lat="43.349673" lon="1.441111">
        <ele>191.0</ele>
        <time>2012-10-30T14:34:01Z</time>
      </trkpt>
      <trkpt lat="43.349704" lon="1.441004">
        <ele>191.9</ele>
        <time>2012-10-30T14:34:12Z</time>
      </trkpt>
      <trkpt lat="43.349766" lon="1.441030">
        <ele>191.0</ele>
        <time>2012-10-30T14:35:09Z</time>
      </trkpt>
      <trkpt lat="43.349847" lon="1.440945">
        <ele>191.9</ele>
        <time>2012-10-30T14:35:22Z</time>
      </trkpt>
      <trkpt lat="43.349938" lon="1.440868">
        <ele>191.9</ele>
        <time>2012-10-30T14:35:38Z</time>
      </trkpt>
      <trkpt lat="43.349910" lon="1.440738">
        <ele>194.8</ele>
        <time>2012-10-30T14:35:47Z</time>
        <name>Pont en brique</name>
      </trkpt>
      <trkpt lat="43.349859" lon="1.440634">
        <ele>193.8</ele>
        <time>2012-10-30T14:35:56Z</time>
      </trkpt>
      <trkpt lat="43.349816" lon="1.440513">
        <ele>191.4</ele>
        <time>2012-10-30T14:36:31Z</time>
      </trkpt>
      <trkpt lat="43.349743" lon="1.440442">
        <ele>191.9</ele>
        <time>2012-10-30T14:36:40Z</time>
      </trkpt>
      <trkpt lat="43.349683" lon="1.440326">
        <ele>192.9</ele>
        <time>2012-10-30T14:36:49Z</time>
      </trkpt>
      <trkpt lat="43.349625" lon="1.440205">
        <ele>192.4</ele>
        <time>2012-10-30T14:36:58Z</time>
      </trkpt>
      <trkpt lat="43.349573" lon="1.440097">
        <ele>191.9</ele>
        <time>2012-10-30T14:37:06Z</time>
      </trkpt>
      <trkpt lat="43.349512" lon="1.440022">
        <ele>191.9</ele>
        <time>2012-10-30T14:37:15Z</time>
      </trkpt>
      <trkpt lat="43.349444" lon="1.439939">
        <ele>192.4</ele>
        <time>2012-10-30T14:37:28Z</time>
      </trkpt>
      <trkpt lat="43.349364" lon="1.439849">
        <ele>192.4</ele>
        <time>2012-10-30T14:37:37Z</time>
      </trkpt>
      <trkpt lat="43.349294" lon="1.439757">
        <ele>192.4</ele>
        <time>2012-10-30T14:37:45Z</time>
      </trkpt>
      <trkpt lat="43.349212" lon="1.439666">
        <ele>191.4</ele>
        <time>2012-10-30T14:37:53Z</time>
      </trkpt>
      <trkpt lat="43.349143" lon="1.439575">
        <ele>191.4</ele>
        <time>2012-10-30T14:38:00Z</time>
      </trkpt>
      <trkpt lat="43.349077" lon="1.439479">
        <ele>191.9</ele>
        <time>2012-10-30T14:38:07Z</time>
      </trkpt>
      <trkpt lat="43.349015" lon="1.439391">
        <ele>191.0</ele>
        <time>2012-10-30T14:38:15Z</time>
      </trkpt>
      <trkpt lat="43.348950" lon="1.439296">
        <ele>191.9</ele>
        <time>2012-10-30T14:38:30Z</time>
      </trkpt>
      <trkpt lat="43.348888" lon="1.439201">
        <ele>192.9</ele>
        <time>2012-10-30T14:38:37Z</time>
      </trkpt>
      <trkpt lat="43.348823" lon="1.439096">
        <ele>191.9</ele>
        <time>2012-10-30T14:38:45Z</time>
      </trkpt>
      <trkpt lat="43.348761" lon="1.438987">
        <ele>191.9</ele>
        <time>2012-10-30T14:38:53Z</time>
      </trkpt>
      <trkpt lat="43.348705" lon="1.438884">
        <ele>191.4</ele>
        <time>2012-10-30T14:39:00Z</time>
      </trkpt>
      <trkpt lat="43.348651" lon="1.438781">
        <ele>191.9</ele>
        <time>2012-10-30T14:39:07Z</time>
      </trkpt>
      <trkpt lat="43.348595" lon="1.438669">
        <ele>191.9</ele>
        <time>2012-10-30T14:39:15Z</time>
      </trkpt>
      <trkpt lat="43.348526" lon="1.438567">
        <ele>191.9</ele>
        <time>2012-10-30T14:39:22Z</time>
      </trkpt>
      <trkpt lat="43.348465" lon="1.438467">
        <ele>191.4</ele>
        <time>2012-10-30T14:39:29Z</time>
      </trkpt>
      <trkpt lat="43.348406" lon="1.438345">
        <ele>191.9</ele>
        <time>2012-10-30T14:39:37Z</time>
      </trkpt>
      <trkpt lat="43.348350" lon="1.438231">
        <ele>192.4</ele>
        <time>2012-10-30T14:39:45Z</time>
      </trkpt>
      <trkpt lat="43.348293" lon="1.438140">
        <ele>192.9</ele>
        <time>2012-10-30T14:40:03Z</time>
      </trkpt>
      <trkpt lat="43.348232" lon="1.438021">
        <ele>192.9</ele>
        <time>2012-10-30T14:40:11Z</time>
      </trkpt>
      <trkpt lat="43.348173" lon="1.437921">
        <ele>192.9</ele>
        <time>2012-10-30T14:40:18Z</time>
      </trkpt>
      <trkpt lat="43.348122" lon="1.437812">
        <ele>192.4</ele>
        <time>2012-10-30T14:40:25Z</time>
      </trkpt>
      <trkpt lat="43.348063" lon="1.437707">
        <ele>192.9</ele>
        <time>2012-10-30T14:40:32Z</time>
      </trkpt>
      <trkpt lat="43.348009" lon="1.437600">
        <ele>192.9</ele>
        <time>2012-10-30T14:40:39Z</time>
      </trkpt>
      <trkpt lat="43.347968" lon="1.437473">
        <ele>193.4</ele>
        <time>2012-10-30T14:40:46Z</time>
      </trkpt>
      <trkpt lat="43.347935" lon="1.437352">
        <ele>193.4</ele>
        <time>2012-10-30T14:40:53Z</time>
      </trkpt>
      <trkpt lat="43.347900" lon="1.437221">
        <ele>192.9</ele>
        <time>2012-10-30T14:41:00Z</time>
      </trkpt>
      <trkpt lat="43.347874" lon="1.437092">
        <ele>192.9</ele>
        <time>2012-10-30T14:41:07Z</time>
      </trkpt>
      <trkpt lat="43.347840" lon="1.436965">
        <ele>192.9</ele>
        <time>2012-10-30T14:41:15Z</time>
      </trkpt>
      <trkpt lat="43.347816" lon="1.436819">
        <ele>192.9</ele>
        <time>2012-10-30T14:41:22Z</time>
      </trkpt>
      <trkpt lat="43.347793" lon="1.436703">
        <ele>192.9</ele>
        <time>2012-10-30T14:41:29Z</time>
      </trkpt>
      <trkpt lat="43.347759" lon="1.436584">
        <ele>192.9</ele>
        <time>2012-10-30T14:41:36Z</time>
      </trkpt>
      <trkpt lat="43.347728" lon="1.436458">
        <ele>192.9</ele>
        <time>2012-10-30T14:41:43Z</time>
      </trkpt>
      <trkpt lat="43.347698" lon="1.436331">
        <ele>192.9</ele>
        <time>2012-10-30T14:41:50Z</time>
      </trkpt>
      <trkpt lat="43.347662" lon="1.436210">
        <ele>192.9</ele>
        <time>2012-10-30T14:41:57Z</time>
      </trkpt>
      <trkpt lat="43.347625" lon="1.436095">
        <ele>192.9</ele>
        <time>2012-10-30T14:42:04Z</time>
      </trkpt>
      <trkpt lat="43.347588" lon="1.435974">
        <ele>193.8</ele>
        <time>2012-10-30T14:42:11Z</time>
      </trkpt>
      <trkpt lat="43.347548" lon="1.435849">
        <ele>193.4</ele>
        <time>2012-10-30T14:42:18Z</time>
      </trkpt>
      <trkpt lat="43.347510" lon="1.435728">
        <ele>193.4</ele>
        <time>2012-10-30T14:42:25Z</time>
      </trkpt>
      <trkpt lat="43.347473" lon="1.435602">
        <ele>193.8</ele>
        <time>2012-10-30T14:42:32Z</time>
      </trkpt>
      <trkpt lat="43.347441" lon="1.435480">
        <ele>193.4</ele>
        <time>2012-10-30T14:42:39Z</time>
      </trkpt>
      <trkpt lat="43.347407" lon="1.435352">
        <ele>194.3</ele>
        <time>2012-10-30T14:42:46Z</time>
      </trkpt>
      <trkpt lat="43.347377" lon="1.435220">
        <ele>193.8</ele>
        <time>2012-10-30T14:42:53Z</time>
      </trkpt>
      <trkpt lat="43.347347" lon="1.435092">
        <ele>193.8</ele>
        <time>2012-10-30T14:43:00Z</time>
      </trkpt>
      <trkpt lat="43.347316" lon="1.434960">
        <ele>193.8</ele>
        <time>2012-10-30T14:43:07Z</time>
      </trkpt>
      <trkpt lat="43.347285" lon="1.434826">
        <ele>193.8</ele>
        <time>2012-10-30T14:43:14Z</time>
      </trkpt>
      <trkpt lat="43.347253" lon="1.434697">
        <ele>193.8</ele>
        <time>2012-10-30T14:43:21Z</time>
      </trkpt>
      <trkpt lat="43.347228" lon="1.434585">
        <ele>193.8</ele>
        <time>2012-10-30T14:43:28Z</time>
      </trkpt>
      <trkpt lat="43.347199" lon="1.434454">
        <ele>194.3</ele>
        <time>2012-10-30T14:43:46Z</time>
      </trkpt>
      <trkpt lat="43.347182" lon="1.434316">
        <ele>194.8</ele>
        <time>2012-10-30T14:43:54Z</time>
      </trkpt>
      <trkpt lat="43.347156" lon="1.434184">
        <ele>193.8</ele>
        <time>2012-10-30T14:44:01Z</time>
      </trkpt>
      <trkpt lat="43.347126" lon="1.434062">
        <ele>194.3</ele>
        <time>2012-10-30T14:44:08Z</time>
      </trkpt>
      <trkpt lat="43.347094" lon="1.433928">
        <ele>194.3</ele>
        <time>2012-10-30T14:44:15Z</time>
      </trkpt>
      <trkpt lat="43.347057" lon="1.433796">
        <ele>194.8</ele>
        <time>2012-10-30T14:44:22Z</time>
      </trkpt>
      <trkpt lat="43.347029" lon="1.433676">
        <ele>194.3</ele>
        <time>2012-10-30T14:44:29Z</time>
      </trkpt>
      <trkpt lat="43.347000" lon="1.433553">
        <ele>194.3</ele>
        <time>2012-10-30T14:44:36Z</time>
      </trkpt>
      <trkpt lat="43.346967" lon="1.433429">
        <ele>194.8</ele>
        <time>2012-10-30T14:44:43Z</time>
      </trkpt>
      <trkpt lat="43.346924" lon="1.433307">
        <ele>195.3</ele>
        <time>2012-10-30T14:44:50Z</time>
      </trkpt>
      <trkpt lat="43.346871" lon="1.433183">
        <ele>194.8</ele>
        <time>2012-10-30T14:44:58Z</time>
      </trkpt>
      <trkpt lat="43.346813" lon="1.433080">
        <ele>195.3</ele>
        <time>2012-10-30T14:45:05Z</time>
      </trkpt>
      <trkpt lat="43.346752" lon="1.432982">
        <ele>195.3</ele>
        <time>2012-10-30T14:45:12Z</time>
      </trkpt>
      <trkpt lat="43.346686" lon="1.432899">
        <ele>195.3</ele>
        <time>2012-10-30T14:45:19Z</time>
      </trkpt>
      <trkpt lat="43.346610" lon="1.432807">
        <ele>195.3</ele>
        <time>2012-10-30T14:45:27Z</time>
      </trkpt>
      <trkpt lat="43.346530" lon="1.432716">
        <ele>195.3</ele>
        <time>2012-10-30T14:45:35Z</time>
      </trkpt>
      <trkpt lat="43.346449" lon="1.432622">
        <ele>195.3</ele>
        <time>2012-10-30T14:45:43Z</time>
      </trkpt>
      <trkpt lat="43.346374" lon="1.432534">
        <ele>195.8</ele>
        <time>2012-10-30T14:45:50Z</time>
      </trkpt>
      <trkpt lat="43.346298" lon="1.432442">
        <ele>196.2</ele>
        <time>2012-10-30T14:45:57Z</time>
      </trkpt>
      <trkpt lat="43.346221" lon="1.432357">
        <ele>196.2</ele>
        <time>2012-10-30T14:46:05Z</time>
      </trkpt>
      <trkpt lat="43.346148" lon="1.432269">
        <ele>197.7</ele>
        <time>2012-10-30T14:46:13Z</time>
      </trkpt>
      <trkpt lat="43.346061" lon="1.432172">
        <ele>196.7</ele>
        <time>2012-10-30T14:46:21Z</time>
      </trkpt>
      <trkpt lat="43.345988" lon="1.432093">
        <ele>196.2</ele>
        <time>2012-10-30T14:46:28Z</time>
      </trkpt>
      <trkpt lat="43.345918" lon="1.432011">
        <ele>196.7</ele>
        <time>2012-10-30T14:46:35Z</time>
      </trkpt>
      <trkpt lat="43.345835" lon="1.431917">
        <ele>197.2</ele>
        <time>2012-10-30T14:46:43Z</time>
      </trkpt>
      <trkpt lat="43.345756" lon="1.431830">
        <ele>197.2</ele>
        <time>2012-10-30T14:46:51Z</time>
      </trkpt>
      <trkpt lat="43.345676" lon="1.431742">
        <ele>197.7</ele>
        <time>2012-10-30T14:46:59Z</time>
      </trkpt>
      <trkpt lat="43.345603" lon="1.431646">
        <ele>197.7</ele>
        <time>2012-10-30T14:47:06Z</time>
      </trkpt>
      <trkpt lat="43.345536" lon="1.431559">
        <ele>198.2</ele>
        <time>2012-10-30T14:47:13Z</time>
      </trkpt>
      <trkpt lat="43.345458" lon="1.431465">
        <ele>198.6</ele>
        <time>2012-10-30T14:47:21Z</time>
      </trkpt>
      <trkpt lat="43.345383" lon="1.431366">
        <ele>198.2</ele>
        <time>2012-10-30T14:47:28Z</time>
      </trkpt>
      <trkpt lat="43.345308" lon="1.431266">
        <ele>198.2</ele>
        <time>2012-10-30T14:47:35Z</time>
      </trkpt>
      <trkpt lat="43.345248" lon="1.431167">
        <ele>198.2</ele>
        <time>2012-10-30T14:47:42Z</time>
      </trkpt>
      <trkpt lat="43.345180" lon="1.431070">
        <ele>198.2</ele>
        <time>2012-10-30T14:47:50Z</time>
      </trkpt>
      <trkpt lat="43.345113" lon="1.430966">
        <ele>198.2</ele>
        <time>2012-10-30T14:47:57Z</time>
      </trkpt>
      <trkpt lat="43.345061" lon="1.430843">
        <ele>198.2</ele>
        <time>2012-10-30T14:48:04Z</time>
      </trkpt>
      <trkpt lat="43.345041" lon="1.430701">
        <ele>198.2</ele>
        <time>2012-10-30T14:48:11Z</time>
      </trkpt>
      <trkpt lat="43.345027" lon="1.430555">
        <ele>197.7</ele>
        <time>2012-10-30T14:48:18Z</time>
      </trkpt>
      <trkpt lat="43.345008" lon="1.430416">
        <ele>198.6</ele>
        <time>2012-10-30T14:48:25Z</time>
      </trkpt>
      <trkpt lat="43.344974" lon="1.430306">
        <ele>199.1</ele>
        <time>2012-10-30T14:48:32Z</time>
      </trkpt>
      <trkpt lat="43.344964" lon="1.430180">
        <ele>199.6</ele>
        <time>2012-10-30T14:48:48Z</time>
      </trkpt>
      <trkpt lat="43.344927" lon="1.430043">
        <ele>199.6</ele>
        <time>2012-10-30T14:48:56Z</time>
      </trkpt>
      <trkpt lat="43.344891" lon="1.429899">
        <ele>199.6</ele>
        <time>2012-10-30T14:49:05Z</time>
      </trkpt>
      <trkpt lat="43.344876" lon="1.429764">
        <ele>199.6</ele>
        <time>2012-10-30T14:49:13Z</time>
      </trkpt>
      <trkpt lat="43.344854" lon="1.429632">
        <ele>199.1</ele>
        <time>2012-10-30T14:49:21Z</time>
      </trkpt>
      <trkpt lat="43.344833" lon="1.429506">
        <ele>199.1</ele>
        <time>2012-10-30T14:49:30Z</time>
      </trkpt>
      <trkpt lat="43.344815" lon="1.429385">
        <ele>199.6</ele>
        <time>2012-10-30T14:49:38Z</time>
      </trkpt>
      <trkpt lat="43.344794" lon="1.429242">
        <ele>199.6</ele>
        <time>2012-10-30T14:49:47Z</time>
      </trkpt>
      <trkpt lat="43.344774" lon="1.429101">
        <ele>200.1</ele>
        <time>2012-10-30T14:49:56Z</time>
      </trkpt>
      <trkpt lat="43.344751" lon="1.428959">
        <ele>200.1</ele>
        <time>2012-10-30T14:50:05Z</time>
      </trkpt>
      <trkpt lat="43.344732" lon="1.428830">
        <ele>200.6</ele>
        <time>2012-10-30T14:50:14Z</time>
      </trkpt>
      <trkpt lat="43.344721" lon="1.428676">
        <ele>200.6</ele>
        <time>2012-10-30T14:50:24Z</time>
      </trkpt>
      <trkpt lat="43.344707" lon="1.428545">
        <ele>201.5</ele>
        <time>2012-10-30T14:50:34Z</time>
        <name>Chemin des Izards</name>
      </trkpt>
      <trkpt lat="43.344626" lon="1.428467">
        <ele>202.0</ele>
        <time>2012-10-30T14:50:51Z</time>
      </trkpt>
      <trkpt lat="43.344526" lon="1.428474">
        <ele>202.0</ele>
        <time>2012-10-30T14:51:00Z</time>
      </trkpt>
      <trkpt lat="43.344421" lon="1.428482">
        <ele>201.5</ele>
        <time>2012-10-30T14:51:09Z</time>
      </trkpt>
      <trkpt lat="43.344314" lon="1.428479">
        <ele>202.5</ele>
        <time>2012-10-30T14:51:18Z</time>
      </trkpt>
      <trkpt lat="43.344209" lon="1.428467">
        <ele>203.0</ele>
        <time>2012-10-30T14:51:28Z</time>
      </trkpt>
      <trkpt lat="43.344107" lon="1.428467">
        <ele>203.5</ele>
        <time>2012-10-30T14:51:40Z</time>
      </trkpt>
      <trkpt lat="43.344010" lon="1.428469">
        <ele>203.5</ele>
        <time>2012-10-30T14:51:50Z</time>
      </trkpt>
      <trkpt lat="43.343928" lon="1.428465">
        <ele>203.9</ele>
        <time>2012-10-30T14:52:12Z</time>
      </trkpt>
      <trkpt lat="43.343829" lon="1.428386">
        <ele>203.9</ele>
        <time>2012-10-30T14:52:23Z</time>
      </trkpt>
      <trkpt lat="43.343743" lon="1.428307">
        <ele>204.4</ele>
        <time>2012-10-30T14:52:33Z</time>
      </trkpt>
      <trkpt lat="43.343662" lon="1.428208">
        <ele>203.5</ele>
        <time>2012-10-30T14:52:43Z</time>
      </trkpt>
      <trkpt lat="43.343574" lon="1.428105">
        <ele>204.9</ele>
        <time>2012-10-30T14:52:54Z</time>
      </trkpt>
      <trkpt lat="43.343499" lon="1.428018">
        <ele>204.9</ele>
        <time>2012-10-30T14:53:03Z</time>
      </trkpt>
      <trkpt lat="43.343428" lon="1.427926">
        <ele>205.4</ele>
        <time>2012-10-30T14:53:11Z</time>
      </trkpt>
      <trkpt lat="43.343349" lon="1.427853">
        <ele>205.4</ele>
        <time>2012-10-30T14:53:20Z</time>
      </trkpt>
      <trkpt lat="43.343279" lon="1.427758">
        <ele>205.4</ele>
        <time>2012-10-30T14:53:30Z</time>
      </trkpt>
      <trkpt lat="43.343176" lon="1.427644">
        <ele>205.9</ele>
        <time>2012-10-30T14:53:40Z</time>
      </trkpt>
      <trkpt lat="43.343101" lon="1.427503">
        <ele>204.9</ele>
        <time>2012-10-30T14:53:50Z</time>
      </trkpt>
      <trkpt lat="43.343050" lon="1.427381">
        <ele>204.4</ele>
        <time>2012-10-30T14:54:00Z</time>
      </trkpt>
      <trkpt lat="43.343004" lon="1.427247">
        <ele>203.9</ele>
        <time>2012-10-30T14:54:10Z</time>
      </trkpt>
      <trkpt lat="43.342970" lon="1.427111">
        <ele>203.5</ele>
        <time>2012-10-30T14:54:20Z</time>
      </trkpt>
      <trkpt lat="43.342941" lon="1.426971">
        <ele>202.5</ele>
        <time>2012-10-30T14:54:30Z</time>
      </trkpt>
      <trkpt lat="43.342915" lon="1.426834">
        <ele>202.5</ele>
        <time>2012-10-30T14:54:39Z</time>
      </trkpt>
      <trkpt lat="43.342878" lon="1.426698">
        <ele>202.5</ele>
        <time>2012-10-30T14:54:48Z</time>
      </trkpt>
      <trkpt lat="43.342833" lon="1.426558">
        <ele>202.5</ele>
        <time>2012-10-30T14:54:57Z</time>
      </trkpt>
      <trkpt lat="43.342786" lon="1.426431">
        <ele>203.0</ele>
        <time>2012-10-30T14:55:05Z</time>
      </trkpt>
      <trkpt lat="43.342729" lon="1.426309">
        <ele>203.0</ele>
        <time>2012-10-30T14:55:14Z</time>
      </trkpt>
      <trkpt lat="43.342675" lon="1.426165">
        <ele>203.5</ele>
        <time>2012-10-30T14:55:24Z</time>
      </trkpt>
      <trkpt lat="43.342610" lon="1.426054">
        <ele>203.0</ele>
        <time>2012-10-30T14:55:33Z</time>
      </trkpt>
      <trkpt lat="43.342546" lon="1.425913">
        <ele>203.9</ele>
        <time>2012-10-30T14:55:42Z</time>
      </trkpt>
      <trkpt lat="43.342494" lon="1.425787">
        <ele>204.4</ele>
        <time>2012-10-30T14:55:50Z</time>
      </trkpt>
      <trkpt lat="43.342436" lon="1.425674">
        <ele>204.9</ele>
        <time>2012-10-30T14:55:58Z</time>
      </trkpt>
      <trkpt lat="43.342400" lon="1.425540">
        <ele>206.3</ele>
        <time>2012-10-30T14:56:07Z</time>
      </trkpt>
      <trkpt lat="43.342363" lon="1.425403">
        <ele>207.3</ele>
        <time>2012-10-30T14:56:15Z</time>
      </trkpt>
      <trkpt lat="43.342327" lon="1.425281">
        <ele>208.3</ele>
        <time>2012-10-30T14:56:22Z</time>
      </trkpt>
      <trkpt lat="43.342299" lon="1.425145">
        <ele>210.2</ele>
        <time>2012-10-30T14:56:30Z</time>
      </trkpt>
      <trkpt lat="43.342262" lon="1.425017">
        <ele>211.6</ele>
        <time>2012-10-30T14:56:38Z</time>
      </trkpt>
      <trkpt lat="43.342247" lon="1.424882">
        <ele>213.1</ele>
        <time>2012-10-30T14:56:47Z</time>
      </trkpt>
      <trkpt lat="43.342209" lon="1.424741">
        <ele>214.0</ele>
        <time>2012-10-30T14:56:56Z</time>
      </trkpt>
      <trkpt lat="43.342157" lon="1.424590">
        <ele>215.0</ele>
        <time>2012-10-30T14:57:05Z</time>
      </trkpt>
      <trkpt lat="43.342116" lon="1.424451">
        <ele>216.4</ele>
        <time>2012-10-30T14:57:12Z</time>
      </trkpt>
      <trkpt lat="43.342089" lon="1.424414">
        <ele>216.4</ele>
        <time>2012-10-30T14:57:35Z</time>
      </trkpt>
      <trkpt lat="43.342025" lon="1.424295">
        <ele>216.9</ele>
        <time>2012-10-30T14:57:46Z</time>
      </trkpt>
      <trkpt lat="43.341946" lon="1.424185">
        <ele>217.4</ele>
        <time>2012-10-30T14:57:57Z</time>
      </trkpt>
      <trkpt lat="43.341885" lon="1.424092">
        <ele>217.4</ele>
        <time>2012-10-30T14:58:09Z</time>
      </trkpt>
      <trkpt lat="43.341817" lon="1.423984">
        <ele>216.9</ele>
        <time>2012-10-30T14:58:20Z</time>
      </trkpt>
      <trkpt lat="43.341750" lon="1.423887">
        <ele>216.4</ele>
        <time>2012-10-30T14:58:31Z</time>
      </trkpt>
      <trkpt lat="43.341690" lon="1.423771">
        <ele>215.0</ele>
        <time>2012-10-30T14:58:42Z</time>
      </trkpt>
      <trkpt lat="43.341628" lon="1.423653">
        <ele>214.0</ele>
        <time>2012-10-30T14:58:53Z</time>
      </trkpt>
      <trkpt lat="43.341562" lon="1.423545">
        <ele>212.6</ele>
        <time>2012-10-30T14:59:04Z</time>
      </trkpt>
      <trkpt lat="43.341511" lon="1.423401">
        <ele>212.1</ele>
        <time>2012-10-30T14:59:13Z</time>
      </trkpt>
      <trkpt lat="43.341464" lon="1.423285">
        <ele>211.1</ele>
        <time>2012-10-30T14:59:22Z</time>
      </trkpt>
      <trkpt lat="43.341406" lon="1.423165">
        <ele>210.2</ele>
        <time>2012-10-30T14:59:32Z</time>
      </trkpt>
      <trkpt lat="43.341353" lon="1.423052">
        <ele>209.7</ele>
        <time>2012-10-30T14:59:42Z</time>
      </trkpt>
      <trkpt lat="43.341283" lon="1.422909">
        <ele>209.7</ele>
        <time>2012-10-30T14:59:54Z</time>
      </trkpt>
      <trkpt lat="43.341234" lon="1.422769">
        <ele>208.3</ele>
        <time>2012-10-30T15:00:05Z</time>
      </trkpt>
      <trkpt lat="43.341163" lon="1.422647">
        <ele>207.3</ele>
        <time>2012-10-30T15:00:14Z</time>
      </trkpt>
      <trkpt lat="43.341080" lon="1.422522">
        <ele>207.3</ele>
        <time>2012-10-30T15:00:25Z</time>
      </trkpt>
      <trkpt lat="43.341036" lon="1.422351">
        <ele>206.8</ele>
        <time>2012-10-30T15:00:36Z</time>
      </trkpt>
      <trkpt lat="43.340989" lon="1.422203">
        <ele>206.8</ele>
        <time>2012-10-30T15:00:45Z</time>
      </trkpt>
      <trkpt lat="43.340982" lon="1.422069">
        <ele>206.3</ele>
        <time>2012-10-30T15:01:34Z</time>
      </trkpt>
      <trkpt lat="43.340913" lon="1.421930">
        <ele>206.3</ele>
        <time>2012-10-30T15:01:45Z</time>
      </trkpt>
      <trkpt lat="43.340884" lon="1.421796">
        <ele>206.3</ele>
        <time>2012-10-30T15:01:54Z</time>
      </trkpt>
      <trkpt lat="43.340791" lon="1.421729">
        <ele>205.9</ele>
        <time>2012-10-30T15:03:06Z</time>
      </trkpt>
      <trkpt lat="43.340789" lon="1.421564">
        <ele>206.3</ele>
        <time>2012-10-30T15:03:16Z</time>
      </trkpt>
      <trkpt lat="43.340751" lon="1.421417">
        <ele>205.9</ele>
        <time>2012-10-30T15:03:26Z</time>
      </trkpt>
      <trkpt lat="43.340677" lon="1.421319">
        <ele>205.9</ele>
        <time>2012-10-30T15:04:09Z</time>
      </trkpt>
      <trkpt lat="43.340593" lon="1.421275">
        <ele>205.4</ele>
        <time>2012-10-30T15:04:56Z</time>
      </trkpt>
      <trkpt lat="43.340534" lon="1.421156">
        <ele>204.9</ele>
        <time>2012-10-30T15:05:24Z</time>
      </trkpt>
      <trkpt lat="43.340470" lon="1.420992">
        <ele>204.9</ele>
        <time>2012-10-30T15:05:38Z</time>
      </trkpt>
      <trkpt lat="43.340413" lon="1.421053">
        <ele>203.9</ele>
        <time>2012-10-30T15:05:50Z</time>
      </trkpt>
      <trkpt lat="43.340317" lon="1.421051">
        <ele>204.4</ele>
        <time>2012-10-30T15:06:03Z</time>
      </trkpt>
      <trkpt lat="43.340255" lon="1.420970">
        <ele>204.9</ele>
        <time>2012-10-30T15:06:18Z</time>
      </trkpt>
      <trkpt lat="43.340137" lon="1.420951">
        <ele>204.4</ele>
        <time>2012-10-30T15:06:32Z</time>
      </trkpt>
      <trkpt lat="43.340042" lon="1.421009">
        <ele>203.5</ele>
        <time>2012-10-30T15:06:42Z</time>
      </trkpt>
      <trkpt lat="43.339940" lon="1.421040">
        <ele>204.4</ele>
        <time>2012-10-30T15:06:59Z</time>
      </trkpt>
      <trkpt lat="43.339918" lon="1.420922">
        <ele>203.9</ele>
        <time>2012-10-30T15:07:09Z</time>
      </trkpt>
      <trkpt lat="43.339828" lon="1.420972">
        <ele>204.4</ele>
        <time>2012-10-30T15:07:19Z</time>
        <name>Route D622</name>
      </trkpt>
      <trkpt lat="43.339799" lon="1.421070">
        <ele>203.9</ele>
        <time>2012-10-30T15:07:59Z</time>
      </trkpt>
      <trkpt lat="43.339793" lon="1.421199">
        <ele>203.9</ele>
        <time>2012-10-30T15:08:13Z</time>
      </trkpt>
      <trkpt lat="43.339712" lon="1.421281">
        <ele>203.9</ele>
        <time>2012-10-30T15:08:24Z</time>
      </trkpt>
      <trkpt lat="43.339636" lon="1.421334">
        <ele>203.9</ele>
        <time>2012-10-30T15:08:35Z</time>
      </trkpt>
      <trkpt lat="43.339549" lon="1.421360">
        <ele>203.9</ele>
        <time>2012-10-30T15:08:40Z</time>
      </trkpt>
      <trkpt lat="43.339448" lon="1.421425">
        <ele>204.4</ele>
        <time>2012-10-30T15:08:51Z</time>
      </trkpt>
      <trkpt lat="43.339340" lon="1.421467">
        <ele>204.4</ele>
        <time>2012-10-30T15:09:05Z</time>
      </trkpt>
      <trkpt lat="43.339248" lon="1.421524">
        <ele>205.4</ele>
        <time>2012-10-30T15:09:11Z</time>
      </trkpt>
      <trkpt lat="43.339165" lon="1.421580">
        <ele>205.4</ele>
        <time>2012-10-30T15:09:20Z</time>
      </trkpt>
      <trkpt lat="43.339085" lon="1.421625">
        <ele>206.3</ele>
        <time>2012-10-30T15:09:28Z</time>
      </trkpt>
      <trkpt lat="43.338996" lon="1.421685">
        <ele>206.8</ele>
        <time>2012-10-30T15:09:37Z</time>
      </trkpt>
      <trkpt lat="43.338873" lon="1.421722">
        <ele>207.8</ele>
        <time>2012-10-30T15:09:49Z</time>
      </trkpt>
      <trkpt lat="43.338768" lon="1.421705">
        <ele>207.8</ele>
        <time>2012-10-30T15:10:07Z</time>
      </trkpt>
      <trkpt lat="43.338655" lon="1.421645">
        <ele>209.2</ele>
        <time>2012-10-30T15:10:20Z</time>
      </trkpt>
      <trkpt lat="43.338565" lon="1.421568">
        <ele>210.2</ele>
        <time>2012-10-30T15:10:31Z</time>
      </trkpt>
      <trkpt lat="43.338488" lon="1.421476">
        <ele>211.1</ele>
        <time>2012-10-30T15:10:41Z</time>
      </trkpt>
      <trkpt lat="43.338419" lon="1.421371">
        <ele>211.6</ele>
        <time>2012-10-30T15:10:52Z</time>
      </trkpt>
      <trkpt lat="43.338346" lon="1.421277">
        <ele>213.1</ele>
        <time>2012-10-30T15:11:02Z</time>
      </trkpt>
      <trkpt lat="43.338282" lon="1.421175">
        <ele>213.6</ele>
        <time>2012-10-30T15:11:12Z</time>
      </trkpt>
      <trkpt lat="43.338218" lon="1.421079">
        <ele>215.0</ele>
        <time>2012-10-30T15:11:23Z</time>
      </trkpt>
      <trkpt lat="43.338152" lon="1.420953">
        <ele>215.9</ele>
        <time>2012-10-30T15:11:36Z</time>
      </trkpt>
      <trkpt lat="43.338080" lon="1.420798">
        <ele>216.9</ele>
        <time>2012-10-30T15:11:50Z</time>
      </trkpt>
      <trkpt lat="43.338012" lon="1.420631">
        <ele>217.9</ele>
        <time>2012-10-30T15:12:06Z</time>
      </trkpt>
      <trkpt lat="43.337923" lon="1.420437">
        <ele>218.8</ele>
        <time>2012-10-30T15:12:29Z</time>
      </trkpt>
      <trkpt lat="43.337853" lon="1.420307">
        <ele>219.8</ele>
        <time>2012-10-30T15:12:41Z</time>
      </trkpt>
      <trkpt lat="43.337763" lon="1.420241">
        <ele>220.8</ele>
        <time>2012-10-30T15:12:54Z</time>
      </trkpt>
      <trkpt lat="43.337647" lon="1.420270">
        <ele>222.2</ele>
        <time>2012-10-30T15:13:18Z</time>
      </trkpt>
      <trkpt lat="43.337535" lon="1.420335">
        <ele>223.2</ele>
        <time>2012-10-30T15:13:33Z</time>
      </trkpt>
      <trkpt lat="43.337448" lon="1.420314">
        <ele>223.6</ele>
        <time>2012-10-30T15:15:06Z</time>
      </trkpt>
      <trkpt lat="43.337357" lon="1.420390">
        <ele>225.6</ele>
        <time>2012-10-30T15:15:18Z</time>
      </trkpt>
      <trkpt lat="43.337259" lon="1.420418">
        <ele>227.0</ele>
        <time>2012-10-30T15:15:29Z</time>
      </trkpt>
      <trkpt lat="43.337149" lon="1.420498">
        <ele>228.9</ele>
        <time>2012-10-30T15:15:40Z</time>
      </trkpt>
      <trkpt lat="43.337013" lon="1.420545">
        <ele>230.9</ele>
        <time>2012-10-30T15:15:52Z</time>
      </trkpt>
      <trkpt lat="43.336920" lon="1.420617">
        <ele>232.8</ele>
        <time>2012-10-30T15:16:04Z</time>
      </trkpt>
      <trkpt lat="43.336793" lon="1.420672">
        <ele>234.2</ele>
        <time>2012-10-30T15:16:16Z</time>
      </trkpt>
      <trkpt lat="43.336682" lon="1.420742">
        <ele>235.2</ele>
        <time>2012-10-30T15:16:26Z</time>
      </trkpt>
      <trkpt lat="43.336566" lon="1.420789">
        <ele>236.1</ele>
        <time>2012-10-30T15:16:36Z</time>
      </trkpt>
      <trkpt lat="43.336452" lon="1.420864">
        <ele>237.6</ele>
        <time>2012-10-30T15:16:46Z</time>
      </trkpt>
      <trkpt lat="43.336357" lon="1.420954">
        <ele>238.1</ele>
        <time>2012-10-30T15:16:55Z</time>
      </trkpt>
      <trkpt lat="43.336272" lon="1.421059">
        <ele>239.0</ele>
        <time>2012-10-30T15:17:05Z</time>
      </trkpt>
      <trkpt lat="43.336191" lon="1.421165">
        <ele>239.5</ele>
        <time>2012-10-30T15:17:14Z</time>
      </trkpt>
      <trkpt lat="43.336113" lon="1.421268">
        <ele>240.0</ele>
        <time>2012-10-30T15:17:22Z</time>
      </trkpt>
      <trkpt lat="43.336028" lon="1.421349">
        <ele>240.9</ele>
        <time>2012-10-30T15:17:30Z</time>
      </trkpt>
      <trkpt lat="43.335959" lon="1.421437">
        <ele>240.9</ele>
        <time>2012-10-30T15:17:37Z</time>
      </trkpt>
      <trkpt lat="43.335893" lon="1.421520">
        <ele>241.4</ele>
        <time>2012-10-30T15:17:44Z</time>
      </trkpt>
      <trkpt lat="43.335815" lon="1.421589">
        <ele>242.9</ele>
        <time>2012-10-30T15:17:52Z</time>
      </trkpt>
      <trkpt lat="43.335735" lon="1.421520">
        <ele>243.4</ele>
        <time>2012-10-30T15:18:00Z</time>
      </trkpt>
      <trkpt lat="43.335684" lon="1.421407">
        <ele>242.9</ele>
        <time>2012-10-30T15:18:09Z</time>
      </trkpt>
      <trkpt lat="43.335635" lon="1.421286">
        <ele>243.4</ele>
        <time>2012-10-30T15:18:19Z</time>
      </trkpt>
      <trkpt lat="43.335585" lon="1.421189">
        <ele>242.9</ele>
        <time>2012-10-30T15:18:28Z</time>
      </trkpt>
      <trkpt lat="43.335525" lon="1.421086">
        <ele>242.9</ele>
        <time>2012-10-30T15:18:37Z</time>
      </trkpt>
      <trkpt lat="43.335467" lon="1.420971">
        <ele>243.4</ele>
        <time>2012-10-30T15:18:46Z</time>
      </trkpt>
      <trkpt lat="43.335415" lon="1.420849">
        <ele>243.4</ele>
        <time>2012-10-30T15:18:55Z</time>
      </trkpt>
      <trkpt lat="43.335382" lon="1.420741">
        <ele>243.8</ele>
        <time>2012-10-30T15:19:03Z</time>
      </trkpt>
      <trkpt lat="43.335330" lon="1.420622">
        <ele>243.4</ele>
        <time>2012-10-30T15:19:12Z</time>
      </trkpt>
      <trkpt lat="43.335285" lon="1.420499">
        <ele>243.8</ele>
        <time>2012-10-30T15:19:21Z</time>
      </trkpt>
      <trkpt lat="43.335232" lon="1.420391">
        <ele>243.8</ele>
        <time>2012-10-30T15:19:29Z</time>
      </trkpt>
      <trkpt lat="43.335183" lon="1.420276">
        <ele>243.8</ele>
        <time>2012-10-30T15:19:38Z</time>
      </trkpt>
      <trkpt lat="43.335136" lon="1.420161">
        <ele>243.8</ele>
        <time>2012-10-30T15:19:47Z</time>
      </trkpt>
      <trkpt lat="43.335087" lon="1.420046">
        <ele>244.8</ele>
        <time>2012-10-30T15:19:56Z</time>
      </trkpt>
      <trkpt lat="43.335046" lon="1.419928">
        <ele>244.3</ele>
        <time>2012-10-30T15:20:05Z</time>
      </trkpt>
      <trkpt lat="43.334994" lon="1.419828">
        <ele>244.8</ele>
        <time>2012-10-30T15:20:13Z</time>
      </trkpt>
      <trkpt lat="43.334943" lon="1.419712">
        <ele>244.8</ele>
        <time>2012-10-30T15:20:21Z</time>
      </trkpt>
      <trkpt lat="43.334881" lon="1.419607">
        <ele>245.8</ele>
        <time>2012-10-30T15:20:29Z</time>
      </trkpt>
      <trkpt lat="43.334817" lon="1.419508">
        <ele>245.3</ele>
        <time>2012-10-30T15:20:37Z</time>
      </trkpt>
      <trkpt lat="43.334766" lon="1.419392">
        <ele>245.8</ele>
        <time>2012-10-30T15:20:45Z</time>
      </trkpt>
      <trkpt lat="43.334695" lon="1.419294">
        <ele>245.8</ele>
        <time>2012-10-30T15:20:53Z</time>
      </trkpt>
      <trkpt lat="43.334640" lon="1.419178">
        <ele>246.7</ele>
        <time>2012-10-30T15:21:01Z</time>
      </trkpt>
      <trkpt lat="43.334589" lon="1.419076">
        <ele>246.7</ele>
        <time>2012-10-30T15:21:09Z</time>
      </trkpt>
      <trkpt lat="43.334539" lon="1.418968">
        <ele>246.7</ele>
        <time>2012-10-30T15:21:17Z</time>
      </trkpt>
      <trkpt lat="43.334493" lon="1.418847">
        <ele>247.2</ele>
        <time>2012-10-30T15:21:25Z</time>
      </trkpt>
      <trkpt lat="43.334448" lon="1.418722">
        <ele>247.7</ele>
        <time>2012-10-30T15:21:34Z</time>
      </trkpt>
      <trkpt lat="43.334394" lon="1.418592">
        <ele>247.7</ele>
        <time>2012-10-30T15:21:43Z</time>
      </trkpt>
      <trkpt lat="43.334344" lon="1.418461">
        <ele>248.6</ele>
        <time>2012-10-30T15:21:52Z</time>
      </trkpt>
      <trkpt lat="43.334291" lon="1.418344">
        <ele>248.6</ele>
        <time>2012-10-30T15:22:00Z</time>
      </trkpt>
      <trkpt lat="43.334249" lon="1.418218">
        <ele>249.1</ele>
        <time>2012-10-30T15:22:08Z</time>
      </trkpt>
      <trkpt lat="43.334200" lon="1.418102">
        <ele>250.1</ele>
        <time>2012-10-30T15:22:16Z</time>
      </trkpt>
      <trkpt lat="43.334154" lon="1.417986">
        <ele>250.6</ele>
        <time>2012-10-30T15:22:24Z</time>
      </trkpt>
      <trkpt lat="43.334104" lon="1.417879">
        <ele>251.5</ele>
        <time>2012-10-30T15:22:32Z</time>
      </trkpt>
      <trkpt lat="43.334059" lon="1.417755">
        <ele>252.0</ele>
        <time>2012-10-30T15:22:40Z</time>
      </trkpt>
      <trkpt lat="43.334011" lon="1.417631">
        <ele>253.0</ele>
        <time>2012-10-30T15:22:48Z</time>
      </trkpt>
      <trkpt lat="43.333961" lon="1.417515">
        <ele>253.4</ele>
        <time>2012-10-30T15:22:56Z</time>
      </trkpt>
      <trkpt lat="43.333909" lon="1.417419">
        <ele>253.9</ele>
        <time>2012-10-30T15:23:04Z</time>
      </trkpt>
      <trkpt lat="43.333840" lon="1.417326">
        <ele>254.9</ele>
        <time>2012-10-30T15:23:12Z</time>
      </trkpt>
      <trkpt lat="43.333772" lon="1.417237">
        <ele>254.9</ele>
        <time>2012-10-30T15:23:20Z</time>
      </trkpt>
      <trkpt lat="43.333686" lon="1.417161">
        <ele>255.9</ele>
        <time>2012-10-30T15:23:28Z</time>
      </trkpt>
      <trkpt lat="43.333605" lon="1.417074">
        <ele>256.8</ele>
        <time>2012-10-30T15:23:36Z</time>
      </trkpt>
      <trkpt lat="43.333520" lon="1.417006">
        <ele>256.8</ele>
        <time>2012-10-30T15:23:44Z</time>
      </trkpt>
      <trkpt lat="43.333434" lon="1.416923">
        <ele>257.8</ele>
        <time>2012-10-30T15:23:52Z</time>
      </trkpt>
      <trkpt lat="43.333360" lon="1.416823">
        <ele>257.8</ele>
        <time>2012-10-30T15:24:00Z</time>
      </trkpt>
      <trkpt lat="43.333307" lon="1.416722">
        <ele>257.8</ele>
        <time>2012-10-30T15:24:07Z</time>
      </trkpt>
      <trkpt lat="43.333251" lon="1.416618">
        <ele>258.2</ele>
        <time>2012-10-30T15:24:15Z</time>
      </trkpt>
      <trkpt lat="43.333195" lon="1.416504">
        <ele>257.8</ele>
        <time>2012-10-30T15:24:24Z</time>
      </trkpt>
      <trkpt lat="43.333142" lon="1.416400">
        <ele>257.8</ele>
        <time>2012-10-30T15:24:33Z</time>
      </trkpt>
      <trkpt lat="43.333090" lon="1.416297">
        <ele>258.7</ele>
        <time>2012-10-30T15:24:43Z</time>
      </trkpt>
      <trkpt lat="43.333023" lon="1.416187">
        <ele>258.2</ele>
        <time>2012-10-30T15:24:51Z</time>
      </trkpt>
      <trkpt lat="43.332961" lon="1.416072">
        <ele>258.7</ele>
        <time>2012-10-30T15:25:00Z</time>
      </trkpt>
      <trkpt lat="43.332910" lon="1.415960">
        <ele>259.2</ele>
        <time>2012-10-30T15:25:27Z</time>
      </trkpt>
      <trkpt lat="43.332850" lon="1.415857">
        <ele>260.2</ele>
        <time>2012-10-30T15:25:36Z</time>
      </trkpt>
      <trkpt lat="43.332803" lon="1.415753">
        <ele>260.2</ele>
        <time>2012-10-30T15:25:45Z</time>
      </trkpt>
      <trkpt lat="43.332740" lon="1.415636">
        <ele>260.6</ele>
        <time>2012-10-30T15:25:53Z</time>
      </trkpt>
      <trkpt lat="43.332677" lon="1.415513">
        <ele>261.1</ele>
        <time>2012-10-30T15:26:01Z</time>
      </trkpt>
      <trkpt lat="43.332617" lon="1.415404">
        <ele>261.1</ele>
        <time>2012-10-30T15:26:09Z</time>
      </trkpt>
      <trkpt lat="43.332558" lon="1.415300">
        <ele>262.1</ele>
        <time>2012-10-30T15:26:17Z</time>
      </trkpt>
      <trkpt lat="43.332493" lon="1.415190">
        <ele>263.1</ele>
        <time>2012-10-30T15:26:25Z</time>
      </trkpt>
      <trkpt lat="43.332449" lon="1.415066">
        <ele>264.0</ele>
        <time>2012-10-30T15:26:33Z</time>
      </trkpt>
      <trkpt lat="43.332391" lon="1.414945">
        <ele>265.0</ele>
        <time>2012-10-30T15:26:41Z</time>
      </trkpt>
      <trkpt lat="43.332335" lon="1.414836">
        <ele>265.9</ele>
        <time>2012-10-30T15:26:48Z</time>
      </trkpt>
      <trkpt lat="43.332272" lon="1.414725">
        <ele>267.4</ele>
        <time>2012-10-30T15:26:56Z</time>
      </trkpt>
      <trkpt lat="43.332217" lon="1.414610">
        <ele>268.8</ele>
        <time>2012-10-30T15:27:04Z</time>
      </trkpt>
      <trkpt lat="43.332168" lon="1.414502">
        <ele>269.3</ele>
        <time>2012-10-30T15:27:11Z</time>
      </trkpt>
      <trkpt lat="43.332107" lon="1.414399">
        <ele>270.8</ele>
        <time>2012-10-30T15:27:19Z</time>
      </trkpt>
      <trkpt lat="43.332051" lon="1.414292">
        <ele>271.7</ele>
        <time>2012-10-30T15:27:27Z</time>
      </trkpt>
      <trkpt lat="43.331991" lon="1.414185">
        <ele>273.6</ele>
        <time>2012-10-30T15:27:36Z</time>
      </trkpt>
      <trkpt lat="43.331929" lon="1.414074">
        <ele>275.1</ele>
        <time>2012-10-30T15:27:45Z</time>
      </trkpt>
      <trkpt lat="43.331858" lon="1.413965">
        <ele>275.6</ele>
        <time>2012-10-30T15:27:52Z</time>
      </trkpt>
      <trkpt lat="43.331763" lon="1.413853">
        <ele>276.5</ele>
        <time>2012-10-30T15:28:00Z</time>
      </trkpt>
      <trkpt lat="43.331676" lon="1.413815">
        <ele>277.5</ele>
        <time>2012-10-30T15:28:08Z</time>
      </trkpt>
      <trkpt lat="43.331593" lon="1.413867">
        <ele>277.5</ele>
        <time>2012-10-30T15:28:17Z</time>
      </trkpt>
      <trkpt lat="43.331486" lon="1.413988">
        <ele>278.4</ele>
        <time>2012-10-30T15:28:39Z</time>
      </trkpt>
      <trkpt lat="43.331395" lon="1.414022">
        <ele>278.9</ele>
        <time>2012-10-30T15:28:47Z</time>
      </trkpt>
      <trkpt lat="43.331290" lon="1.414069">
        <ele>279.4</ele>
        <time>2012-10-30T15:28:56Z</time>
      </trkpt>
      <trkpt lat="43.331186" lon="1.414119">
        <ele>280.4</ele>
        <time>2012-10-30T15:29:07Z</time>
      </trkpt>
      <trkpt lat="43.331058" lon="1.414213">
        <ele>281.3</ele>
        <time>2012-10-30T15:29:16Z</time>
      </trkpt>
      <trkpt lat="43.330971" lon="1.414273">
        <ele>281.3</ele>
        <time>2012-10-30T15:29:24Z</time>
      </trkpt>
      <trkpt lat="43.330887" lon="1.414326">
        <ele>282.3</ele>
        <time>2012-10-30T15:29:32Z</time>
      </trkpt>
      <trkpt lat="43.330801" lon="1.414386">
        <ele>282.3</ele>
        <time>2012-10-30T15:29:40Z</time>
      </trkpt>
      <trkpt lat="43.330716" lon="1.414450">
        <ele>281.8</ele>
        <time>2012-10-30T15:29:48Z</time>
      </trkpt>
      <trkpt lat="43.330624" lon="1.414510">
        <ele>282.3</ele>
        <time>2012-10-30T15:29:57Z</time>
      </trkpt>
      <trkpt lat="43.330529" lon="1.414564">
        <ele>282.8</ele>
        <time>2012-10-30T15:30:06Z</time>
      </trkpt>
      <trkpt lat="43.330438" lon="1.414618">
        <ele>283.7</ele>
        <time>2012-10-30T15:30:15Z</time>
      </trkpt>
      <trkpt lat="43.330347" lon="1.414678">
        <ele>284.2</ele>
        <time>2012-10-30T15:30:23Z</time>
      </trkpt>
      <trkpt lat="43.330260" lon="1.414735">
        <ele>284.7</ele>
        <time>2012-10-30T15:30:31Z</time>
      </trkpt>
      <trkpt lat="43.330171" lon="1.414788">
        <ele>284.2</ele>
        <time>2012-10-30T15:30:40Z</time>
      </trkpt>
      <trkpt lat="43.330078" lon="1.414856">
        <ele>285.2</ele>
        <time>2012-10-30T15:30:49Z</time>
      </trkpt>
      <trkpt lat="43.329981" lon="1.414923">
        <ele>285.6</ele>
        <time>2012-10-30T15:30:57Z</time>
      </trkpt>
      <trkpt lat="43.329878" lon="1.414957">
        <ele>286.1</ele>
        <time>2012-10-30T15:31:05Z</time>
      </trkpt>
      <trkpt lat="43.329784" lon="1.414970">
        <ele>286.6</ele>
        <time>2012-10-30T15:31:13Z</time>
      </trkpt>
      <trkpt lat="43.329698" lon="1.414922">
        <ele>286.6</ele>
        <time>2012-10-30T15:31:21Z</time>
      </trkpt>
      <trkpt lat="43.329635" lon="1.414814">
        <ele>286.6</ele>
        <time>2012-10-30T15:31:29Z</time>
      </trkpt>
      <trkpt lat="43.329575" lon="1.414707">
        <ele>287.6</ele>
        <time>2012-10-30T15:31:37Z</time>
      </trkpt>
      <trkpt lat="43.329518" lon="1.414603">
        <ele>288.0</ele>
        <time>2012-10-30T15:31:46Z</time>
      </trkpt>
      <trkpt lat="43.329464" lon="1.414496">
        <ele>288.5</ele>
        <time>2012-10-30T15:31:56Z</time>
      </trkpt>
      <trkpt lat="43.329407" lon="1.414393">
        <ele>289.5</ele>
        <time>2012-10-30T15:32:05Z</time>
      </trkpt>
      <trkpt lat="43.329340" lon="1.414291">
        <ele>290.9</ele>
        <time>2012-10-30T15:32:14Z</time>
      </trkpt>
      <trkpt lat="43.329280" lon="1.414196">
        <ele>290.9</ele>
        <time>2012-10-30T15:32:23Z</time>
      </trkpt>
      <trkpt lat="43.329215" lon="1.414102">
        <ele>291.4</ele>
        <time>2012-10-30T15:32:32Z</time>
      </trkpt>
      <trkpt lat="43.329146" lon="1.413999">
        <ele>291.4</ele>
        <time>2012-10-30T15:32:41Z</time>
      </trkpt>
      <trkpt lat="43.329086" lon="1.413900">
        <ele>291.9</ele>
        <time>2012-10-30T15:32:50Z</time>
      </trkpt>
      <trkpt lat="43.329012" lon="1.413804">
        <ele>291.9</ele>
        <time>2012-10-30T15:32:58Z</time>
      </trkpt>
      <trkpt lat="43.328946" lon="1.413714">
        <ele>291.9</ele>
        <time>2012-10-30T15:33:06Z</time>
      </trkpt>
      <trkpt lat="43.328877" lon="1.413616">
        <ele>292.9</ele>
        <time>2012-10-30T15:33:15Z</time>
      </trkpt>
      <trkpt lat="43.328818" lon="1.413500">
        <ele>292.9</ele>
        <time>2012-10-30T15:33:25Z</time>
      </trkpt>
      <trkpt lat="43.328744" lon="1.413375">
        <ele>292.9</ele>
        <time>2012-10-30T15:33:35Z</time>
      </trkpt>
      <trkpt lat="43.328693" lon="1.413268">
        <ele>293.3</ele>
        <time>2012-10-30T15:33:44Z</time>
      </trkpt>
      <trkpt lat="43.328635" lon="1.413147">
        <ele>293.8</ele>
        <time>2012-10-30T15:33:54Z</time>
        <name>Jean Blanc</name>
      </trkpt>
      <trkpt lat="43.328573" lon="1.413050">
        <ele>293.3</ele>
        <time>2012-10-30T15:34:03Z</time>
      </trkpt>
      <trkpt lat="43.328503" lon="1.412948">
        <ele>293.3</ele>
        <time>2012-10-30T15:34:12Z</time>
      </trkpt>
      <trkpt lat="43.328443" lon="1.412837">
        <ele>295.7</ele>
        <time>2012-10-30T15:34:21Z</time>
      </trkpt>
      <trkpt lat="43.328385" lon="1.412737">
        <ele>294.8</ele>
        <time>2012-10-30T15:34:29Z</time>
      </trkpt>
      <trkpt lat="43.328318" lon="1.412636">
        <ele>294.3</ele>
        <time>2012-10-30T15:34:37Z</time>
      </trkpt>
      <trkpt lat="43.328261" lon="1.412518">
        <ele>295.3</ele>
        <time>2012-10-30T15:34:45Z</time>
      </trkpt>
      <trkpt lat="43.328207" lon="1.412399">
        <ele>295.3</ele>
        <time>2012-10-30T15:34:53Z</time>
      </trkpt>
      <trkpt lat="43.328166" lon="1.412296">
        <ele>295.7</ele>
        <time>2012-10-30T15:35:01Z</time>
      </trkpt>
      <trkpt lat="43.328105" lon="1.412176">
        <ele>297.2</ele>
        <time>2012-10-30T15:35:10Z</time>
      </trkpt>
      <trkpt lat="43.328040" lon="1.412078">
        <ele>298.6</ele>
        <time>2012-10-30T15:35:20Z</time>
      </trkpt>
      <trkpt lat="43.327962" lon="1.411957">
        <ele>300.1</ele>
        <time>2012-10-30T15:35:30Z</time>
      </trkpt>
      <trkpt lat="43.327899" lon="1.411842">
        <ele>300.5</ele>
        <time>2012-10-30T15:35:39Z</time>
      </trkpt>
      <trkpt lat="43.327836" lon="1.411725">
        <ele>301.5</ele>
        <time>2012-10-30T15:35:49Z</time>
      </trkpt>
      <trkpt lat="43.327777" lon="1.411617">
        <ele>302.0</ele>
        <time>2012-10-30T15:35:59Z</time>
      </trkpt>
      <trkpt lat="43.327727" lon="1.411507">
        <ele>302.5</ele>
        <time>2012-10-30T15:36:07Z</time>
      </trkpt>
      <trkpt lat="43.327687" lon="1.411386">
        <ele>303.4</ele>
        <time>2012-10-30T15:36:15Z</time>
      </trkpt>
      <trkpt lat="43.327638" lon="1.411281">
        <ele>303.9</ele>
        <time>2012-10-30T15:36:22Z</time>
      </trkpt>
      <trkpt lat="43.327586" lon="1.411172">
        <ele>304.9</ele>
        <time>2012-10-30T15:36:30Z</time>
      </trkpt>
      <trkpt lat="43.327511" lon="1.411078">
        <ele>304.9</ele>
        <time>2012-10-30T15:36:38Z</time>
      </trkpt>
      <trkpt lat="43.327436" lon="1.411007">
        <ele>304.9</ele>
        <time>2012-10-30T15:36:47Z</time>
      </trkpt>
      <trkpt lat="43.327375" lon="1.410906">
        <ele>305.4</ele>
        <time>2012-10-30T15:36:55Z</time>
      </trkpt>
      <trkpt lat="43.327323" lon="1.410804">
        <ele>305.4</ele>
        <time>2012-10-30T15:37:03Z</time>
      </trkpt>
      <trkpt lat="43.327274" lon="1.410701">
        <ele>305.4</ele>
        <time>2012-10-30T15:37:11Z</time>
      </trkpt>
      <trkpt lat="43.327217" lon="1.410595">
        <ele>304.9</ele>
        <time>2012-10-30T15:37:19Z</time>
      </trkpt>
      <trkpt lat="43.327174" lon="1.410498">
        <ele>304.9</ele>
        <time>2012-10-30T15:37:27Z</time>
      </trkpt>
      <trkpt lat="43.327135" lon="1.410380">
        <ele>304.9</ele>
        <time>2012-10-30T15:37:35Z</time>
      </trkpt>
      <trkpt lat="43.327098" lon="1.410278">
        <ele>304.4</ele>
        <time>2012-10-30T15:37:44Z</time>
      </trkpt>
      <trkpt lat="43.327050" lon="1.410167">
        <ele>304.9</ele>
        <time>2012-10-30T15:37:52Z</time>
      </trkpt>
      <trkpt lat="43.326999" lon="1.410066">
        <ele>304.4</ele>
        <time>2012-10-30T15:38:02Z</time>
      </trkpt>
      <trkpt lat="43.326934" lon="1.409942">
        <ele>304.4</ele>
        <time>2012-10-30T15:38:11Z</time>
      </trkpt>
      <trkpt lat="43.326880" lon="1.409832">
        <ele>304.4</ele>
        <time>2012-10-30T15:38:19Z</time>
      </trkpt>
      <trkpt lat="43.326824" lon="1.409719">
        <ele>304.4</ele>
        <time>2012-10-30T15:38:28Z</time>
      </trkpt>
      <trkpt lat="43.326767" lon="1.409616">
        <ele>304.4</ele>
        <time>2012-10-30T15:38:36Z</time>
      </trkpt>
      <trkpt lat="43.326700" lon="1.409524">
        <ele>303.9</ele>
        <time>2012-10-30T15:38:44Z</time>
      </trkpt>
      <trkpt lat="43.326625" lon="1.409396">
        <ele>304.4</ele>
        <time>2012-10-30T15:38:52Z</time>
      </trkpt>
      <trkpt lat="43.326558" lon="1.409329">
        <ele>304.4</ele>
        <time>2012-10-30T15:38:59Z</time>
      </trkpt>
      <trkpt lat="43.326479" lon="1.409246">
        <ele>303.9</ele>
        <time>2012-10-30T15:39:08Z</time>
      </trkpt>
      <trkpt lat="43.326428" lon="1.409172">
        <ele>303.9</ele>
        <time>2012-10-30T15:40:01Z</time>
      </trkpt>
      <trkpt lat="43.326340" lon="1.409087">
        <ele>304.4</ele>
        <time>2012-10-30T15:40:10Z</time>
      </trkpt>
      <trkpt lat="43.326261" lon="1.409008">
        <ele>304.9</ele>
        <time>2012-10-30T15:40:18Z</time>
      </trkpt>
      <trkpt lat="43.326162" lon="1.408909">
        <ele>304.4</ele>
        <time>2012-10-30T15:40:27Z</time>
      </trkpt>
      <trkpt lat="43.326081" lon="1.408822">
        <ele>304.9</ele>
        <time>2012-10-30T15:40:35Z</time>
      </trkpt>
      <trkpt lat="43.325994" lon="1.408738">
        <ele>304.9</ele>
        <time>2012-10-30T15:40:43Z</time>
      </trkpt>
      <trkpt lat="43.325924" lon="1.408657">
        <ele>305.4</ele>
        <time>2012-10-30T15:40:51Z</time>
      </trkpt>
      <trkpt lat="43.325852" lon="1.408567">
        <ele>305.4</ele>
        <time>2012-10-30T15:41:00Z</time>
      </trkpt>
      <trkpt lat="43.325755" lon="1.408495">
        <ele>305.4</ele>
        <time>2012-10-30T15:41:26Z</time>
      </trkpt>
      <trkpt lat="43.325670" lon="1.408411">
        <ele>305.4</ele>
        <time>2012-10-30T15:41:35Z</time>
      </trkpt>
      <trkpt lat="43.325604" lon="1.408336">
        <ele>306.8</ele>
        <time>2012-10-30T15:41:49Z</time>
      </trkpt>
      <trkpt lat="43.325525" lon="1.408251">
        <ele>307.8</ele>
        <time>2012-10-30T15:41:57Z</time>
      </trkpt>
      <trkpt lat="43.325456" lon="1.408154">
        <ele>308.2</ele>
        <time>2012-10-30T15:42:05Z</time>
      </trkpt>
      <trkpt lat="43.325386" lon="1.408054">
        <ele>308.2</ele>
        <time>2012-10-30T15:42:14Z</time>
      </trkpt>
      <trkpt lat="43.325326" lon="1.407953">
        <ele>309.2</ele>
        <time>2012-10-30T15:42:22Z</time>
      </trkpt>
      <trkpt lat="43.325267" lon="1.407851">
        <ele>310.6</ele>
        <time>2012-10-30T15:42:30Z</time>
      </trkpt>
      <trkpt lat="43.325207" lon="1.407731">
        <ele>311.1</ele>
        <time>2012-10-30T15:42:38Z</time>
      </trkpt>
      <trkpt lat="43.325160" lon="1.407623">
        <ele>311.1</ele>
        <time>2012-10-30T15:42:45Z</time>
      </trkpt>
      <trkpt lat="43.325116" lon="1.407496">
        <ele>311.1</ele>
        <time>2012-10-30T15:42:52Z</time>
      </trkpt>
      <trkpt lat="43.325068" lon="1.407384">
        <ele>311.1</ele>
        <time>2012-10-30T15:42:59Z</time>
      </trkpt>
      <trkpt lat="43.325030" lon="1.407277">
        <ele>312.1</ele>
        <time>2012-10-30T15:43:06Z</time>
      </trkpt>
      <trkpt lat="43.324977" lon="1.407155">
        <ele>311.6</ele>
        <time>2012-10-30T15:43:14Z</time>
      </trkpt>
      <trkpt lat="43.324913" lon="1.407046">
        <ele>311.6</ele>
        <time>2012-10-30T15:43:21Z</time>
      </trkpt>
      <trkpt lat="43.324855" lon="1.406943">
        <ele>311.6</ele>
        <time>2012-10-30T15:43:28Z</time>
      </trkpt>
      <trkpt lat="43.324785" lon="1.406845">
        <ele>311.1</ele>
        <time>2012-10-30T15:43:36Z</time>
      </trkpt>
      <trkpt lat="43.324717" lon="1.406740">
        <ele>311.1</ele>
        <time>2012-10-30T15:43:44Z</time>
      </trkpt>
      <trkpt lat="43.324648" lon="1.406631">
        <ele>311.1</ele>
        <time>2012-10-30T15:43:52Z</time>
      </trkpt>
      <trkpt lat="43.324584" lon="1.406537">
        <ele>311.1</ele>
        <time>2012-10-30T15:43:59Z</time>
      </trkpt>
      <trkpt lat="43.324516" lon="1.406421">
        <ele>311.1</ele>
        <time>2012-10-30T15:44:07Z</time>
      </trkpt>
      <trkpt lat="43.324462" lon="1.406334">
        <ele>311.6</ele>
        <time>2012-10-30T15:44:14Z</time>
      </trkpt>
      <trkpt lat="43.324396" lon="1.406243">
        <ele>311.6</ele>
        <time>2012-10-30T15:44:22Z</time>
      </trkpt>
      <trkpt lat="43.324330" lon="1.406151">
        <ele>312.1</ele>
        <time>2012-10-30T15:44:29Z</time>
      </trkpt>
      <trkpt lat="43.324275" lon="1.406060">
        <ele>311.6</ele>
        <time>2012-10-30T15:44:36Z</time>
      </trkpt>
      <trkpt lat="43.324213" lon="1.405954">
        <ele>312.1</ele>
        <time>2012-10-30T15:44:44Z</time>
      </trkpt>
      <trkpt lat="43.324150" lon="1.405854">
        <ele>312.1</ele>
        <time>2012-10-30T15:44:51Z</time>
      </trkpt>
      <trkpt lat="43.324083" lon="1.405763">
        <ele>312.6</ele>
        <time>2012-10-30T15:44:58Z</time>
      </trkpt>
      <trkpt lat="43.324018" lon="1.405666">
        <ele>312.6</ele>
        <time>2012-10-30T15:45:05Z</time>
      </trkpt>
      <trkpt lat="43.323953" lon="1.405569">
        <ele>312.6</ele>
        <time>2012-10-30T15:45:12Z</time>
      </trkpt>
      <trkpt lat="43.323885" lon="1.405475">
        <ele>312.6</ele>
        <time>2012-10-30T15:45:19Z</time>
      </trkpt>
      <trkpt lat="43.323828" lon="1.405375">
        <ele>313.0</ele>
        <time>2012-10-30T15:45:26Z</time>
      </trkpt>
      <trkpt lat="43.323761" lon="1.405278">
        <ele>314.0</ele>
        <time>2012-10-30T15:45:33Z</time>
      </trkpt>
      <trkpt lat="43.323682" lon="1.405193">
        <ele>313.5</ele>
        <time>2012-10-30T15:45:40Z</time>
      </trkpt>
      <trkpt lat="43.323618" lon="1.405097">
        <ele>314.0</ele>
        <time>2012-10-30T15:45:47Z</time>
      </trkpt>
      <trkpt lat="43.323545" lon="1.405011">
        <ele>315.0</ele>
        <time>2012-10-30T15:45:55Z</time>
      </trkpt>
      <trkpt lat="43.323476" lon="1.404929">
        <ele>314.5</ele>
        <time>2012-10-30T15:46:02Z</time>
      </trkpt>
      <trkpt lat="43.323401" lon="1.404836">
        <ele>315.0</ele>
        <time>2012-10-30T15:46:09Z</time>
      </trkpt>
      <trkpt lat="43.323331" lon="1.404729">
        <ele>315.5</ele>
        <time>2012-10-30T15:46:16Z</time>
      </trkpt>
      <trkpt lat="43.323263" lon="1.404635">
        <ele>315.9</ele>
        <time>2012-10-30T15:46:23Z</time>
      </trkpt>
      <trkpt lat="43.323200" lon="1.404521">
        <ele>316.4</ele>
        <time>2012-10-30T15:46:31Z</time>
      </trkpt>
      <trkpt lat="43.323142" lon="1.404421">
        <ele>316.9</ele>
        <time>2012-10-30T15:46:38Z</time>
      </trkpt>
      <trkpt lat="43.323081" lon="1.404317">
        <ele>316.9</ele>
        <time>2012-10-30T15:46:45Z</time>
      </trkpt>
      <trkpt lat="43.323020" lon="1.404216">
        <ele>317.4</ele>
        <time>2012-10-30T15:46:52Z</time>
      </trkpt>
      <trkpt lat="43.322959" lon="1.404115">
        <ele>317.9</ele>
        <time>2012-10-30T15:46:59Z</time>
      </trkpt>
      <trkpt lat="43.322885" lon="1.404019">
        <ele>318.3</ele>
        <time>2012-10-30T15:47:06Z</time>
      </trkpt>
      <trkpt lat="43.322818" lon="1.403915">
        <ele>318.8</ele>
        <time>2012-10-30T15:47:13Z</time>
      </trkpt>
      <trkpt lat="43.322750" lon="1.403811">
        <ele>319.3</ele>
        <time>2012-10-30T15:47:20Z</time>
      </trkpt>
      <trkpt lat="43.322686" lon="1.403713">
        <ele>319.3</ele>
        <time>2012-10-30T15:47:27Z</time>
      </trkpt>
      <trkpt lat="43.322614" lon="1.403614">
        <ele>319.8</ele>
        <time>2012-10-30T15:47:34Z</time>
      </trkpt>
      <trkpt lat="43.322549" lon="1.403516">
        <ele>319.8</ele>
        <time>2012-10-30T15:47:41Z</time>
      </trkpt>
      <trkpt lat="43.322486" lon="1.403415">
        <ele>320.3</ele>
        <time>2012-10-30T15:47:48Z</time>
      </trkpt>
      <trkpt lat="43.322419" lon="1.403320">
        <ele>320.3</ele>
        <time>2012-10-30T15:47:55Z</time>
      </trkpt>
      <trkpt lat="43.322357" lon="1.403221">
        <ele>321.2</ele>
        <time>2012-10-30T15:48:02Z</time>
      </trkpt>
      <trkpt lat="43.322291" lon="1.403119">
        <ele>321.2</ele>
        <time>2012-10-30T15:48:09Z</time>
      </trkpt>
      <trkpt lat="43.322221" lon="1.403025">
        <ele>321.2</ele>
        <time>2012-10-30T15:48:17Z</time>
      </trkpt>
      <trkpt lat="43.322155" lon="1.402926">
        <ele>322.2</ele>
        <time>2012-10-30T15:48:26Z</time>
      </trkpt>
      <trkpt lat="43.322087" lon="1.402832">
        <ele>321.7</ele>
        <time>2012-10-30T15:48:35Z</time>
      </trkpt>
      <trkpt lat="43.322010" lon="1.402755">
        <ele>321.2</ele>
        <time>2012-10-30T15:48:45Z</time>
      </trkpt>
      <trkpt lat="43.321883" lon="1.402730">
        <ele>320.3</ele>
        <time>2012-10-30T15:49:07Z</time>
      </trkpt>
      <trkpt lat="43.321872" lon="1.402862">
        <ele>320.3</ele>
        <time>2012-10-30T15:49:18Z</time>
      </trkpt>
      <trkpt lat="43.321876" lon="1.403017">
        <ele>319.8</ele>
        <time>2012-10-30T15:49:29Z</time>
      </trkpt>
      <trkpt lat="43.321868" lon="1.403173">
        <ele>319.8</ele>
        <time>2012-10-30T15:49:39Z</time>
      </trkpt>
      <trkpt lat="43.321871" lon="1.403334">
        <ele>319.3</ele>
        <time>2012-10-30T15:49:48Z</time>
      </trkpt>
      <trkpt lat="43.321851" lon="1.403473">
        <ele>317.9</ele>
        <time>2012-10-30T15:49:56Z</time>
      </trkpt>
      <trkpt lat="43.321844" lon="1.403608">
        <ele>318.3</ele>
        <time>2012-10-30T15:50:05Z</time>
      </trkpt>
      <trkpt lat="43.321835" lon="1.403744">
        <ele>317.4</ele>
        <time>2012-10-30T15:50:14Z</time>
      </trkpt>
      <trkpt lat="43.321829" lon="1.403873">
        <ele>317.9</ele>
        <time>2012-10-30T15:50:23Z</time>
      </trkpt>
      <trkpt lat="43.321819" lon="1.404002">
        <ele>317.9</ele>
        <time>2012-10-30T15:50:32Z</time>
      </trkpt>
      <trkpt lat="43.321805" lon="1.404144">
        <ele>317.9</ele>
        <time>2012-10-30T15:50:41Z</time>
      </trkpt>
      <trkpt lat="43.321799" lon="1.404276">
        <ele>317.4</ele>
        <time>2012-10-30T15:50:50Z</time>
      </trkpt>
      <trkpt lat="43.321794" lon="1.404382">
        <ele>317.4</ele>
        <time>2012-10-30T15:50:59Z</time>
      </trkpt>
      <trkpt lat="43.321786" lon="1.404521">
        <ele>316.9</ele>
        <time>2012-10-30T15:51:08Z</time>
      </trkpt>
      <trkpt lat="43.321776" lon="1.404676">
        <ele>317.4</ele>
        <time>2012-10-30T15:51:17Z</time>
      </trkpt>
      <trkpt lat="43.321764" lon="1.404828">
        <ele>316.9</ele>
        <time>2012-10-30T15:51:27Z</time>
      </trkpt>
      <trkpt lat="43.321758" lon="1.404966">
        <ele>317.4</ele>
        <time>2012-10-30T15:51:36Z</time>
      </trkpt>
      <trkpt lat="43.321744" lon="1.405101">
        <ele>316.9</ele>
        <time>2012-10-30T15:51:45Z</time>
      </trkpt>
      <trkpt lat="43.321728" lon="1.405251">
        <ele>315.9</ele>
        <time>2012-10-30T15:51:54Z</time>
      </trkpt>
      <trkpt lat="43.321725" lon="1.405405">
        <ele>316.4</ele>
        <time>2012-10-30T15:52:04Z</time>
      </trkpt>
      <trkpt lat="43.321712" lon="1.405561">
        <ele>316.4</ele>
        <time>2012-10-30T15:52:13Z</time>
      </trkpt>
      <trkpt lat="43.321707" lon="1.405730">
        <ele>315.9</ele>
        <time>2012-10-30T15:52:23Z</time>
      </trkpt>
      <trkpt lat="43.321705" lon="1.405894">
        <ele>315.9</ele>
        <time>2012-10-30T15:52:33Z</time>
      </trkpt>
      <trkpt lat="43.321690" lon="1.406050">
        <ele>315.5</ele>
        <time>2012-10-30T15:52:42Z</time>
      </trkpt>
      <trkpt lat="43.321679" lon="1.406205">
        <ele>315.5</ele>
        <time>2012-10-30T15:52:52Z</time>
        <name>La Mecque</name>
      </trkpt>
      <trkpt lat="43.321671" lon="1.406375">
        <ele>315.5</ele>
        <time>2012-10-30T15:53:03Z</time>
      </trkpt>
      <trkpt lat="43.321668" lon="1.406490">
        <ele>313.5</ele>
        <time>2012-10-30T15:53:11Z</time>
      </trkpt>
      <trkpt lat="43.321672" lon="1.406645">
        <ele>315.5</ele>
        <time>2012-10-30T15:53:20Z</time>
      </trkpt>
      <trkpt lat="43.321646" lon="1.406812">
        <ele>315.0</ele>
        <time>2012-10-30T15:53:37Z</time>
      </trkpt>
      <trkpt lat="43.321653" lon="1.406975">
        <ele>314.5</ele>
        <time>2012-10-30T15:53:48Z</time>
      </trkpt>
      <trkpt lat="43.321651" lon="1.407121">
        <ele>314.5</ele>
        <time>2012-10-30T15:53:58Z</time>
      </trkpt>
      <trkpt lat="43.321654" lon="1.407255">
        <ele>314.0</ele>
        <time>2012-10-30T15:54:07Z</time>
      </trkpt>
      <trkpt lat="43.321650" lon="1.407425">
        <ele>314.5</ele>
        <time>2012-10-30T15:54:17Z</time>
      </trkpt>
      <trkpt lat="43.321654" lon="1.407573">
        <ele>313.5</ele>
        <time>2012-10-30T15:54:27Z</time>
      </trkpt>
      <trkpt lat="43.321662" lon="1.407719">
        <ele>313.5</ele>
        <time>2012-10-30T15:54:38Z</time>
      </trkpt>
      <trkpt lat="43.321676" lon="1.407856">
        <ele>313.0</ele>
        <time>2012-10-30T15:54:50Z</time>
      </trkpt>
      <trkpt lat="43.321694" lon="1.408010">
        <ele>313.0</ele>
        <time>2012-10-30T15:55:01Z</time>
      </trkpt>
      <trkpt lat="43.321726" lon="1.408169">
        <ele>312.6</ele>
        <time>2012-10-30T15:55:13Z</time>
      </trkpt>
      <trkpt lat="43.321763" lon="1.408313">
        <ele>312.6</ele>
        <time>2012-10-30T15:55:24Z</time>
      </trkpt>
      <trkpt lat="43.321811" lon="1.408472">
        <ele>312.6</ele>
        <time>2012-10-30T15:55:35Z</time>
      </trkpt>
      <trkpt lat="43.321857" lon="1.408622">
        <ele>312.6</ele>
        <time>2012-10-30T15:55:46Z</time>
      </trkpt>
      <trkpt lat="43.321860" lon="1.408814">
        <ele>312.1</ele>
        <time>2012-10-30T15:55:59Z</time>
      </trkpt>
      <trkpt lat="43.321856" lon="1.408978">
        <ele>311.6</ele>
        <time>2012-10-30T15:56:10Z</time>
      </trkpt>
      <trkpt lat="43.321874" lon="1.409118">
        <ele>311.6</ele>
        <time>2012-10-30T15:56:20Z</time>
      </trkpt>
      <trkpt lat="43.321884" lon="1.409288">
        <ele>311.6</ele>
        <time>2012-10-30T15:56:30Z</time>
      </trkpt>
      <trkpt lat="43.321894" lon="1.409453">
        <ele>311.1</ele>
        <time>2012-10-30T15:56:40Z</time>
      </trkpt>
      <trkpt lat="43.321893" lon="1.409608">
        <ele>311.1</ele>
        <time>2012-10-30T15:56:50Z</time>
      </trkpt>
      <trkpt lat="43.321887" lon="1.409763">
        <ele>311.6</ele>
        <time>2012-10-30T15:57:01Z</time>
      </trkpt>
      <trkpt lat="43.321890" lon="1.409913">
        <ele>311.1</ele>
        <time>2012-10-30T15:57:11Z</time>
      </trkpt>
      <trkpt lat="43.321892" lon="1.410054">
        <ele>310.6</ele>
        <time>2012-10-30T15:57:20Z</time>
      </trkpt>
      <trkpt lat="43.321885" lon="1.410191">
        <ele>310.6</ele>
        <time>2012-10-30T15:57:33Z</time>
      </trkpt>
      <trkpt lat="43.321881" lon="1.410339">
        <ele>310.2</ele>
        <time>2012-10-30T15:57:43Z</time>
      </trkpt>
      <trkpt lat="43.321875" lon="1.410508">
        <ele>311.1</ele>
        <time>2012-10-30T15:57:52Z</time>
      </trkpt>
      <trkpt lat="43.321863" lon="1.410647">
        <ele>310.6</ele>
        <time>2012-10-30T15:58:00Z</time>
      </trkpt>
      <trkpt lat="43.321856" lon="1.410790">
        <ele>310.6</ele>
        <time>2012-10-30T15:58:08Z</time>
      </trkpt>
      <trkpt lat="43.321847" lon="1.410941">
        <ele>310.6</ele>
        <time>2012-10-30T15:58:17Z</time>
      </trkpt>
      <trkpt lat="43.321836" lon="1.411092">
        <ele>311.1</ele>
        <time>2012-10-30T15:58:25Z</time>
      </trkpt>
      <trkpt lat="43.321815" lon="1.411227">
        <ele>311.1</ele>
        <time>2012-10-30T15:58:33Z</time>
      </trkpt>
      <trkpt lat="43.321788" lon="1.411357">
        <ele>311.6</ele>
        <time>2012-10-30T15:58:40Z</time>
      </trkpt>
      <trkpt lat="43.321756" lon="1.411480">
        <ele>311.1</ele>
        <time>2012-10-30T15:58:47Z</time>
      </trkpt>
      <trkpt lat="43.321732" lon="1.411604">
        <ele>311.6</ele>
        <time>2012-10-30T15:58:54Z</time>
      </trkpt>
      <trkpt lat="43.321701" lon="1.411738">
        <ele>311.6</ele>
        <time>2012-10-30T15:59:03Z</time>
      </trkpt>
      <trkpt lat="43.321663" lon="1.411870">
        <ele>312.6</ele>
        <time>2012-10-30T15:59:11Z</time>
      </trkpt>
      <trkpt lat="43.321628" lon="1.412016">
        <ele>312.1</ele>
        <time>2012-10-30T15:59:19Z</time>
      </trkpt>
      <trkpt lat="43.321603" lon="1.412163">
        <ele>311.1</ele>
        <time>2012-10-30T15:59:28Z</time>
      </trkpt>
      <trkpt lat="43.321583" lon="1.412315">
        <ele>311.6</ele>
        <time>2012-10-30T15:59:37Z</time>
      </trkpt>
      <trkpt lat="43.321567" lon="1.412456">
        <ele>311.6</ele>
        <time>2012-10-30T15:59:45Z</time>
      </trkpt>
      <trkpt lat="43.321553" lon="1.412592">
        <ele>311.1</ele>
        <time>2012-10-30T15:59:53Z</time>
      </trkpt>
      <trkpt lat="43.321535" lon="1.412740">
        <ele>311.1</ele>
        <time>2012-10-30T16:00:01Z</time>
      </trkpt>
      <trkpt lat="43.321517" lon="1.412892">
        <ele>310.6</ele>
        <time>2012-10-30T16:00:09Z</time>
      </trkpt>
      <trkpt lat="43.321519" lon="1.413035">
        <ele>310.6</ele>
        <time>2012-10-30T16:00:18Z</time>
      </trkpt>
      <trkpt lat="43.321507" lon="1.413181">
        <ele>310.6</ele>
        <time>2012-10-30T16:00:26Z</time>
      </trkpt>
      <trkpt lat="43.321483" lon="1.413305">
        <ele>310.6</ele>
        <time>2012-10-30T16:00:34Z</time>
      </trkpt>
      <trkpt lat="43.321462" lon="1.413429">
        <ele>310.6</ele>
        <time>2012-10-30T16:00:42Z</time>
      </trkpt>
      <trkpt lat="43.321434" lon="1.413554">
        <ele>311.6</ele>
        <time>2012-10-30T16:00:50Z</time>
      </trkpt>
      <trkpt lat="43.321410" lon="1.413705">
        <ele>311.1</ele>
        <time>2012-10-30T16:00:59Z</time>
      </trkpt>
      <trkpt lat="43.321377" lon="1.413861">
        <ele>311.1</ele>
        <time>2012-10-30T16:01:07Z</time>
      </trkpt>
      <trkpt lat="43.321345" lon="1.414032">
        <ele>311.6</ele>
        <time>2012-10-30T16:01:17Z</time>
      </trkpt>
      <trkpt lat="43.321311" lon="1.414240">
        <ele>312.1</ele>
        <time>2012-10-30T16:01:29Z</time>
      </trkpt>
      <trkpt lat="43.321285" lon="1.414416">
        <ele>311.1</ele>
        <time>2012-10-30T16:01:39Z</time>
      </trkpt>
      <trkpt lat="43.321223" lon="1.414584">
        <ele>310.2</ele>
        <time>2012-10-30T16:01:51Z</time>
      </trkpt>
      <trkpt lat="43.321206" lon="1.414767">
        <ele>309.2</ele>
        <time>2012-10-30T16:02:00Z</time>
      </trkpt>
      <trkpt lat="43.321162" lon="1.414930">
        <ele>309.2</ele>
        <time>2012-10-30T16:02:09Z</time>
      </trkpt>
      <trkpt lat="43.321097" lon="1.415084">
        <ele>308.2</ele>
        <time>2012-10-30T16:02:18Z</time>
      </trkpt>
      <trkpt lat="43.321047" lon="1.415239">
        <ele>308.2</ele>
        <time>2012-10-30T16:02:27Z</time>
      </trkpt>
      <trkpt lat="43.320982" lon="1.415420">
        <ele>308.2</ele>
        <time>2012-10-30T16:02:37Z</time>
      </trkpt>
      <trkpt lat="43.320942" lon="1.415583">
        <ele>307.8</ele>
        <time>2012-10-30T16:02:45Z</time>
      </trkpt>
      <trkpt lat="43.320950" lon="1.415767">
        <ele>308.2</ele>
        <time>2012-10-30T16:02:53Z</time>
      </trkpt>
      <trkpt lat="43.321004" lon="1.415928">
        <ele>308.2</ele>
        <time>2012-10-30T16:03:02Z</time>
      </trkpt>
      <trkpt lat="43.321065" lon="1.416073">
        <ele>307.8</ele>
        <time>2012-10-30T16:03:09Z</time>
      </trkpt>
      <trkpt lat="43.321109" lon="1.416227">
        <ele>306.8</ele>
        <time>2012-10-30T16:03:16Z</time>
      </trkpt>
      <trkpt lat="43.321157" lon="1.416336">
        <ele>306.3</ele>
        <time>2012-10-30T16:03:23Z</time>
      </trkpt>
      <trkpt lat="43.321186" lon="1.416455">
        <ele>305.4</ele>
        <time>2012-10-30T16:03:30Z</time>
      </trkpt>
      <trkpt lat="43.321196" lon="1.416583">
        <ele>304.9</ele>
        <time>2012-10-30T16:03:36Z</time>
      </trkpt>
      <trkpt lat="43.321224" lon="1.416726">
        <ele>304.4</ele>
        <time>2012-10-30T16:03:43Z</time>
      </trkpt>
      <trkpt lat="43.321238" lon="1.416853">
        <ele>303.4</ele>
        <time>2012-10-30T16:03:49Z</time>
      </trkpt>
      <trkpt lat="43.321270" lon="1.416996">
        <ele>302.0</ele>
        <time>2012-10-30T16:03:56Z</time>
      </trkpt>
      <trkpt lat="43.321305" lon="1.417125">
        <ele>301.0</ele>
        <time>2012-10-30T16:04:03Z</time>
      </trkpt>
      <trkpt lat="43.321339" lon="1.417258">
        <ele>300.5</ele>
        <time>2012-10-30T16:04:10Z</time>
      </trkpt>
      <trkpt lat="43.321378" lon="1.417380">
        <ele>298.6</ele>
        <time>2012-10-30T16:04:17Z</time>
      </trkpt>
      <trkpt lat="43.321409" lon="1.417514">
        <ele>297.7</ele>
        <time>2012-10-30T16:04:24Z</time>
      </trkpt>
      <trkpt lat="43.321444" lon="1.417648">
        <ele>297.2</ele>
        <time>2012-10-30T16:04:31Z</time>
      </trkpt>
      <trkpt lat="43.321491" lon="1.417783">
        <ele>295.7</ele>
        <time>2012-10-30T16:04:39Z</time>
      </trkpt>
      <trkpt lat="43.321523" lon="1.417920">
        <ele>295.3</ele>
        <time>2012-10-30T16:04:46Z</time>
      </trkpt>
      <trkpt lat="43.321568" lon="1.418044">
        <ele>294.8</ele>
        <time>2012-10-30T16:04:54Z</time>
      </trkpt>
      <trkpt lat="43.321613" lon="1.418156">
        <ele>294.3</ele>
        <time>2012-10-30T16:05:02Z</time>
      </trkpt>
      <trkpt lat="43.321651" lon="1.418295">
        <ele>293.3</ele>
        <time>2012-10-30T16:05:10Z</time>
      </trkpt>
      <trkpt lat="43.321671" lon="1.418441">
        <ele>293.8</ele>
        <time>2012-10-30T16:05:18Z</time>
      </trkpt>
      <trkpt lat="43.321681" lon="1.418573">
        <ele>293.3</ele>
        <time>2012-10-30T16:05:25Z</time>
      </trkpt>
      <trkpt lat="43.321707" lon="1.418708">
        <ele>293.8</ele>
        <time>2012-10-30T16:05:32Z</time>
      </trkpt>
      <trkpt lat="43.321744" lon="1.418850">
        <ele>292.4</ele>
        <time>2012-10-30T16:05:40Z</time>
      </trkpt>
      <trkpt lat="43.321790" lon="1.418993">
        <ele>291.9</ele>
        <time>2012-10-30T16:05:50Z</time>
      </trkpt>
      <trkpt lat="43.321871" lon="1.419104">
        <ele>292.4</ele>
        <time>2012-10-30T16:05:58Z</time>
      </trkpt>
      <trkpt lat="43.321927" lon="1.419212">
        <ele>292.4</ele>
        <time>2012-10-30T16:06:06Z</time>
      </trkpt>
      <trkpt lat="43.321977" lon="1.419318">
        <ele>291.9</ele>
        <time>2012-10-30T16:06:14Z</time>
      </trkpt>
      <trkpt lat="43.322036" lon="1.419448">
        <ele>291.9</ele>
        <time>2012-10-30T16:06:22Z</time>
      </trkpt>
      <trkpt lat="43.322081" lon="1.419571">
        <ele>291.4</ele>
        <time>2012-10-30T16:06:30Z</time>
      </trkpt>
      <trkpt lat="43.322122" lon="1.419685">
        <ele>290.9</ele>
        <time>2012-10-30T16:06:38Z</time>
      </trkpt>
      <trkpt lat="43.322170" lon="1.419809">
        <ele>290.9</ele>
        <time>2012-10-30T16:06:46Z</time>
      </trkpt>
      <trkpt lat="43.322218" lon="1.419935">
        <ele>290.9</ele>
        <time>2012-10-30T16:06:55Z</time>
      </trkpt>
      <trkpt lat="43.322279" lon="1.420038">
        <ele>290.9</ele>
        <time>2012-10-30T16:07:04Z</time>
      </trkpt>
      <trkpt lat="43.322334" lon="1.420173">
        <ele>290.5</ele>
        <time>2012-10-30T16:07:13Z</time>
      </trkpt>
      <trkpt lat="43.322396" lon="1.420308">
        <ele>290.5</ele>
        <time>2012-10-30T16:07:23Z</time>
      </trkpt>
      <trkpt lat="43.322467" lon="1.420457">
        <ele>289.5</ele>
        <time>2012-10-30T16:07:34Z</time>
      </trkpt>
      <trkpt lat="43.322541" lon="1.420616">
        <ele>288.5</ele>
        <time>2012-10-30T16:07:47Z</time>
      </trkpt>
      <trkpt lat="43.322599" lon="1.420744">
        <ele>287.1</ele>
        <time>2012-10-30T16:07:58Z</time>
      </trkpt>
      <trkpt lat="43.322667" lon="1.420854">
        <ele>286.1</ele>
        <time>2012-10-30T16:08:08Z</time>
      </trkpt>
      <trkpt lat="43.322724" lon="1.420987">
        <ele>284.2</ele>
        <time>2012-10-30T16:08:22Z</time>
      </trkpt>
      <trkpt lat="43.322761" lon="1.421105">
        <ele>283.2</ele>
        <time>2012-10-30T16:08:31Z</time>
      </trkpt>
      <trkpt lat="43.322830" lon="1.421285">
        <ele>281.8</ele>
        <time>2012-10-30T16:08:44Z</time>
      </trkpt>
      <trkpt lat="43.322876" lon="1.421457">
        <ele>280.4</ele>
        <time>2012-10-30T16:08:56Z</time>
      </trkpt>
      <trkpt lat="43.322934" lon="1.421627">
        <ele>278.9</ele>
        <time>2012-10-30T16:09:08Z</time>
      </trkpt>
      <trkpt lat="43.322985" lon="1.421766">
        <ele>278.0</ele>
        <time>2012-10-30T16:09:18Z</time>
      </trkpt>
      <trkpt lat="43.323024" lon="1.421892">
        <ele>276.5</ele>
        <time>2012-10-30T16:09:58Z</time>
      </trkpt>
      <trkpt lat="43.323079" lon="1.422037">
        <ele>275.6</ele>
        <time>2012-10-30T16:10:07Z</time>
      </trkpt>
      <trkpt lat="43.323129" lon="1.422180">
        <ele>274.1</ele>
        <time>2012-10-30T16:10:17Z</time>
      </trkpt>
      <trkpt lat="43.323176" lon="1.422346">
        <ele>271.7</ele>
        <time>2012-10-30T16:10:27Z</time>
      </trkpt>
      <trkpt lat="43.323223" lon="1.422479">
        <ele>270.3</ele>
        <time>2012-10-30T16:10:37Z</time>
      </trkpt>
      <trkpt lat="43.323265" lon="1.422607">
        <ele>270.3</ele>
        <time>2012-10-30T16:10:46Z</time>
      </trkpt>
      <trkpt lat="43.323309" lon="1.422742">
        <ele>269.8</ele>
        <time>2012-10-30T16:10:55Z</time>
      </trkpt>
      <trkpt lat="43.323349" lon="1.422881">
        <ele>267.9</ele>
        <time>2012-10-30T16:11:05Z</time>
      </trkpt>
      <trkpt lat="43.323419" lon="1.423024">
        <ele>266.9</ele>
        <time>2012-10-30T16:11:18Z</time>
      </trkpt>
      <trkpt lat="43.323467" lon="1.423205">
        <ele>264.5</ele>
        <time>2012-10-30T16:11:31Z</time>
      </trkpt>
      <trkpt lat="43.323530" lon="1.423385">
        <ele>262.6</ele>
        <time>2012-10-30T16:11:43Z</time>
      </trkpt>
      <trkpt lat="43.323577" lon="1.423556">
        <ele>261.1</ele>
        <time>2012-10-30T16:11:55Z</time>
      </trkpt>
      <trkpt lat="43.323631" lon="1.423720">
        <ele>260.6</ele>
        <time>2012-10-30T16:12:06Z</time>
      </trkpt>
      <trkpt lat="43.323720" lon="1.423899">
        <ele>259.7</ele>
        <time>2012-10-30T16:12:19Z</time>
      </trkpt>
      <trkpt lat="43.323788" lon="1.424056">
        <ele>258.2</ele>
        <time>2012-10-30T16:12:30Z</time>
      </trkpt>
      <trkpt lat="43.323853" lon="1.424188">
        <ele>257.3</ele>
        <time>2012-10-30T16:12:39Z</time>
      </trkpt>
      <trkpt lat="43.323914" lon="1.424322">
        <ele>257.8</ele>
        <time>2012-10-30T16:12:48Z</time>
      </trkpt>
      <trkpt lat="43.323964" lon="1.424458">
        <ele>257.8</ele>
        <time>2012-10-30T16:12:57Z</time>
      </trkpt>
      <trkpt lat="43.324018" lon="1.424599">
        <ele>257.3</ele>
        <time>2012-10-30T16:13:06Z</time>
      </trkpt>
      <trkpt lat="43.324048" lon="1.424737">
        <ele>256.3</ele>
        <time>2012-10-30T16:13:14Z</time>
      </trkpt>
      <trkpt lat="43.324051" lon="1.424877">
        <ele>255.9</ele>
        <time>2012-10-30T16:13:22Z</time>
      </trkpt>
      <trkpt lat="43.324042" lon="1.425009">
        <ele>254.9</ele>
        <time>2012-10-30T16:13:30Z</time>
      </trkpt>
      <trkpt lat="43.324039" lon="1.425144">
        <ele>254.9</ele>
        <time>2012-10-30T16:13:38Z</time>
      </trkpt>
      <trkpt lat="43.324022" lon="1.425272">
        <ele>253.9</ele>
        <time>2012-10-30T16:13:46Z</time>
      </trkpt>
      <trkpt lat="43.324012" lon="1.425401">
        <ele>253.0</ele>
        <time>2012-10-30T16:13:54Z</time>
      </trkpt>
      <trkpt lat="43.324005" lon="1.425530">
        <ele>253.4</ele>
        <time>2012-10-30T16:14:02Z</time>
      </trkpt>
      <trkpt lat="43.324005" lon="1.425666">
        <ele>253.4</ele>
        <time>2012-10-30T16:14:10Z</time>
      </trkpt>
      <trkpt lat="43.324000" lon="1.425796">
        <ele>253.0</ele>
        <time>2012-10-30T16:14:18Z</time>
      </trkpt>
      <trkpt lat="43.323998" lon="1.425930">
        <ele>252.0</ele>
        <time>2012-10-30T16:14:26Z</time>
      </trkpt>
      <trkpt lat="43.323994" lon="1.426060">
        <ele>252.0</ele>
        <time>2012-10-30T16:14:34Z</time>
      </trkpt>
      <trkpt lat="43.323977" lon="1.426176">
        <ele>252.0</ele>
        <time>2012-10-30T16:14:42Z</time>
      </trkpt>
      <trkpt lat="43.323964" lon="1.426318">
        <ele>251.5</ele>
        <time>2012-10-30T16:14:50Z</time>
      </trkpt>
      <trkpt lat="43.323976" lon="1.426428">
        <ele>251.5</ele>
        <time>2012-10-30T16:14:59Z</time>
      </trkpt>
      <trkpt lat="43.323977" lon="1.426547">
        <ele>250.1</ele>
        <time>2012-10-30T16:15:07Z</time>
      </trkpt>
      <trkpt lat="43.323973" lon="1.426672">
        <ele>250.1</ele>
        <time>2012-10-30T16:15:15Z</time>
      </trkpt>
      <trkpt lat="43.323966" lon="1.426807">
        <ele>250.1</ele>
        <time>2012-10-30T16:15:23Z</time>
      </trkpt>
      <trkpt lat="43.323982" lon="1.426975">
        <ele>249.1</ele>
        <time>2012-10-30T16:15:32Z</time>
      </trkpt>
      <trkpt lat="43.323997" lon="1.427125">
        <ele>249.6</ele>
        <time>2012-10-30T16:15:41Z</time>
      </trkpt>
      <trkpt lat="43.324012" lon="1.427254">
        <ele>249.1</ele>
        <time>2012-10-30T16:15:50Z</time>
      </trkpt>
      <trkpt lat="43.324022" lon="1.427398">
        <ele>248.6</ele>
        <time>2012-10-30T16:15:59Z</time>
      </trkpt>
      <trkpt lat="43.324027" lon="1.427549">
        <ele>247.7</ele>
        <time>2012-10-30T16:16:08Z</time>
      </trkpt>
      <trkpt lat="43.324043" lon="1.427693">
        <ele>247.2</ele>
        <time>2012-10-30T16:16:17Z</time>
      </trkpt>
      <trkpt lat="43.324053" lon="1.427828">
        <ele>246.2</ele>
        <time>2012-10-30T16:16:26Z</time>
      </trkpt>
      <trkpt lat="43.324070" lon="1.427950">
        <ele>245.3</ele>
        <time>2012-10-30T16:16:34Z</time>
      </trkpt>
      <trkpt lat="43.324086" lon="1.428080">
        <ele>245.3</ele>
        <time>2012-10-30T16:16:43Z</time>
      </trkpt>
      <trkpt lat="43.324106" lon="1.428197">
        <ele>244.8</ele>
        <time>2012-10-30T16:16:52Z</time>
      </trkpt>
      <trkpt lat="43.324169" lon="1.428228">
        <ele>244.3</ele>
        <time>2012-10-30T16:17:03Z</time>
      </trkpt>
      <trkpt lat="43.324138" lon="1.428333">
        <ele>244.3</ele>
        <time>2012-10-30T16:17:33Z</time>
      </trkpt>
      <trkpt lat="43.324153" lon="1.428468">
        <ele>243.8</ele>
        <time>2012-10-30T16:17:42Z</time>
      </trkpt>
      <trkpt lat="43.324181" lon="1.428589">
        <ele>243.4</ele>
        <time>2012-10-30T16:17:51Z</time>
      </trkpt>
      <trkpt lat="43.324211" lon="1.428723">
        <ele>242.9</ele>
        <time>2012-10-30T16:18:00Z</time>
      </trkpt>
      <trkpt lat="43.324250" lon="1.428848">
        <ele>241.4</ele>
        <time>2012-10-30T16:18:08Z</time>
      </trkpt>
      <trkpt lat="43.324293" lon="1.428967">
        <ele>240.5</ele>
        <time>2012-10-30T16:18:16Z</time>
      </trkpt>
      <trkpt lat="43.324352" lon="1.429079">
        <ele>240.9</ele>
        <time>2012-10-30T16:18:25Z</time>
      </trkpt>
      <trkpt lat="43.324392" lon="1.429203">
        <ele>240.0</ele>
        <time>2012-10-30T16:18:34Z</time>
      </trkpt>
      <trkpt lat="43.324425" lon="1.429316">
        <ele>239.5</ele>
        <time>2012-10-30T16:18:42Z</time>
      </trkpt>
      <trkpt lat="43.324442" lon="1.429450">
        <ele>239.0</ele>
        <time>2012-10-30T16:18:51Z</time>
      </trkpt>
      <trkpt lat="43.324462" lon="1.429578">
        <ele>239.0</ele>
        <time>2012-10-30T16:19:00Z</time>
      </trkpt>
      <trkpt lat="43.324465" lon="1.429730">
        <ele>237.6</ele>
        <time>2012-10-30T16:19:08Z</time>
      </trkpt>
      <trkpt lat="43.324473" lon="1.429862">
        <ele>237.6</ele>
        <time>2012-10-30T16:19:16Z</time>
      </trkpt>
      <trkpt lat="43.324470" lon="1.429999">
        <ele>237.1</ele>
        <time>2012-10-30T16:19:24Z</time>
      </trkpt>
      <trkpt lat="43.324448" lon="1.430127">
        <ele>236.6</ele>
        <time>2012-10-30T16:19:32Z</time>
      </trkpt>
      <trkpt lat="43.324394" lon="1.430245">
        <ele>235.2</ele>
        <time>2012-10-30T16:19:40Z</time>
      </trkpt>
      <trkpt lat="43.324307" lon="1.430310">
        <ele>233.7</ele>
        <time>2012-10-30T16:19:48Z</time>
      </trkpt>
      <trkpt lat="43.324221" lon="1.430344">
        <ele>233.7</ele>
        <time>2012-10-30T16:19:56Z</time>
      </trkpt>
      <trkpt lat="43.324125" lon="1.430384">
        <ele>233.3</ele>
        <time>2012-10-30T16:20:05Z</time>
      </trkpt>
      <trkpt lat="43.324018" lon="1.430424">
        <ele>233.3</ele>
        <time>2012-10-30T16:20:15Z</time>
      </trkpt>
      <trkpt lat="43.323916" lon="1.430455">
        <ele>232.8</ele>
        <time>2012-10-30T16:20:24Z</time>
      </trkpt>
      <trkpt lat="43.323823" lon="1.430545">
        <ele>231.8</ele>
        <time>2012-10-30T16:20:33Z</time>
      </trkpt>
      <trkpt lat="43.323739" lon="1.430646">
        <ele>230.9</ele>
        <time>2012-10-30T16:20:42Z</time>
      </trkpt>
      <trkpt lat="43.323660" lon="1.430748">
        <ele>229.9</ele>
        <time>2012-10-30T16:20:50Z</time>
      </trkpt>
      <trkpt lat="43.323613" lon="1.430867">
        <ele>228.9</ele>
        <time>2012-10-30T16:20:59Z</time>
      </trkpt>
      <trkpt lat="43.323546" lon="1.431028">
        <ele>228.0</ele>
        <time>2012-10-30T16:21:09Z</time>
      </trkpt>
      <trkpt lat="43.323488" lon="1.431151">
        <ele>227.0</ele>
        <time>2012-10-30T16:21:18Z</time>
      </trkpt>
      <trkpt lat="43.323437" lon="1.431272">
        <ele>227.0</ele>
        <time>2012-10-30T16:21:25Z</time>
      </trkpt>
      <trkpt lat="43.323443" lon="1.431434">
        <ele>226.1</ele>
        <time>2012-10-30T16:21:35Z</time>
      </trkpt>
      <trkpt lat="43.323389" lon="1.431562">
        <ele>225.6</ele>
        <time>2012-10-30T16:21:43Z</time>
      </trkpt>
      <trkpt lat="43.323328" lon="1.431695">
        <ele>224.6</ele>
        <time>2012-10-30T16:21:52Z</time>
      </trkpt>
      <trkpt lat="43.323273" lon="1.431813">
        <ele>223.6</ele>
        <time>2012-10-30T16:22:00Z</time>
      </trkpt>
      <trkpt lat="43.323202" lon="1.431947">
        <ele>221.7</ele>
        <time>2012-10-30T16:22:10Z</time>
      </trkpt>
      <trkpt lat="43.323135" lon="1.432058">
        <ele>221.2</ele>
        <time>2012-10-30T16:22:18Z</time>
      </trkpt>
      <trkpt lat="43.323049" lon="1.432159">
        <ele>219.8</ele>
        <time>2012-10-30T16:22:27Z</time>
      </trkpt>
      <trkpt lat="43.322976" lon="1.432261">
        <ele>218.4</ele>
        <time>2012-10-30T16:22:36Z</time>
      </trkpt>
      <trkpt lat="43.323024" lon="1.432362">
        <ele>217.9</ele>
        <time>2012-10-30T16:22:45Z</time>
      </trkpt>
      <trkpt lat="43.323106" lon="1.432501">
        <ele>216.9</ele>
        <time>2012-10-30T16:22:55Z</time>
      </trkpt>
      <trkpt lat="43.323187" lon="1.432621">
        <ele>216.9</ele>
        <time>2012-10-30T16:23:05Z</time>
      </trkpt>
      <trkpt lat="43.323274" lon="1.432771">
        <ele>216.4</ele>
        <time>2012-10-30T16:23:16Z</time>
      </trkpt>
      <trkpt lat="43.323329" lon="1.432953">
        <ele>215.9</ele>
        <time>2012-10-30T16:23:25Z</time>
      </trkpt>
      <trkpt lat="43.323400" lon="1.433094">
        <ele>215.9</ele>
        <time>2012-10-30T16:23:35Z</time>
      </trkpt>
      <trkpt lat="43.323516" lon="1.433207">
        <ele>215.0</ele>
        <time>2012-10-30T16:23:44Z</time>
      </trkpt>
      <trkpt lat="43.323617" lon="1.433299">
        <ele>215.5</ele>
        <time>2012-10-30T16:23:53Z</time>
      </trkpt>
      <trkpt lat="43.323706" lon="1.433371">
        <ele>214.5</ele>
        <time>2012-10-30T16:24:03Z</time>
      </trkpt>
      <trkpt lat="43.323764" lon="1.433493">
        <ele>214.5</ele>
        <time>2012-10-30T16:24:11Z</time>
      </trkpt>
      <trkpt lat="43.323787" lon="1.433647">
        <ele>214.0</ele>
        <time>2012-10-30T16:24:19Z</time>
      </trkpt>
      <trkpt lat="43.323835" lon="1.433771">
        <ele>213.6</ele>
        <time>2012-10-30T16:24:27Z</time>
      </trkpt>
      <trkpt lat="43.323845" lon="1.433897">
        <ele>212.6</ele>
        <time>2012-10-30T16:24:38Z</time>
      </trkpt>
      <trkpt lat="43.323824" lon="1.433870">
        <ele>210.2</ele>
        <time>2012-10-30T16:25:05Z</time>
      </trkpt>
    </trkseg>
  </trk>
</gpx>

